Provisional Data: Sterling Run near Sterling Run, PA


Please select a monitoring station.
Please select start date.
Please select start date.

Toggle Unit: C/F Toggle Unit: C/F
Sample Time Temperature (C) Temperature (F) Specific Conductivity (mS/cm) pH   Turbidity (NTU+) DO (mg/L)
12/4/2020 12:00:00 AM 3.09 37.562 0.077 6.68 3.21 12.94
12/4/2020 12:15:00 AM 3.09 37.562 0.077 6.68 3.22 12.94
12/4/2020 12:30:00 AM 3.09 37.562 0.077 6.69 3.18 12.93
12/4/2020 12:45:00 AM 3.1 37.58 0.077 6.69 3.22 12.94
12/4/2020 1:00:00 AM 3.1 37.58 0.077 6.69 3.23 12.93
12/4/2020 1:15:00 AM 3.1 37.58 0.077 6.69 3.22 12.93
12/4/2020 1:30:00 AM 3.11 37.598 0.077 6.68 3.21 12.92
12/4/2020 1:45:00 AM 3.11 37.598 0.077 6.69 3.25 12.92
12/4/2020 2:00:00 AM 3.11 37.598 0.077 6.68 3.2 12.92
12/4/2020 2:15:00 AM 3.11 37.598 0.077 6.68 3.19 12.92
12/4/2020 2:30:00 AM 3.11 37.598 0.077 6.68 3.17 12.91
12/4/2020 2:45:00 AM 3.11 37.598 0.077 6.69 3.18 12.92
12/4/2020 3:00:00 AM 3.11 37.598 0.077 6.69 3.18 12.91
12/4/2020 3:15:00 AM 3.11 37.598 0.077 6.68 3.17 12.92
12/4/2020 3:30:00 AM 3.11 37.598 0.077 6.69 3.17 12.91
12/4/2020 3:45:00 AM 3.11 37.598 0.077 6.68 3.19 12.91
12/4/2020 4:00:00 AM 3.12 37.616 0.078 6.69 3.2 12.9
12/4/2020 4:15:00 AM 3.12 37.616 0.078 6.68 3.17 12.91
12/4/2020 4:30:00 AM 3.12 37.616 0.078 6.68 3.16 12.9
12/4/2020 4:45:00 AM 3.11 37.598 0.078 6.68 3.17 12.9
12/4/2020 5:00:00 AM 3.09 37.562 0.078 6.68 3.19 12.91
12/4/2020 5:15:00 AM 3.09 37.562 0.078 6.69 3.18 12.91
12/4/2020 5:30:00 AM 3.08 37.544 0.078 6.68 3.19 12.91
12/4/2020 5:45:00 AM 3.09 37.562 0.078 6.68 3.16 12.91
12/4/2020 6:00:00 AM 3.08 37.544 0.078 6.68 3.26 12.91
12/4/2020 6:15:00 AM 3.09 37.562 0.078 6.68 3.18 12.91
12/4/2020 6:30:00 AM 3.1 37.58 0.078 6.68 3.19 12.91
12/4/2020 6:45:00 AM 3.09 37.562 0.078 6.68 3.2 12.91
12/4/2020 7:00:00 AM 3.1 37.58 0.078 6.69 3.18 12.91
12/4/2020 7:15:00 AM 3.1 37.58 0.078 6.68 3.19 12.91
12/4/2020 7:30:00 AM 3.09 37.562 0.078 6.69 3.14 12.92
12/4/2020 7:45:00 AM 3.09 37.562 0.078 6.68 3.18 12.94
12/4/2020 8:00:00 AM 3.1 37.58 0.078 6.69 3.2 12.95
12/4/2020 8:15:00 AM 3.12 37.616 0.078 6.7 3.19 12.98
12/4/2020 8:30:00 AM 3.14 37.652 0.078 6.72 3.21 13.01
12/4/2020 8:45:00 AM 3.17 37.706 0.078 6.71 3.18 13.03
12/4/2020 9:00:00 AM 3.19 37.742 0.078 6.72 3.2 13.04
12/4/2020 9:15:00 AM 3.24 37.832 0.078 6.74 3.14 13.05
12/4/2020 9:30:00 AM 3.27 37.886 0.078 6.74 3.16 13.05
12/4/2020 9:45:00 AM 3.31 37.958 0.078 6.74 3.13 13.04
12/4/2020 10:00:00 AM 3.36 38.048 0.078 6.74 3.25 13.02
12/4/2020 10:15:00 AM 3.4 38.12 0.078 6.74 3.15 13.02
12/4/2020 10:30:00 AM 3.45 38.21 0.078 6.75 3.16 13.01
12/4/2020 10:45:00 AM 3.52 38.336 0.078 6.75 3.14 12.99
12/4/2020 11:00:00 AM 3.6 38.48 0.078 6.76 3.14 12.98
12/4/2020 11:15:00 AM 3.68 38.624 0.078 6.76 3.11 12.96
12/4/2020 11:30:00 AM 3.78 38.804 0.078 6.77 3.13 12.93
12/4/2020 11:45:00 AM 3.9 39.02 0.078 6.77 3.14 12.91
12/4/2020 12:00:00 PM 3.99 39.182 0.078 6.78 3.2 12.88
12/4/2020 12:15:00 PM 4.09 39.362 0.078 6.78 3.14 12.83
12/4/2020 12:30:00 PM 4.15 39.47 0.078 6.76 3.09 12.81
12/4/2020 12:45:00 PM 4.19 39.542 0.078 6.77 3.16 12.78
12/4/2020 1:00:00 PM 4.21 39.578 0.078 6.76 3.2 12.76
12/4/2020 1:15:00 PM 4.22 39.596 0.078 6.75 3.16 12.74
12/4/2020 1:30:00 PM 4.24 39.632 0.078 6.76 3.15 12.73
12/4/2020 1:45:00 PM 4.25 39.65 0.078 6.74 3.14 12.71
12/4/2020 2:00:00 PM 4.28 39.704 0.078 6.76 3.18 12.69
12/4/2020 2:15:00 PM 4.29 39.722 0.078 6.75 3.14 12.67
12/4/2020 2:30:00 PM 4.3 39.74 0.078 6.74 3.17 12.66
12/4/2020 2:45:00 PM 4.3 39.74 0.078 6.73 3.18 12.64
12/4/2020 3:00:00 PM 4.3 39.74 0.078 6.73 3.17 12.62
12/4/2020 3:15:00 PM 4.31 39.758 0.078 6.72 3.16 12.62
12/4/2020 3:30:00 PM 4.31 39.758 0.078 6.73 3.17 12.61
12/4/2020 3:45:00 PM 4.29 39.722 0.078 6.72 3.17 12.6
12/4/2020 4:00:00 PM 4.25 39.65 0.078 6.72 3.18 12.59
12/4/2020 4:15:00 PM 4.21 39.578 0.078 6.71 3.2 12.6
12/4/2020 4:30:00 PM 4.17 39.506 0.078 6.7 3.2 12.57
12/4/2020 4:45:00 PM 4.14 39.452 0.078 6.7 3.19 12.55
12/4/2020 5:00:00 PM 4.1 39.38 0.078 6.69 3.22 12.53
12/4/2020 5:15:00 PM 4.07 39.326 0.078 6.69 3.21 12.53
12/4/2020 5:30:00 PM 4.03 39.254 0.078 6.69 3.3 12.53
12/4/2020 5:45:00 PM 3.99 39.182 0.078 6.69 3.2 12.53
12/4/2020 6:00:00 PM 3.97 39.146 0.078 6.68 3.16 12.54
12/4/2020 6:15:00 PM 3.94 39.092 0.078 6.69 3.23 12.54
12/4/2020 6:30:00 PM 3.92 39.056 0.078 6.69 3.21 12.55
12/4/2020 6:45:00 PM 3.89 39.002 0.078 6.69 3.22 12.56
12/4/2020 7:00:00 PM 3.86 38.948 0.079 6.69 3.18 12.57
12/4/2020 7:15:00 PM 3.83 38.894 0.079 6.68 3.2 12.58
12/4/2020 7:30:00 PM 3.81 38.858 0.079 6.68 3.25 12.59
12/4/2020 7:45:00 PM 3.81 38.858 0.079 6.69 3.23 12.6
12/4/2020 8:00:00 PM 3.8 38.84 0.079 6.69 3.21 12.6
12/4/2020 8:15:00 PM 3.8 38.84 0.079 6.69 3.27 12.61
12/4/2020 8:30:00 PM 3.8 38.84 0.079 6.69 3.22 12.61
12/4/2020 8:45:00 PM 3.78 38.804 0.079 6.68 3.19 12.62
12/4/2020 9:00:00 PM 3.78 38.804 0.079 6.69 3.24 12.62
12/4/2020 9:15:00 PM 3.78 38.804 0.079 6.69 3.2 12.63
12/4/2020 9:30:00 PM 3.79 38.822 0.079 6.68 3.24 12.62
12/4/2020 9:45:00 PM 3.78 38.804 0.079 6.69 3.24 12.62
12/4/2020 10:00:00 PM 3.78 38.804 0.079 6.69 3.21 12.63
12/4/2020 10:15:00 PM 3.79 38.822 0.079 6.68 3.23 12.63
12/4/2020 10:30:00 PM 3.79 38.822 0.079 6.68 3.24 12.62
12/4/2020 10:45:00 PM 3.79 38.822 0.079 6.69 3.26 12.62
12/4/2020 11:00:00 PM 3.79 38.822 0.079 6.68 3.27 12.62
12/4/2020 11:15:00 PM 3.77 38.786 0.079 6.68 3.24 12.62
12/4/2020 11:30:00 PM 3.75 38.75 0.079 6.68 3.24 12.63
12/4/2020 11:45:00 PM 3.72 38.696 0.079 6.67 3.24 12.63
12/5/2020 12:00:00 AM 3.71 38.678 0.079 6.68 3.22 12.63
12/5/2020 12:15:00 AM 3.7 38.66 0.079 6.67 3.43 12.64
12/5/2020 12:30:00 AM 3.69 38.642 0.079 6.68 3.33 12.65
12/5/2020 12:45:00 AM 3.69 38.642 0.08 6.67 3.24 12.64
12/5/2020 1:00:00 AM 3.68 38.624 0.08 6.67 3.31 12.64
12/5/2020 1:15:00 AM 3.68 38.624 0.08 6.68 3.24 12.64
12/5/2020 1:30:00 AM 3.69 38.642 0.08 6.68 3.25 12.65
12/5/2020 1:45:00 AM 3.69 38.642 0.08 6.68 3.24 12.64
12/5/2020 2:00:00 AM 3.68 38.624 0.08 6.68 3.26 12.65
12/5/2020 2:15:00 AM 3.69 38.642 0.08 6.68 3.24 12.64
12/5/2020 2:30:00 AM 3.69 38.642 0.08 6.68 3.25 12.63
12/5/2020 2:45:00 AM 3.7 38.66 0.08 6.68 3.24 12.63
12/5/2020 3:00:00 AM 3.7 38.66 0.08 6.68 3.26 12.64
12/5/2020 3:15:00 AM 3.71 38.678 0.08 6.68 3.23 12.63
12/5/2020 3:30:00 AM 3.71 38.678 0.08 6.68 3.24 12.62
12/5/2020 3:45:00 AM 3.72 38.696 0.08 6.68 3.24 12.63
12/5/2020 4:00:00 AM 3.73 38.714 0.08 6.68 3.22 12.63
12/5/2020 4:15:00 AM 3.73 38.714 0.08 6.68 3.23 12.63
12/5/2020 4:30:00 AM 3.74 38.732 0.08 6.67 3.25 12.61
12/5/2020 4:45:00 AM 3.74 38.732 0.08 6.68 3.24 12.62
12/5/2020 5:00:00 AM 3.75 38.75 0.08 6.67 3.28 12.61
12/5/2020 5:15:00 AM 3.76 38.768 0.08 6.67 3.24 12.61
12/5/2020 5:30:00 AM 3.77 38.786 0.08 6.67 3.23 12.6
12/5/2020 5:45:00 AM 3.77 38.786 0.08 6.67 3.23 12.61
12/5/2020 6:00:00 AM 3.77 38.786 0.08 6.67 3.21 12.6
12/5/2020 6:15:00 AM 3.77 38.786 0.08 6.67 3.27 12.61
12/5/2020 6:30:00 AM 3.78 38.804 0.08 6.67 3.26 12.6
12/5/2020 6:45:00 AM 3.79 38.822 0.08 6.67 3.25 12.61
12/5/2020 7:00:00 AM 3.79 38.822 0.08 6.67 3.24 12.61
12/5/2020 7:15:00 AM 3.78 38.804 0.08 6.66 3.25 12.61
12/5/2020 7:30:00 AM 3.79 38.822 0.08 6.67 3.32 12.61
12/5/2020 7:45:00 AM 3.8 38.84 0.081 6.67 3.25 12.62
12/5/2020 8:00:00 AM 3.81 38.858 0.08 6.68 3.24 12.64
12/5/2020 8:15:00 AM 3.82 38.876 0.08 6.69 3.26 12.67
12/5/2020 8:30:00 AM 3.84 38.912 0.08 6.7 3.26 12.7
12/5/2020 8:45:00 AM 3.85 38.93 0.08 6.71 3.24 12.71
12/5/2020 9:00:00 AM 3.87 38.966 0.08 6.71 3.24 12.72
12/5/2020 9:15:00 AM 3.89 39.002 0.08 6.72 3.24 12.73
12/5/2020 9:30:00 AM 3.92 39.056 0.08 6.73 3.29 12.74
12/5/2020 9:45:00 AM 3.95 39.11 0.08 6.74 3.23 12.75
12/5/2020 10:00:00 AM 3.98 39.164 0.08 6.74 3.23 12.76
12/5/2020 10:15:00 AM 4.01 39.218 0.08 6.74 3.25 12.75
12/5/2020 10:30:00 AM 4.03 39.254 0.08 6.75 3.23 12.75
12/5/2020 10:45:00 AM 4.04 39.272 0.08 6.74 3.21 12.75
12/5/2020 11:00:00 AM 4.05 39.29 0.08 6.74 3.25 12.73
12/5/2020 11:15:00 AM 4.09 39.362 0.08 6.75 3.21 12.74
12/5/2020 11:30:00 AM 4.13 39.434 0.08 6.76 3.2 12.74
12/5/2020 11:45:00 AM 4.16 39.488 0.08 6.75 3.25 12.73
12/5/2020 12:00:00 PM 4.22 39.596 0.08 6.76 3.21 12.73
12/5/2020 12:15:00 PM 4.24 39.632 0.08 6.76 3.26 12.71
12/5/2020 12:30:00 PM 4.24 39.632 0.08 6.75 3.25 12.7
12/5/2020 12:45:00 PM 4.26 39.668 0.08 6.74 3.33 12.69
12/5/2020 1:00:00 PM 4.26 39.668 0.08 6.75 3.21 12.67
12/5/2020 1:15:00 PM 4.29 39.722 0.08 6.75 3.25 12.66
12/5/2020 1:30:00 PM 4.32 39.776 0.08 6.75 3.3 12.65
12/5/2020 1:45:00 PM 4.31 39.758 0.08 6.74 3.28 12.64
12/5/2020 2:00:00 PM 4.3 39.74 0.08 6.74 3.21 12.64
12/5/2020 2:15:00 PM 4.3 39.74 0.08 6.73 3.24 12.63
12/5/2020 2:30:00 PM 4.3 39.74 0.08 6.74 3.25 12.63
12/5/2020 2:45:00 PM 4.3 39.74 0.08 6.72 3.27 12.62
12/5/2020 3:00:00 PM 4.31 39.758 0.08 6.73 3.23 12.6
12/5/2020 3:15:00 PM 4.3 39.74 0.08 6.73 3.23 12.59
12/5/2020 3:30:00 PM 4.29 39.722 0.08 6.72 3.25 12.58
12/5/2020 3:45:00 PM 4.29 39.722 0.08 6.72 3.25 12.58
12/5/2020 4:00:00 PM 4.28 39.704 0.08 6.71 3.27 12.56
12/5/2020 4:15:00 PM 4.25 39.65 0.08 6.7 3.26 12.54
12/5/2020 4:30:00 PM 4.24 39.632 0.08 6.7 3.24 12.53
12/5/2020 4:45:00 PM 4.23 39.614 0.08 6.69 3.22 12.52
12/5/2020 5:00:00 PM 4.22 39.596 0.08 6.69 3.23 12.51
12/5/2020 5:15:00 PM 4.2 39.56 0.081 6.69 3.2 12.49
12/5/2020 5:30:00 PM 4.19 39.542 0.081 6.68 3.26 12.5
12/5/2020 5:45:00 PM 4.16 39.488 0.081 6.68 3.25 12.5
12/5/2020 6:00:00 PM 4.15 39.47 0.081 6.68 3.2 12.5
12/5/2020 6:15:00 PM 4.14 39.452 0.081 6.68 3.21 12.5
12/5/2020 6:30:00 PM 4.13 39.434 0.081 6.68 3.22 12.5
12/5/2020 6:45:00 PM 4.12 39.416 0.081 6.68 4.26 12.5
12/5/2020 7:00:00 PM 4.11 39.398 0.081 6.68 4.21 12.51
12/5/2020 7:15:00 PM 4.1 39.38 0.081 6.68 3.31 12.51
12/5/2020 7:30:00 PM 4.08 39.344 0.081 6.68 3.43 12.52
12/5/2020 7:45:00 PM 4.06 39.308 0.081 6.68 3.25 12.52
12/5/2020 8:00:00 PM 4.05 39.29 0.081 6.68 3.3 12.52
12/5/2020 8:15:00 PM 4.04 39.272 0.081 6.68 3.3 12.53
12/5/2020 8:30:00 PM 4.02 39.236 0.081 6.68 3.3 12.54
12/5/2020 8:45:00 PM 4.01 39.218 0.081 6.67 3.31 12.54
12/5/2020 9:00:00 PM 4 39.2 0.081 6.68 3.48 12.54
12/5/2020 9:15:00 PM 3.99 39.182 0.081 6.68 3.43 12.55
12/5/2020 9:30:00 PM 3.98 39.164 0.081 6.67 3.38 12.55
12/5/2020 9:45:00 PM 3.97 39.146 0.081 6.67 3.44 12.55
12/5/2020 10:00:00 PM 3.96 39.128 0.081 6.67 3.39 12.56
12/5/2020 10:15:00 PM 3.95 39.11 0.081 6.68 3.42 12.56
12/5/2020 10:30:00 PM 3.94 39.092 0.081 6.68 3.39 12.57
12/5/2020 10:45:00 PM 3.93 39.074 0.081 6.68 3.43 12.56
12/5/2020 11:00:00 PM 3.93 39.074 0.081 6.67 3.44 12.57
12/5/2020 11:15:00 PM 3.91 39.038 0.081 6.67 3.42 12.58
12/5/2020 11:30:00 PM 3.9 39.02 0.081 6.68 3.36 12.58
12/5/2020 11:45:00 PM 3.88 38.984 0.081 6.67 3.4 12.59
12/6/2020 12:00:00 AM 3.86 38.948 0.081 6.68 3.42 12.58
12/6/2020 12:15:00 AM 3.85 38.93 0.081 6.67 3.41 12.59
12/6/2020 12:30:00 AM 3.85 38.93 0.081 6.67 3.38 12.6
12/6/2020 12:45:00 AM 3.84 38.912 0.081 6.67 3.39 12.6
12/6/2020 1:00:00 AM 3.83 38.894 0.081 6.67 3.37 12.6
12/6/2020 1:15:00 AM 3.81 38.858 0.081 6.67 3.4 12.6
12/6/2020 1:30:00 AM 3.8 38.84 0.081 6.67 3.35 12.61
12/6/2020 1:45:00 AM 3.79 38.822 0.081 6.67 3.3 12.62
12/6/2020 2:00:00 AM 3.78 38.804 0.081 6.66 3.28 12.61
12/6/2020 2:15:00 AM 3.77 38.786 0.081 6.67 3.28 12.62
12/6/2020 2:30:00 AM 3.75 38.75 0.081 6.66 3.29 12.63
12/6/2020 2:45:00 AM 3.72 38.696 0.081 6.66 3.29 12.64
12/6/2020 3:00:00 AM 3.71 38.678 0.081 6.66 3.28 12.63
12/6/2020 3:15:00 AM 3.69 38.642 0.081 6.67 3.26 12.65
12/6/2020 3:30:00 AM 3.68 38.624 0.081 6.66 3.47 12.65
12/6/2020 3:45:00 AM 3.66 38.588 0.081 6.66 3.33 12.66
12/6/2020 4:00:00 AM 3.62 38.516 0.081 6.65 3.34 12.66
12/6/2020 4:30:00 AM 3.58 38.444 0.081 6.67 3.26 12.69
12/6/2020 4:45:00 AM 3.55 38.39 0.081 6.66 3.27 12.69
12/6/2020 5:00:00 AM 3.52 38.336 0.081 6.66 3.33 12.7
12/6/2020 5:15:00 AM 3.49 38.282 0.081 6.66 3.29 12.71
12/6/2020 5:30:00 AM 3.47 38.246 0.081 6.66 3.34 12.72
12/6/2020 5:45:00 AM 3.45 38.21 0.081 6.66 3.28 12.73
12/6/2020 6:00:00 AM 3.42 38.156 0.081 6.66 3.25 12.74
12/6/2020 6:15:00 AM 3.39 38.102 0.081 6.66 3.27 12.74
12/6/2020 6:30:00 AM 3.38 38.084 0.081 6.65 3.3 12.76
12/6/2020 6:45:00 AM 3.37 38.066 0.081 6.67 3.31 12.77
12/6/2020 7:00:00 AM 3.36 38.048 0.081 6.66 3.29 12.76
12/6/2020 7:15:00 AM 3.34 38.012 0.081 6.66 3.22 12.78
12/6/2020 7:30:00 AM 3.33 37.994 0.081 6.66 3.28 12.77
12/6/2020 7:45:00 AM 3.31 37.958 0.081 6.66 3.28 12.8
12/6/2020 8:00:00 AM 3.28 37.904 0.081 6.67 3.34 12.82
12/6/2020 8:15:00 AM 3.26 37.868 0.081 6.68 3.3 12.84
12/6/2020 8:30:00 AM 3.25 37.85 0.081 6.67 3.29 12.88
12/6/2020 8:45:00 AM 3.24 37.832 0.081 6.69 3.28 12.91
12/6/2020 9:00:00 AM 3.24 37.832 0.081 6.69 3.28 12.93
12/6/2020 9:15:00 AM 3.24 37.832 0.081 6.7 3.28 12.96
12/6/2020 9:30:00 AM 3.26 37.868 0.081 6.71 3.26 12.99
12/6/2020 9:45:00 AM 3.26 37.868 0.081 6.71 3.27 13
12/6/2020 10:00:00 AM 3.28 37.904 0.081 6.72 3.27 13.03
12/6/2020 10:15:00 AM 3.31 37.958 0.081 6.73 3.27 13.03
12/6/2020 10:30:00 AM 3.36 38.048 0.081 6.74 3.29 13.03
12/6/2020 10:45:00 AM 3.39 38.102 0.081 6.74 3.22 13.03
12/6/2020 11:00:00 AM 3.42 38.156 0.081 6.74 3.25 13.02
12/6/2020 11:15:00 AM 3.44 38.192 0.081 6.74 3.24 13.02
12/6/2020 11:30:00 AM 3.49 38.282 0.081 6.73 3.25 13
12/6/2020 11:45:00 AM 3.53 38.354 0.081 6.75 3.26 13
12/6/2020 12:00:00 PM 3.58 38.444 0.081 6.75 3.24 12.99
12/6/2020 12:15:00 PM 3.6 38.48 0.081 6.74 3.27 12.98
12/6/2020 12:30:00 PM 3.66 38.588 0.081 6.75 3.29 12.97
12/6/2020 12:45:00 PM 3.73 38.714 0.081 6.75 3.23 12.94
12/6/2020 1:00:00 PM 3.72 38.696 0.081 6.74 3.25 12.93
12/6/2020 1:15:00 PM 3.73 38.714 0.08 6.74 3.26 12.91
12/6/2020 1:30:00 PM 3.76 38.768 0.08 6.74 3.25 12.91
12/6/2020 1:45:00 PM 3.77 38.786 0.08 6.74 3.22 12.88
12/6/2020 2:00:00 PM 3.8 38.84 0.08 6.74 3.26 12.88
12/6/2020 2:15:00 PM 3.82 38.876 0.08 6.74 3.26 12.87
12/6/2020 2:30:00 PM 3.82 38.876 0.08 6.74 3.25 12.86
12/6/2020 2:45:00 PM 3.82 38.876 0.08 6.73 3.24 12.87
12/6/2020 3:00:00 PM 3.79 38.822 0.08 6.73 3.25 12.85
12/6/2020 3:15:00 PM 3.78 38.804 0.08 6.73 3.25 12.84
12/6/2020 3:30:00 PM 3.76 38.768 0.08 6.72 3.24 12.83
12/6/2020 3:45:00 PM 3.73 38.714 0.08 6.72 3.25 12.83
12/6/2020 4:00:00 PM 3.7 38.66 0.08 6.71 3.24 12.82
12/6/2020 4:15:00 PM 3.68 38.624 0.08 6.71 3.26 12.81
12/6/2020 4:30:00 PM 3.64 38.552 0.08 6.7 3.28 12.78
12/6/2020 4:45:00 PM 3.62 38.516 0.08 6.69 3.26 12.75
12/6/2020 5:00:00 PM 3.59 38.462 0.08 6.69 3.23 12.74
12/6/2020 5:15:00 PM 3.55 38.39 0.081 6.67 3.23 12.74
12/6/2020 5:30:00 PM 3.52 38.336 0.081 6.68 3.28 12.73
12/6/2020 5:45:00 PM 3.48 38.264 0.081 6.67 3.26 12.73
12/6/2020 6:00:00 PM 3.45 38.21 0.081 6.67 3.28 12.74
12/6/2020 6:15:00 PM 3.41 38.138 0.081 6.66 3.23 12.75
12/6/2020 6:30:00 PM 3.37 38.066 0.081 6.67 3.29 12.75
12/6/2020 6:45:00 PM 3.33 37.994 0.081 6.66 3.28 12.76
12/6/2020 7:00:00 PM 3.3 37.94 0.081 6.67 3.28 12.77
12/6/2020 7:15:00 PM 3.27 37.886 0.081 6.68 3.27 12.79
12/6/2020 7:30:00 PM 3.23 37.814 0.081 6.66 3.3 12.79
12/6/2020 7:45:00 PM 3.22 37.796 0.081 6.66 3.28 12.8
12/6/2020 8:00:00 PM 3.19 37.742 0.081 6.66 3.27 12.81
12/6/2020 8:15:00 PM 3.18 37.724 0.081 6.67 3.26 12.82
12/6/2020 8:30:00 PM 3.15 37.67 0.081 6.66 3.28 12.83
12/6/2020 8:45:00 PM 3.14 37.652 0.081 6.67 3.31 12.84
12/6/2020 9:00:00 PM 3.13 37.634 0.081 6.67 3.32 12.84
12/6/2020 9:15:00 PM 3.11 37.598 0.081 6.67 3.26 12.85
12/6/2020 9:30:00 PM 3.1 37.58 0.081 6.67 3.28 12.85
12/6/2020 9:45:00 PM 3.06 37.508 0.081 6.67 3.3 12.87
12/6/2020 10:00:00 PM 3.04 37.472 0.081 6.67 3.31 12.87
12/6/2020 10:15:00 PM 3.04 37.472 0.081 6.66 3.26 12.87
12/6/2020 10:30:00 PM 3.03 37.454 0.081 6.67 3.28 12.87
12/6/2020 10:45:00 PM 3.03 37.454 0.081 6.67 3.31 12.88
12/6/2020 11:00:00 PM 3.01 37.418 0.081 6.67 3.29 12.89
12/6/2020 11:15:00 PM 3 37.4 0.081 6.67 3.29 12.88
12/6/2020 11:30:00 PM 2.99 37.382 0.081 6.67 3.31 12.9
12/6/2020 11:45:00 PM 2.97 37.346 0.081 6.66 3.29 12.89
12/7/2020 12:00:00 AM 2.96 37.328 0.081 6.66 3.28 12.9
12/7/2020 12:15:00 AM 2.95 37.31 0.081 6.66 3.28 12.89
12/7/2020 12:30:00 AM 2.94 37.292 0.081 6.65 3.28 12.91
12/7/2020 12:45:00 AM 2.92 37.256 0.081 6.66 3.3 12.91
12/7/2020 1:00:00 AM 2.91 37.238 0.081 6.67 3.25 12.92
12/7/2020 1:15:00 AM 2.9 37.22 0.081 6.67 3.3 12.92
12/7/2020 1:30:00 AM 2.9 37.22 0.081 6.67 3.27 12.91
12/7/2020 1:45:00 AM 2.88 37.184 0.081 6.67 3.3 12.92
12/7/2020 2:00:00 AM 2.87 37.166 0.081 6.66 3.3 12.92
12/7/2020 2:15:00 AM 2.86 37.148 0.081 6.67 3.27 12.92
12/7/2020 2:30:00 AM 2.85 37.13 0.081 6.66 3.26 12.92
12/7/2020 2:45:00 AM 2.83 37.094 0.081 6.66 3.3 12.93
12/7/2020 3:00:00 AM 2.82 37.076 0.081 6.66 3.26 12.93
12/7/2020 3:15:00 AM 2.82 37.076 0.081 6.67 3.29 12.94
12/7/2020 3:30:00 AM 2.81 37.058 0.081 6.66 3.27 12.94
12/7/2020 3:45:00 AM 2.8 37.04 0.081 6.67 3.28 12.93
12/7/2020 4:00:00 AM 2.79 37.022 0.081 6.66 3.31 12.94
12/7/2020 4:15:00 AM 2.78 37.004 0.081 6.66 3.26 12.95
12/7/2020 4:30:00 AM 2.77 36.986 0.081 6.66 3.3 12.95
12/7/2020 4:45:00 AM 2.76 36.968 0.081 6.67 3.26 12.96
12/7/2020 5:00:00 AM 2.75 36.95 0.081 6.67 3.37 12.96
12/7/2020 5:15:00 AM 2.74 36.932 0.08 6.66 3.28 12.96
12/7/2020 5:30:00 AM 2.73 36.914 0.08 6.66 3.29 12.96
12/7/2020 5:45:00 AM 2.72 36.896 0.08 6.67 3.29 12.97
12/7/2020 6:00:00 AM 2.7 36.86 0.08 6.67 3.32 12.97
12/7/2020 6:15:00 AM 2.7 36.86 0.08 6.67 3.34 12.98
12/7/2020 6:30:00 AM 2.69 36.842 0.08 6.67 3.34 12.98
12/7/2020 6:45:00 AM 2.68 36.824 0.08 6.67 3.3 12.98
12/7/2020 7:00:00 AM 2.67 36.806 0.08 6.67 3.33 12.98
12/7/2020 7:15:00 AM 2.66 36.788 0.08 6.67 3.31 12.98
12/7/2020 7:30:00 AM 2.64 36.752 0.08 6.67 3.28 13
12/7/2020 7:45:00 AM 2.65 36.77 0.08 6.67 3.32 13
12/7/2020 8:00:00 AM 2.65 36.77 0.08 6.68 3.27 13.02
12/7/2020 8:15:00 AM 2.66 36.788 0.08 6.68 3.27 13.04
12/7/2020 8:30:00 AM 2.66 36.788 0.08 6.69 3.28 13.06
12/7/2020 8:45:00 AM 2.65 36.77 0.08 6.7 3.3 13.1
12/7/2020 9:00:00 AM 2.64 36.752 0.08 6.7 3.29 13.12
12/7/2020 9:15:00 AM 2.66 36.788 0.08 6.71 3.26 13.15
12/7/2020 9:30:00 AM 2.7 36.86 0.08 6.72 3.27 13.17
12/7/2020 9:45:00 AM 2.73 36.914 0.08 6.73 3.27 13.19
12/7/2020 10:00:00 AM 2.77 36.986 0.08 6.73 3.28 13.19
12/7/2020 10:15:00 AM 2.82 37.076 0.08 6.74 3.3 13.2
12/7/2020 10:30:00 AM 2.82 37.076 0.08 6.74 3.26 13.19
12/7/2020 10:45:00 AM 2.81 37.058 0.08 6.73 3.3 13.19
12/7/2020 11:00:00 AM 2.84 37.112 0.08 6.74 3.25 13.18
12/7/2020 11:15:00 AM 2.87 37.166 0.08 6.74 3.26 13.18
12/7/2020 11:30:00 AM 2.91 37.238 0.08 6.75 3.23 13.16
12/7/2020 11:45:00 AM 2.93 37.274 0.08 6.74 3.32 13.15
12/7/2020 12:00:00 PM 2.92 37.256 0.08 6.73 3.4 13.14
12/7/2020 12:15:00 PM 3 37.4 0.08 6.75 3.41 13.13
12/7/2020 12:30:00 PM 3.07 37.526 0.08 6.75 3.39 13.12
12/7/2020 12:45:00 PM 3.09 37.562 0.08 6.74 3.35 13.1
12/7/2020 1:00:00 PM 3.06 37.508 0.08 6.73 3.42 13.09
12/7/2020 1:15:00 PM 3.07 37.526 0.08 6.73 3.39 13.07
12/7/2020 1:30:00 PM 3.11 37.598 0.08 6.73 3.44 13.06
12/7/2020 1:45:00 PM 3.15 37.67 0.079 6.74 3.42 13.05
12/7/2020 2:00:00 PM 3.13 37.634 0.079 6.73 3.44 13.03
12/7/2020 2:15:00 PM 3.07 37.526 0.079 6.72 3.41 13.01
12/7/2020 2:30:00 PM 3.03 37.454 0.079 6.72 3.4 13.01
12/7/2020 2:45:00 PM 3.02 37.436 0.079 6.72 3.47 13.02
12/7/2020 3:00:00 PM 3.04 37.472 0.079 6.73 3.52 13.02
12/7/2020 3:15:00 PM 3.04 37.472 0.079 6.73 3.46 13.02
12/7/2020 3:30:00 PM 3.04 37.472 0.079 6.73 3.45 13.02
12/7/2020 3:45:00 PM 3.04 37.472 0.079 6.72 3.45 13.01
12/7/2020 4:00:00 PM 3.01 37.418 0.079 6.72 3.47 13
12/7/2020 4:15:00 PM 3 37.4 0.079 6.71 3.47 12.98
12/7/2020 4:30:00 PM 2.95 37.31 0.079 6.71 3.47 12.97
12/7/2020 4:45:00 PM 2.9 37.22 0.079 6.7 3.48 12.96
12/7/2020 5:00:00 PM 2.88 37.184 0.08 6.7 3.5 12.94
12/7/2020 5:15:00 PM 2.87 37.166 0.08 6.69 3.52 12.92
12/7/2020 5:30:00 PM 2.84 37.112 0.08 6.68 3.47 12.93
12/7/2020 5:45:00 PM 2.8 37.04 0.08 6.67 3.51 12.92
12/7/2020 6:00:00 PM 2.75 36.95 0.08 6.67 3.52 12.93
12/7/2020 6:15:00 PM 2.72 36.896 0.08 6.67 3.47 12.93
12/7/2020 6:30:00 PM 2.69 36.842 0.08 6.67 3.5 12.94
12/7/2020 6:45:00 PM 2.65 36.77 0.08 6.67 3.39 12.96
12/7/2020 7:00:00 PM 2.63 36.734 0.08 6.66 3.37 12.97
12/7/2020 7:15:00 PM 2.6 36.68 0.08 6.66 3.35 12.97
12/7/2020 7:30:00 PM 2.56 36.608 0.08 6.67 3.38 12.99
12/7/2020 7:45:00 PM 2.53 36.554 0.08 6.67 3.37 13
12/7/2020 8:00:00 PM 2.49 36.482 0.08 6.66 3.36 13.01
12/7/2020 8:15:00 PM 2.45 36.41 0.08 6.67 3.37 13.03
12/7/2020 8:30:00 PM 2.41 36.338 0.08 6.67 3.4 13.04
12/7/2020 8:45:00 PM 2.38 36.284 0.08 6.66 3.36 13.05
12/7/2020 9:00:00 PM 2.34 36.212 0.08 6.66 3.37 13.07
12/7/2020 9:15:00 PM 2.32 36.176 0.08 6.67 3.37 13.08
12/7/2020 9:30:00 PM 2.29 36.122 0.08 6.66 3.37 13.1
12/7/2020 9:45:00 PM 2.26 36.068 0.08 6.66 3.38 13.1
12/7/2020 10:00:00 PM 2.23 36.014 0.08 6.66 3.37 13.12
12/7/2020 10:15:00 PM 2.19 35.942 0.08 6.66 3.39 13.14
12/7/2020 10:30:00 PM 2.15 35.87 0.08 6.66 3.42 13.13
12/7/2020 10:45:00 PM 2.11 35.798 0.08 6.65 3.35 13.16
12/7/2020 11:00:00 PM 2.1 35.78 0.08 6.66 3.35 13.17
12/7/2020 11:15:00 PM 2.08 35.744 0.08 6.66 3.37 13.17
12/7/2020 11:30:00 PM 2.08 35.744 0.08 6.67 3.39 13.19
12/7/2020 11:45:00 PM 2.07 35.726 0.08 6.68 3.38 13.19
12/8/2020 12:00:00 AM 2.06 35.708 0.08 6.67 3.36 13.19
12/8/2020 12:15:00 AM 2.06 35.708 0.08 6.68 3.39 13.19
12/8/2020 12:30:00 AM 2.07 35.726 0.08 6.67 3.39 13.21
12/8/2020 12:45:00 AM 2.07 35.726 0.08 6.67 3.49 13.21
12/8/2020 1:00:00 AM 2.06 35.708 0.08 6.67 3.36 13.21
12/8/2020 1:15:00 AM 2.06 35.708 0.08 6.67 3.27 13.21
12/8/2020 1:30:00 AM 2.06 35.708 0.08 6.67 3.24 13.19
12/8/2020 1:45:00 AM 2.06 35.708 0.08 6.68 3.26 13.2
12/8/2020 2:00:00 AM 2.05 35.69 0.08 6.68 3.28 13.2
12/8/2020 2:15:00 AM 2.04 35.672 0.08 6.68 3.23 13.22
12/8/2020 2:30:00 AM 2.05 35.69 0.08 6.68 3.27 13.21
12/8/2020 2:45:00 AM 2.02 35.636 0.08 6.67 3.25 13.22
12/8/2020 3:00:00 AM 1.98 35.564 0.08 6.66 3.26 13.22
12/8/2020 3:15:00 AM 1.97 35.546 0.08 6.65 3.22 13.22
12/8/2020 3:30:00 AM 1.97 35.546 0.08 6.66 3.24 13.23
12/8/2020 3:45:00 AM 1.97 35.546 0.08 6.66 3.25 13.23
12/8/2020 4:00:00 AM 1.94 35.492 0.08 6.66 3.27 13.24
12/8/2020 4:15:00 AM 1.91 35.438 0.08 6.66 3.25 13.25
12/8/2020 4:30:00 AM 1.89 35.402 0.08 6.65 3.25 13.26
12/8/2020 4:45:00 AM 1.87 35.366 0.08 6.65 3.27 13.26
12/8/2020 5:00:00 AM 1.86 35.348 0.08 6.66 3.27 13.26
12/8/2020 5:15:00 AM 1.84 35.312 0.08 6.66 3.24 13.28
12/8/2020 5:30:00 AM 1.83 35.294 0.08 6.66 3.23 13.27
12/8/2020 5:45:00 AM 1.83 35.294 0.08 6.66 3.26 13.29
12/8/2020 6:00:00 AM 1.83 35.294 0.08 6.66 3.24 13.29
12/8/2020 6:15:00 AM 1.82 35.276 0.08 6.66 3.21 13.29
12/8/2020 6:30:00 AM 1.79 35.222 0.08 6.65 3.22 13.3
12/8/2020 6:45:00 AM 1.76 35.168 0.08 6.65 3.24 13.31
12/8/2020 7:00:00 AM 1.73 35.114 0.08 6.65 3.26 13.31
12/8/2020 7:15:00 AM 1.69 35.042 0.08 6.65 3.18 13.32
12/8/2020 7:30:00 AM 1.67 35.006 0.08 6.65 4.9 13.35
12/8/2020 7:45:00 AM 1.64 34.952 0.08 6.65 3.19 13.37
12/8/2020 8:00:00 AM 1.61 34.898 0.08 6.66 3.12 13.41
12/8/2020 8:15:00 AM 1.58 34.844 0.08 6.67 3.08 13.46
12/8/2020 8:30:00 AM 1.6 34.88 0.08 6.68 3.09 13.49
12/8/2020 8:45:00 AM 1.62 34.916 0.08 6.68 3.08 13.53
12/8/2020 9:00:00 AM 1.67 35.006 0.08 6.7 3.06 13.55
12/8/2020 9:15:00 AM 1.71 35.078 0.08 6.71 3.1 13.57
12/8/2020 9:30:00 AM 1.74 35.132 0.08 6.72 3.1 13.58
12/8/2020 9:45:00 AM 1.79 35.222 0.08 6.73 3.08 13.59
12/8/2020 10:00:00 AM 1.83 35.294 0.08 6.73 3.07 13.59
12/8/2020 10:15:00 AM 1.84 35.312 0.08 6.73 3.06 13.59
12/8/2020 10:30:00 AM 1.87 35.366 0.079 6.73 3.08 13.58
12/8/2020 10:45:00 AM 1.91 35.438 0.079 6.73 3.06 13.57
12/8/2020 11:00:00 AM 1.96 35.528 0.079 6.73 3.07 13.56
12/8/2020 11:15:00 AM 2.02 35.636 0.079 6.73 3.07 13.53
12/8/2020 11:30:00 AM 2.07 35.726 0.079 6.73 3.06 13.52
12/8/2020 11:45:00 AM 2.11 35.798 0.079 6.73 3.05 13.5
12/8/2020 12:00:00 PM 2.15 35.87 0.079 6.73 3.03 13.48
12/8/2020 12:15:00 PM 2.19 35.942 0.079 6.73 3.08 13.46
12/8/2020 12:30:00 PM 2.22 35.996 0.079 6.73 3.05 13.44
12/8/2020 12:45:00 PM 2.23 36.014 0.079 6.72 3.05 13.41
12/8/2020 1:00:00 PM 2.24 36.032 0.079 6.72 3.05 13.41
12/8/2020 1:15:00 PM 2.25 36.05 0.079 6.72 3.06 13.38
12/8/2020 1:30:00 PM 2.25 36.05 0.079 6.72 3.03 13.36
12/8/2020 1:45:00 PM 2.24 36.032 0.079 6.72 3.03 13.37
12/8/2020 2:00:00 PM 2.23 36.014 0.079 6.72 3.04 13.36
12/8/2020 2:15:00 PM 2.22 35.996 0.079 6.71 3.03 13.35
12/8/2020 2:30:00 PM 2.21 35.978 0.079 6.71 3.08 13.34
12/8/2020 2:45:00 PM 2.21 35.978 0.079 6.72 3.05 13.34
12/8/2020 3:00:00 PM 2.21 35.978 0.079 6.72 3.03 13.33
12/8/2020 3:15:00 PM 2.21 35.978 0.079 6.71 3.04 13.31
12/8/2020 3:30:00 PM 2.22 35.996 0.079 6.72 3.04 13.3
12/8/2020 3:45:00 PM 2.22 35.996 0.079 6.71 3.05 13.31
12/8/2020 4:00:00 PM 2.22 35.996 0.079 6.71 3.02 13.28
12/8/2020 4:15:00 PM 2.21 35.978 0.079 6.71 3.03 13.28
12/8/2020 4:30:00 PM 2.2 35.96 0.079 6.71 3.02 13.28
12/8/2020 4:45:00 PM 2.18 35.924 0.079 6.7 3.06 13.27
12/8/2020 5:00:00 PM 2.18 35.924 0.079 6.7 3.05 13.25
12/8/2020 5:15:00 PM 2.19 35.942 0.079 6.7 4.61 13.22
12/8/2020 5:30:00 PM 2.17 35.906 0.08 6.69 3.2 13.22
12/8/2020 5:45:00 PM 2.15 35.87 0.08 6.69 3.15 13.22
12/8/2020 6:00:00 PM 2.14 35.852 0.08 6.68 3.12 13.22
12/8/2020 6:15:00 PM 2.14 35.852 0.08 6.68 3.1 13.21
12/8/2020 6:30:00 PM 2.15 35.87 0.08 6.69 3.12 13.21
12/8/2020 6:45:00 PM 2.14 35.852 0.08 6.68 3.09 13.23
12/8/2020 7:00:00 PM 2.15 35.87 0.08 6.68 3.1 13.22
12/8/2020 7:15:00 PM 2.14 35.852 0.08 6.68 3.1 13.22
12/8/2020 7:30:00 PM 2.13 35.834 0.08 6.68 3.07 13.23
12/8/2020 7:45:00 PM 2.13 35.834 0.08 6.68 3.07 13.22
12/8/2020 8:00:00 PM 2.13 35.834 0.08 6.68 3.1 13.22
12/8/2020 8:15:00 PM 2.13 35.834 0.08 6.68 3.08 13.22
12/8/2020 8:30:00 PM 2.13 35.834 0.08 6.68 3.07 13.22
12/8/2020 8:45:00 PM 2.14 35.852 0.08 6.68 3.06 13.21
12/8/2020 9:00:00 PM 2.13 35.834 0.08 6.68 3.08 13.23
12/8/2020 9:15:00 PM 2.14 35.852 0.08 6.69 3.09 13.22
12/8/2020 9:30:00 PM 2.14 35.852 0.08 6.68 3.1 13.23
12/8/2020 9:45:00 PM 2.14 35.852 0.08 6.68 3.21 13.21
12/8/2020 10:00:00 PM 2.14 35.852 0.08 6.68 3.15 13.22
12/8/2020 10:15:00 PM 2.14 35.852 0.08 6.68 3.14 13.22
12/8/2020 10:30:00 PM 2.14 35.852 0.08 6.68 3.16 13.21
12/8/2020 10:45:00 PM 2.15 35.87 0.08 6.68 3.14 13.22
12/8/2020 11:00:00 PM 2.14 35.852 0.08 6.68 3.14 13.22
12/8/2020 11:15:00 PM 2.15 35.87 0.08 6.68 3.12 13.2
12/8/2020 11:30:00 PM 2.16 35.888 0.08 6.68 3.11 13.19
12/8/2020 11:45:00 PM 2.16 35.888 0.08 6.68 3.11 13.21
12/9/2020 12:00:00 AM 2.16 35.888 0.08 6.68 3.12 13.21
12/9/2020 12:15:00 AM 2.18 35.924 0.08 6.68 3.1 13.19
12/9/2020 12:30:00 AM 2.18 35.924 0.08 6.68 3.12 13.2
12/9/2020 12:45:00 AM 2.2 35.96 0.08 6.68 3.11 13.17
12/9/2020 1:00:00 AM 2.2 35.96 0.08 6.68 3.1 13.19
12/9/2020 1:15:00 AM 2.21 35.978 0.08 6.68 3.13 13.17
12/9/2020 1:30:00 AM 2.2 35.96 0.08 6.68 3.11 13.18
12/9/2020 1:45:00 AM 2.21 35.978 0.08 6.68 3.07 13.17
12/9/2020 2:00:00 AM 2.21 35.978 0.08 6.68 3.12 13.15
12/9/2020 2:15:00 AM 2.21 35.978 0.08 6.68 3.11 13.16
12/9/2020 2:30:00 AM 2.21 35.978 0.08 6.68 3.12 13.16
12/9/2020 2:45:00 AM 2.22 35.996 0.08 6.68 3.09 13.15
12/9/2020 3:00:00 AM 2.22 35.996 0.08 6.68 3.12 13.16
12/9/2020 3:15:00 AM 2.22 35.996 0.08 6.68 3.11 13.15
12/9/2020 3:30:00 AM 2.22 35.996 0.08 6.68 3.1 13.15
12/9/2020 3:45:00 AM 2.22 35.996 0.08 6.68 3.09 13.15
12/9/2020 4:00:00 AM 2.2 35.96 0.08 6.68 3.12 13.14
12/9/2020 4:15:00 AM 2.2 35.96 0.08 6.68 3.1 13.14
12/9/2020 4:30:00 AM 2.2 35.96 0.08 6.68 3.09 13.15
12/9/2020 4:45:00 AM 2.2 35.96 0.08 6.68 3.1 13.15
12/9/2020 5:00:00 AM 2.21 35.978 0.08 6.68 4.19 13.15
12/9/2020 5:15:00 AM 2.2 35.96 0.08 6.68 4.19 13.14
12/9/2020 5:30:00 AM 2.2 35.96 0.08 6.68 4.24 13.14
12/9/2020 5:45:00 AM 2.2 35.96 0.08 6.68 4.25 13.14
12/9/2020 6:00:00 AM 2.2 35.96 0.08 6.68 4.18 13.14
12/9/2020 6:15:00 AM 2.2 35.96 0.08 6.68 4.25 13.13
12/9/2020 6:30:00 AM 2.2 35.96 0.08 6.67 4.41 13.13
12/9/2020 6:45:00 AM 2.2 35.96 0.08 6.68 4.2 13.14
12/9/2020 7:00:00 AM 2.2 35.96 0.08 6.67 4.21 13.14
12/9/2020 7:15:00 AM 2.2 35.96 0.08 6.67 4.19 13.14
12/9/2020 7:30:00 AM 2.2 35.96 0.08 6.68 4.21 13.14
12/9/2020 7:45:00 AM 2.2 35.96 0.08 6.67 4.18 13.15
12/9/2020 8:00:00 AM 2.19 35.942 0.08 6.68 4.2 13.15
12/9/2020 8:15:00 AM 2.2 35.96 0.08 6.68 4.21 13.16
12/9/2020 8:30:00 AM 2.19 35.942 0.08 6.68 4.37 13.18
12/9/2020 8:45:00 AM 2.19 35.942 0.08 6.68 4.2 13.18
12/9/2020 9:00:00 AM 2.2 35.96 0.08 6.69 4.19 13.2
12/9/2020 9:15:00 AM 2.22 35.996 0.08 6.71 4.23 13.24
12/9/2020 9:30:00 AM 2.25 36.05 0.08 6.71 4.2 13.26
12/9/2020 9:45:00 AM 2.28 36.104 0.08 6.72 4.22 13.28
12/9/2020 10:00:00 AM 2.29 36.122 0.08 6.72 4.22 13.28
12/9/2020 10:15:00 AM 2.3 36.14 0.08 6.72 4.18 13.28
12/9/2020 10:30:00 AM 2.31 36.158 0.08 6.72 4.2 13.28
12/9/2020 10:45:00 AM 2.34 36.212 0.08 6.72 4.21 13.27
12/9/2020 11:00:00 AM 2.35 36.23 0.08 6.73 4.22 13.27
12/9/2020 11:15:00 AM 2.37 36.266 0.08 6.73 4.21 13.26
12/9/2020 11:30:00 AM 2.38 36.284 0.08 6.73 4.19 13.25
12/9/2020 11:45:00 AM 2.4 36.32 0.08 6.73 4.2 13.25
12/9/2020 12:00:00 PM 2.42 36.356 0.08 6.73 4.21 13.25
12/9/2020 12:15:00 PM 2.44 36.392 0.08 6.73 3.26 13.25
12/9/2020 12:30:00 PM 2.47 36.446 0.08 6.73 3.13 13.24
12/9/2020 12:45:00 PM 2.49 36.482 0.079 6.74 3.13 13.24
12/9/2020 1:00:00 PM 2.52 36.536 0.08 6.74 3.13 13.23
12/9/2020 1:15:00 PM 2.53 36.554 0.08 6.74 3.13 13.21
12/9/2020 1:30:00 PM 2.55 36.59 0.079 6.74 3.11 13.2
12/9/2020 1:45:00 PM 2.56 36.608 0.079 6.74 3.21 13.18
12/9/2020 2:00:00 PM 2.57 36.626 0.079 6.73 3.17 13.17
12/9/2020 2:15:00 PM 2.59 36.662 0.079 6.73 3.19 13.15
12/9/2020 2:30:00 PM 2.6 36.68 0.079 6.73 3.21 13.14
12/9/2020 2:45:00 PM 2.61 36.698 0.079 6.73 3.15 13.12
12/9/2020 3:00:00 PM 2.62 36.716 0.079 6.73 3.19 13.12
12/9/2020 3:15:00 PM 2.64 36.752 0.079 6.73 3.16 13.11
12/9/2020 3:30:00 PM 2.65 36.77 0.079 6.72 3.18 13.09
12/9/2020 3:45:00 PM 2.65 36.77 0.079 6.72 3.18 13.08
12/9/2020 4:00:00 PM 2.66 36.788 0.079 6.72 3.17 13.06
12/9/2020 4:15:00 PM 2.67 36.806 0.079 6.71 3.22 13.04
12/9/2020 4:30:00 PM 2.68 36.824 0.08 6.71 3.23 13.03
12/9/2020 4:45:00 PM 2.68 36.824 0.08 6.71 3.19 13
12/9/2020 5:00:00 PM 2.68 36.824 0.08 6.7 3.2 12.99
12/9/2020 5:15:00 PM 2.69 36.842 0.08 6.7 3.19 12.99
12/9/2020 5:30:00 PM 2.7 36.86 0.08 6.7 3.2 12.97
12/9/2020 5:45:00 PM 2.7 36.86 0.08 6.69 3.21 12.96
12/9/2020 6:00:00 PM 2.71 36.878 0.08 6.69 3.2 12.96
12/9/2020 6:15:00 PM 2.71 36.878 0.08 6.69 3.85 12.96
12/9/2020 6:30:00 PM 2.72 36.896 0.08 6.69 3.11 12.95
12/9/2020 6:45:00 PM 2.73 36.914 0.08 6.69 3.11 12.95
12/9/2020 7:00:00 PM 2.74 36.932 0.08 6.69 3.08 12.94
12/9/2020 7:15:00 PM 2.75 36.95 0.08 6.69 3.08 12.94
12/9/2020 7:30:00 PM 2.75 36.95 0.08 6.68 3.1 12.94
12/9/2020 7:45:00 PM 2.76 36.968 0.08 6.68 3.11 12.94
12/9/2020 8:00:00 PM 2.76 36.968 0.08 6.69 3.08 12.93
12/9/2020 8:15:00 PM 2.77 36.986 0.08 6.69 3.07 12.94
12/9/2020 8:30:00 PM 2.78 37.004 0.08 6.69 3.12 12.94
12/9/2020 8:45:00 PM 2.79 37.022 0.08 6.68 3.08 12.93
12/9/2020 9:00:00 PM 2.8 37.04 0.08 6.68 3.13 12.93
12/9/2020 9:15:00 PM 2.8 37.04 0.08 6.68 3.12 12.94
12/9/2020 9:30:00 PM 2.81 37.058 0.08 6.68 3.11 12.94
12/9/2020 9:45:00 PM 2.82 37.076 0.08 6.68 3.14 12.93
12/9/2020 10:00:00 PM 2.82 37.076 0.08 6.68 3.08 12.93
12/9/2020 10:15:00 PM 2.83 37.094 0.08 6.67 3.13 12.93
12/9/2020 10:30:00 PM 2.84 37.112 0.08 6.68 3.12 12.93
12/9/2020 10:45:00 PM 2.84 37.112 0.08 6.67 3.11 12.92
12/9/2020 11:00:00 PM 2.85 37.13 0.08 6.67 3.11 12.92
12/9/2020 11:15:00 PM 2.86 37.148 0.08 6.68 3.08 12.92
12/9/2020 11:30:00 PM 2.86 37.148 0.08 6.68 3.1 12.92
12/9/2020 11:45:00 PM 2.87 37.166 0.08 6.68 3.15 12.92
12/10/2020 12:00:00 AM 2.88 37.184 0.08 6.68 3.09 12.92
12/10/2020 12:15:00 AM 2.88 37.184 0.08 6.68 3.21 12.92
12/10/2020 12:30:00 AM 2.89 37.202 0.08 6.68 3.12 12.9
12/10/2020 12:45:00 AM 2.89 37.202 0.08 6.67 3.09 12.91
12/10/2020 1:00:00 AM 2.9 37.22 0.08 6.68 3.1 12.92
12/10/2020 1:15:00 AM 2.9 37.22 0.08 6.68 3.13 12.92
12/10/2020 1:30:00 AM 2.91 37.238 0.08 6.68 3.11 12.92
12/10/2020 1:45:00 AM 2.92 37.256 0.08 6.68 3.09 12.91
12/10/2020 2:00:00 AM 2.92 37.256 0.08 6.68 3.12 12.91
12/10/2020 2:15:00 AM 2.92 37.256 0.08 6.68 3.11 12.91
12/10/2020 2:30:00 AM 2.93 37.274 0.08 6.68 3.08 12.91
12/10/2020 2:45:00 AM 2.93 37.274 0.08 6.68 3.11 12.92
12/10/2020 3:00:00 AM 2.94 37.292 0.08 6.67 3.12 12.91
12/10/2020 3:15:00 AM 2.94 37.292 0.08 6.68 3.17 12.92
12/10/2020 3:30:00 AM 2.94 37.292 0.08 6.68 3.13 12.91
12/10/2020 3:45:00 AM 2.95 37.31 0.08 6.68 3.1 12.92
12/10/2020 4:00:00 AM 2.95 37.31 0.08 6.68 3.11 12.92
12/10/2020 4:15:00 AM 2.95 37.31 0.08 6.68 3.1 12.93
12/10/2020 4:30:00 AM 2.96 37.328 0.08 6.68 3.11 12.91
12/10/2020 4:45:00 AM 2.96 37.328 0.08 6.68 3.09 12.92
12/10/2020 5:00:00 AM 2.97 37.346 0.08 6.68 3.12 12.92
12/10/2020 5:15:00 AM 2.98 37.364 0.08 6.68 3.08 12.93
12/10/2020 5:30:00 AM 2.98 37.364 0.08 6.68 3.12 12.92
12/10/2020 5:45:00 AM 2.99 37.382 0.08 6.68 3.08 12.92
12/10/2020 6:00:00 AM 2.99 37.382 0.08 6.68 3.12 12.92
12/10/2020 6:15:00 AM 3 37.4 0.08 6.68 3.1 12.93
12/10/2020 6:30:00 AM 3.01 37.418 0.081 6.68 3.12 12.91
12/10/2020 6:45:00 AM 3.01 37.418 0.081 6.68 3.11 12.92
12/10/2020 7:00:00 AM 3.02 37.436 0.081 6.68 3.1 12.91
12/10/2020 7:15:00 AM 3.03 37.454 0.081 6.68 3.08 12.92
12/10/2020 7:30:00 AM 3.03 37.454 0.081 6.68 3.1 12.91
12/10/2020 7:45:00 AM 3.04 37.472 0.081 6.68 3.07 12.93
12/10/2020 8:00:00 AM 3.05 37.49 0.081 6.68 3.1 12.93
12/10/2020 8:15:00 AM 3.06 37.508 0.081 6.69 3.07 12.96
12/10/2020 8:30:00 AM 3.07 37.526 0.081 6.69 3.1 12.98
12/10/2020 8:45:00 AM 3.09 37.562 0.08 6.7 3.09 13.02
12/10/2020 9:00:00 AM 3.12 37.616 0.08 6.71 3.06 13.03
12/10/2020 9:15:00 AM 3.15 37.67 0.08 6.72 3.13 13.06
12/10/2020 9:30:00 AM 3.18 37.724 0.08 6.72 3.1 13.06
12/10/2020 9:45:00 AM 3.21 37.778 0.08 6.73 3.11 13.09
12/10/2020 10:00:00 AM 3.25 37.85 0.08 6.74 3.12 13.11
12/10/2020 10:15:00 AM 3.28 37.904 0.08 6.74 3.07 13.11
12/10/2020 10:30:00 AM 3.31 37.958 0.08 6.75 3.07 13.11
12/10/2020 10:45:00 AM 3.35 38.03 0.08 6.76 3.13 13.12
12/10/2020 11:00:00 AM 3.39 38.102 0.08 6.76 3.08 13.11
12/10/2020 11:15:00 AM 3.43 38.174 0.08 6.76 3.08 13.11
12/10/2020 11:30:00 AM 3.48 38.264 0.08 6.77 3.08 13.11
12/10/2020 11:45:00 AM 3.55 38.39 0.08 6.78 3.08 13.1
12/10/2020 12:00:00 PM 3.6 38.48 0.08 6.78 3.08 13.08
12/10/2020 12:15:00 PM 3.65 38.57 0.08 6.77 3.07 13.08
12/10/2020 12:30:00 PM 3.69 38.642 0.08 6.77 3.05 13.06
12/10/2020 12:45:00 PM 3.74 38.732 0.08 6.78 3.06 13.05
12/10/2020 1:00:00 PM 3.8 38.84 0.08 6.78 3.07 13.02
12/10/2020 1:15:00 PM 3.85 38.93 0.08 6.78 3.09 13.02
12/10/2020 1:30:00 PM 3.93 39.074 0.08 6.78 3.09 13
12/10/2020 1:45:00 PM 3.94 39.092 0.08 6.78 3.1 12.97
12/10/2020 2:00:00 PM 3.89 39.002 0.08 6.76 3.06 12.95
12/10/2020 2:15:00 PM 3.88 38.984 0.08 6.76 3.05 12.94
12/10/2020 2:30:00 PM 3.84 38.912 0.08 6.75 3.09 12.93
12/10/2020 2:45:00 PM 3.8 38.84 0.08 6.75 3.07 12.92
12/10/2020 3:00:00 PM 3.77 38.786 0.08 6.75 3.08 12.9
12/10/2020 3:15:00 PM 3.74 38.732 0.08 6.74 3.07 12.89
12/10/2020 3:30:00 PM 3.71 38.678 0.08 6.74 3.1 12.89
12/10/2020 3:45:00 PM 3.68 38.624 0.08 6.73 3.07 12.88
12/10/2020 4:00:00 PM 3.66 38.588 0.08 6.73 3.06 12.88
12/10/2020 4:15:00 PM 3.63 38.534 0.08 6.72 3.06 12.87
12/10/2020 4:30:00 PM 3.59 38.462 0.08 6.72 3.09 12.84
12/10/2020 4:45:00 PM 3.54 38.372 0.08 6.71 3.09 12.85
12/10/2020 5:00:00 PM 3.5 38.3 0.08 6.7 3.09 12.82
12/10/2020 5:15:00 PM 3.45 38.21 0.08 6.69 3.19 12.82
12/10/2020 5:30:00 PM 3.4 38.12 0.08 6.69 3.18 12.81
12/10/2020 5:45:00 PM 3.37 38.066 0.08 6.69 3.15 12.82
12/10/2020 6:00:00 PM 3.34 38.012 0.08 6.69 3.13 12.82
12/10/2020 6:15:00 PM 3.32 37.976 0.08 6.69 3.09 12.82
12/10/2020 6:30:00 PM 3.28 37.904 0.08 6.68 3.14 12.83
12/10/2020 6:45:00 PM 3.23 37.814 0.081 6.68 3.08 12.84
12/10/2020 7:00:00 PM 3.19 37.742 0.081 6.68 3.15 12.84
12/10/2020 7:15:00 PM 3.14 37.652 0.081 6.68 3.16 12.86
12/10/2020 7:30:00 PM 3.09 37.562 0.081 6.67 3.11 12.87
12/10/2020 7:45:00 PM 3.05 37.49 0.081 6.67 3.11 12.87
12/10/2020 8:00:00 PM 3 37.4 0.081 6.67 3.14 12.91
12/10/2020 8:15:00 PM 2.96 37.328 0.081 6.68 3.1 12.92
12/10/2020 8:30:00 PM 2.92 37.256 0.081 6.67 3.09 12.93
12/10/2020 8:45:00 PM 2.87 37.166 0.081 6.67 3.14 12.95
12/10/2020 9:00:00 PM 2.82 37.076 0.081 6.67 3.1 12.96
12/10/2020 9:15:00 PM 2.77 36.986 0.081 6.67 3.12 12.98
12/10/2020 9:30:00 PM 2.73 36.914 0.081 6.67 3.11 12.99
12/10/2020 9:45:00 PM 2.7 36.86 0.081 6.68 3.11 13
12/10/2020 10:00:00 PM 2.66 36.788 0.081 6.68 3.11 13.01
12/10/2020 10:15:00 PM 2.62 36.716 0.081 6.68 3.12 13.04
12/10/2020 10:30:00 PM 2.59 36.662 0.081 6.67 3.1 13.05
12/10/2020 10:45:00 PM 2.54 36.572 0.081 6.67 3.12 13.07
12/10/2020 11:00:00 PM 2.51 36.518 0.081 6.68 3.11 13.09
12/10/2020 11:15:00 PM 2.47 36.446 0.081 6.67 3.1 13.1
12/10/2020 11:30:00 PM 2.45 36.41 0.081 6.68 3.11 13.11
12/10/2020 11:45:00 PM 2.43 36.374 0.081 6.68 3.09 13.11
12/11/2020 12:00:00 AM 2.41 36.338 0.081 6.67 3.13 13.12
12/11/2020 12:15:00 AM 2.4 36.32 0.081 6.68 3.15 13.14
12/11/2020 12:30:00 AM 2.41 36.338 0.081 6.68 3.08 13.14
12/11/2020 12:45:00 AM 2.4 36.32 0.081 6.68 3.11 13.14
12/11/2020 1:00:00 AM 2.4 36.32 0.081 6.69 3.11 13.16
12/11/2020 1:15:00 AM 2.4 36.32 0.081 6.69 3.11 13.15
12/11/2020 1:30:00 AM 2.39 36.302 0.081 6.69 3.15 13.15
12/11/2020 1:45:00 AM 2.39 36.302 0.081 6.69 3.09 13.15
12/11/2020 2:00:00 AM 2.37 36.266 0.081 6.69 3.1 13.16
12/11/2020 2:15:00 AM 2.34 36.212 0.081 6.68 3.12 13.15
12/11/2020 2:30:00 AM 2.32 36.176 0.081 6.69 3.09 13.17
12/11/2020 2:45:00 AM 2.29 36.122 0.081 6.68 3.12 13.17
12/11/2020 3:00:00 AM 2.28 36.104 0.081 6.69 3.12 13.18
12/11/2020 3:15:00 AM 2.26 36.068 0.081 6.69 3.16 13.19
12/11/2020 3:30:00 AM 2.25 36.05 0.081 6.69 3.08 13.19
12/11/2020 3:45:00 AM 2.26 36.068 0.081 6.69 3.11 13.19
12/11/2020 4:00:00 AM 2.25 36.05 0.081 6.68 3.13 13.19
12/11/2020 4:15:00 AM 2.24 36.032 0.081 6.68 3.12 13.18
12/11/2020 4:30:00 AM 2.23 36.014 0.081 6.68 3.1 13.2
12/11/2020 4:45:00 AM 2.22 35.996 0.081 6.69 3.09 13.2
12/11/2020 5:00:00 AM 2.2 35.96 0.081 6.69 3.12 13.21
12/11/2020 5:15:00 AM 2.17 35.906 0.081 6.69 3.12 13.22
12/11/2020 5:30:00 AM 2.16 35.888 0.081 6.68 3.1 13.21
12/11/2020 5:45:00 AM 2.15 35.87 0.081 6.68 3.11 13.23
12/11/2020 6:00:00 AM 2.14 35.852 0.081 6.69 3.06 13.22
12/11/2020 6:15:00 AM 2.13 35.834 0.081 6.69 3.12 13.24
12/11/2020 6:30:00 AM 2.11 35.798 0.081 6.68 3.13 13.25
12/11/2020 6:45:00 AM 2.11 35.798 0.081 6.68 3.1 13.25
12/11/2020 7:00:00 AM 2.1 35.78 0.081 6.69 3.1 13.26
12/11/2020 7:15:00 AM 2.09 35.762 0.081 6.69 3.11 13.25
12/11/2020 7:30:00 AM 2.08 35.744 0.081 6.69 3.09 13.26
12/11/2020 7:45:00 AM 2.08 35.744 0.081 6.69 3.12 13.29
12/11/2020 8:00:00 AM 2.08 35.744 0.081 6.7 3.1 13.32
12/11/2020 8:15:00 AM 2.08 35.744 0.081 6.7 3.11 13.35
12/11/2020 8:30:00 AM 2.09 35.762 0.081 6.71 3.12 13.38
12/11/2020 8:45:00 AM 2.1 35.78 0.081 6.72 3.11 13.42
12/11/2020 9:00:00 AM 2.12 35.816 0.081 6.73 3.08 13.45
12/11/2020 9:15:00 AM 2.14 35.852 0.081 6.74 3.06 13.48
12/11/2020 9:30:00 AM 2.19 35.942 0.081 6.75 3.07 13.5
12/11/2020 9:45:00 AM 2.24 36.032 0.081 6.76 3.12 13.51
12/11/2020 10:00:00 AM 2.28 36.104 0.081 6.76 3.12 13.5
12/11/2020 10:15:00 AM 2.32 36.176 0.081 6.77 3.09 13.52
12/11/2020 10:30:00 AM 2.32 36.176 0.081 6.76 3.09 13.52
12/11/2020 10:45:00 AM 2.34 36.212 0.081 6.76 3.07 13.48
12/11/2020 11:00:00 AM 2.43 36.374 0.081 6.77 3.08 13.49
12/11/2020 11:15:00 AM 2.48 36.464 0.081 6.77 3.04 13.47
12/11/2020 11:30:00 AM 2.55 36.59 0.081 6.77 3.05 13.45
12/11/2020 11:45:00 AM 2.62 36.716 0.081 6.78 3.09 13.43
12/11/2020 12:00:00 PM 2.67 36.806 0.081 6.77 3.08 13.41
12/11/2020 12:15:00 PM 2.71 36.878 0.081 6.77 3.09 13.38
12/11/2020 12:30:00 PM 2.81 37.058 0.081 6.78 3.06 13.36
12/11/2020 12:45:00 PM 2.85 37.13 0.081 6.77 3.06 13.34
12/11/2020 1:00:00 PM 2.91 37.238 0.081 6.77 3.08 13.31
12/11/2020 1:15:00 PM 2.97 37.346 0.08 6.77 3.06 13.28
12/11/2020 1:30:00 PM 3 37.4 0.08 6.76 3.07 13.25
12/11/2020 1:45:00 PM 3.04 37.472 0.08 6.76 3.11 13.24
12/11/2020 2:00:00 PM 3.09 37.562 0.08 6.77 3.09 13.23
12/11/2020 2:15:00 PM 3.12 37.616 0.08 6.77 3.11 13.21
12/11/2020 2:30:00 PM 3.14 37.652 0.08 6.76 3.08 13.19
12/11/2020 2:45:00 PM 3.17 37.706 0.08 6.76 3.08 13.18
12/11/2020 3:00:00 PM 3.18 37.724 0.08 6.76 3.09 13.16
12/11/2020 3:15:00 PM 3.17 37.706 0.08 6.75 3.04 13.13
12/11/2020 3:30:00 PM 3.18 37.724 0.08 6.74 3.08 13.09
12/11/2020 3:45:00 PM 3.21 37.778 0.08 6.75 3.08 13.08
12/11/2020 4:00:00 PM 3.21 37.778 0.08 6.74 3.09 13.06
12/11/2020 4:15:00 PM 3.2 37.76 0.08 6.74 3.09 13.05
12/11/2020 4:30:00 PM 3.19 37.742 0.08 6.73 3.11 13.01
12/11/2020 4:45:00 PM 3.16 37.688 0.08 6.73 3.12 12.98
12/11/2020 5:00:00 PM 3.13 37.634 0.081 6.72 3.08 12.95
12/11/2020 5:15:00 PM 3.1 37.58 0.081 6.71 3.06 12.93
12/11/2020 5:30:00 PM 3.07 37.526 0.081 6.7 3.07 12.91
12/11/2020 5:45:00 PM 3.04 37.472 0.081 6.7 3.14 12.91
12/11/2020 6:00:00 PM 3.01 37.418 0.081 6.7 3.1 12.91
12/11/2020 6:15:00 PM 2.98 37.364 0.081 6.69 3.06 12.91
12/11/2020 6:30:00 PM 2.96 37.328 0.081 6.69 3.08 12.91
12/11/2020 6:45:00 PM 2.95 37.31 0.081 6.69 3.1 12.91
12/11/2020 7:00:00 PM 2.94 37.292 0.081 6.69 3.08 12.93
12/11/2020 7:15:00 PM 2.92 37.256 0.081 6.69 3.11 12.93
12/11/2020 7:30:00 PM 2.9 37.22 0.081 6.69 3.1 12.94
12/11/2020 7:45:00 PM 2.87 37.166 0.081 6.69 3.14 12.93
12/11/2020 8:00:00 PM 2.83 37.094 0.081 6.68 3.12 12.95
12/11/2020 8:15:00 PM 2.79 37.022 0.081 6.68 3.1 12.95
12/11/2020 8:30:00 PM 2.75 36.95 0.081 6.68 3.09 12.97
12/11/2020 8:45:00 PM 2.71 36.878 0.081 6.68 3.07 12.98
12/11/2020 9:00:00 PM 2.67 36.806 0.081 6.68 3.1 13
12/11/2020 9:15:00 PM 2.64 36.752 0.081 6.67 3.07 13
12/11/2020 9:30:00 PM 2.6 36.68 0.081 6.68 3.14 13.02
12/11/2020 9:45:00 PM 2.57 36.626 0.081 6.67 3.1 13.03
12/11/2020 10:00:00 PM 2.54 36.572 0.082 6.67 3.1 13.05
12/11/2020 10:15:00 PM 2.51 36.518 0.082 6.68 3.22 13.06
12/11/2020 10:30:00 PM 2.49 36.482 0.082 6.68 3.13 13.07
12/11/2020 10:45:00 PM 2.48 36.464 0.082 6.68 3.11 13.07
12/11/2020 11:00:00 PM 2.46 36.428 0.082 6.68 3.11 13.08
12/11/2020 11:15:00 PM 2.44 36.392 0.082 6.68 3.11 13.08
12/11/2020 11:30:00 PM 2.44 36.392 0.082 6.68 3.11 13.08
12/11/2020 11:45:00 PM 2.44 36.392 0.082 6.68 3.11 13.1
12/12/2020 12:00:00 AM 2.43 36.374 0.082 6.68 3.13 13.11
12/12/2020 12:15:00 AM 2.42 36.356 0.082 6.68 3.09 13.11
12/12/2020 12:30:00 AM 2.42 36.356 0.082 6.69 3.08 13.12
12/12/2020 12:45:00 AM 2.41 36.338 0.082 6.69 3.14 13.11
12/12/2020 1:00:00 AM 2.41 36.338 0.082 6.68 3.1 13.12
12/12/2020 1:15:00 AM 2.42 36.356 0.082 6.69 3.1 13.12
12/12/2020 1:30:00 AM 2.42 36.356 0.082 6.69 3.08 13.12
12/12/2020 1:45:00 AM 2.42 36.356 0.082 6.68 3.12 13.12
12/12/2020 2:00:00 AM 2.42 36.356 0.082 6.69 3.08 13.11
12/12/2020 2:15:00 AM 2.43 36.374 0.082 6.69 3.12 13.11
12/12/2020 2:30:00 AM 2.43 36.374 0.082 6.69 3.12 13.11
12/12/2020 2:45:00 AM 2.44 36.392 0.082 6.69 3.14 13.12
12/12/2020 3:00:00 AM 2.44 36.392 0.082 6.69 3.09 13.12
12/12/2020 3:15:00 AM 2.44 36.392 0.082 6.69 3.1 13.12
12/12/2020 3:30:00 AM 2.43 36.374 0.082 6.69 3.1 13.12
12/12/2020 3:45:00 AM 2.43 36.374 0.082 6.69 3.09 13.11
12/12/2020 4:00:00 AM 2.43 36.374 0.082 6.69 3.12 13.12
12/12/2020 4:15:00 AM 2.43 36.374 0.082 6.69 3.3 13.12
12/12/2020 4:30:00 AM 2.43 36.374 0.082 6.69 3.28 13.12
12/12/2020 4:45:00 AM 2.43 36.374 0.082 6.69 3.32 13.12
12/12/2020 5:00:00 AM 2.43 36.374 0.082 6.69 3.26 13.11
12/12/2020 5:15:00 AM 2.42 36.356 0.082 6.69 3.31 13.12
12/12/2020 5:30:00 AM 2.41 36.338 0.082 6.68 3.27 13.12
12/12/2020 5:45:00 AM 2.41 36.338 0.082 6.68 3.25 13.11
12/12/2020 6:00:00 AM 2.4 36.32 0.082 6.69 3.27 13.13
12/12/2020 6:15:00 AM 2.4 36.32 0.082 6.69 3.27 13.13
12/12/2020 6:30:00 AM 2.39 36.302 0.082 6.68 3.27 13.11
12/12/2020 6:45:00 AM 2.39 36.302 0.082 6.68 3.27 13.11
12/12/2020 7:00:00 AM 2.4 36.32 0.082 6.69 3.24 13.11
12/12/2020 7:15:00 AM 2.4 36.32 0.082 6.68 3.3 13.11
12/12/2020 7:30:00 AM 2.4 36.32 0.082 6.69 3.27 13.12
12/12/2020 7:45:00 AM 2.41 36.338 0.082 6.69 3.28 13.11
12/12/2020 8:00:00 AM 2.4 36.32 0.082 6.69 3.24 13.14
12/12/2020 8:15:00 AM 2.41 36.338 0.082 6.7 3.27 13.15
12/12/2020 8:30:00 AM 2.43 36.374 0.082 6.71 3.31 13.18
12/12/2020 8:45:00 AM 2.45 36.41 0.082 6.71 3.25 13.22
12/12/2020 9:00:00 AM 2.49 36.482 0.082 6.72 3.24 13.26
12/12/2020 9:15:00 AM 2.53 36.554 0.082 6.74 3.28 13.28
12/12/2020 9:30:00 AM 2.57 36.626 0.082 6.73 3.25 13.28
12/12/2020 9:45:00 AM 2.59 36.662 0.082 6.74 3.26 13.3
12/12/2020 10:00:00 AM 2.68 36.824 0.081 6.76 3.27 13.3
12/12/2020 10:15:00 AM 2.72 36.896 0.081 6.76 3.27 13.3
12/12/2020 10:30:00 AM 2.78 37.004 0.081 6.76 3.23 13.3
12/12/2020 10:45:00 AM 2.84 37.112 0.081 6.77 3.27 13.29
12/12/2020 11:00:00 AM 2.94 37.292 0.081 6.78 3.24 13.28
12/12/2020 11:15:00 AM 3.02 37.436 0.081 6.78 3.27 13.26
12/12/2020 11:30:00 AM 3.1 37.58 0.081 6.78 3.27 13.23
12/12/2020 11:45:00 AM 3.19 37.742 0.081 6.78 3.26 13.21
12/12/2020 12:00:00 PM 3.3 37.94 0.081 6.79 3.27 13.18
12/12/2020 12:15:00 PM 3.44 38.192 0.081 6.79 3.25 13.15
12/12/2020 12:30:00 PM 3.51 38.318 0.081 6.79 3.26 13.1
12/12/2020 12:45:00 PM 3.52 38.336 0.081 6.77 3.26 13.07
12/12/2020 1:00:00 PM 3.53 38.354 0.081 6.77 3.24 13.04
12/12/2020 1:15:00 PM 3.54 38.372 0.081 6.76 3.25 13.02
12/12/2020 1:30:00 PM 3.54 38.372 0.081 6.76 3.24 12.99
12/12/2020 1:45:00 PM 3.55 38.39 0.081 6.76 3.24 12.95
12/12/2020 2:00:00 PM 3.62 38.516 0.081 6.77 3.26 12.94
12/12/2020 2:15:00 PM 3.67 38.606 0.081 6.77 3.27 12.88
12/12/2020 2:30:00 PM 3.73 38.714 0.081 6.77 3.23 12.86
12/12/2020 2:45:00 PM 3.82 38.876 0.081 6.78 3.21 12.85
12/12/2020 3:00:00 PM 3.87 38.966 0.081 6.77 3.22 12.82
12/12/2020 3:15:00 PM 3.97 39.146 0.081 6.78 3.25 12.8
12/12/2020 3:30:00 PM 4.01 39.218 0.081 6.77 3.23 12.75
12/12/2020 3:45:00 PM 4.03 39.254 0.081 6.76 3.25 12.72
12/12/2020 4:00:00 PM 4.05 39.29 0.081 6.76 3.25 12.68
12/12/2020 4:15:00 PM 4.05 39.29 0.081 6.75 3.27 12.65
12/12/2020 4:30:00 PM 4.05 39.29 0.081 6.73 3.3 12.6
12/12/2020 4:45:00 PM 4.07 39.326 0.081 6.74 3.58 12.57
12/12/2020 5:00:00 PM 4.08 39.344 0.081 6.73 3.54 12.54
12/12/2020 5:15:00 PM 4.1 39.38 0.081 6.72 3.39 12.5
12/12/2020 5:30:00 PM 4.12 39.416 0.081 6.72 3.35 12.49
12/12/2020 5:45:00 PM 4.14 39.452 0.081 6.69 9.39 12.47
12/12/2020 6:00:00 PM 4.15 39.47 0.081 6.7 3.4 12.45
12/12/2020 6:15:00 PM 4.15 39.47 0.081 6.7 3.28 12.44
12/12/2020 6:30:00 PM 4.16 39.488 0.081 6.7 3.28 12.43
12/12/2020 6:45:00 PM 4.16 39.488 0.081 6.7 3.28 12.43
12/12/2020 7:00:00 PM 4.16 39.488 0.081 6.7 3.25 12.42
12/12/2020 7:15:00 PM 4.16 39.488 0.081 6.7 3.21 12.43
12/12/2020 7:30:00 PM 4.16 39.488 0.081 6.7 3.28 12.42
12/12/2020 7:45:00 PM 4.16 39.488 0.081 6.69 3.24 12.41
12/12/2020 8:00:00 PM 4.17 39.506 0.081 6.7 3.24 12.41
12/12/2020 8:15:00 PM 4.17 39.506 0.081 6.7 3.22 12.42
12/12/2020 8:30:00 PM 4.18 39.524 0.081 6.69 3.2 12.41
12/12/2020 8:45:00 PM 4.2 39.56 0.081 6.7 3.21 12.41
12/12/2020 9:00:00 PM 4.21 39.578 0.081 6.7 3.22 12.4
12/12/2020 9:15:00 PM 4.23 39.614 0.081 6.7 3.21 12.4
12/12/2020 9:30:00 PM 4.24 39.632 0.081 6.71 3.23 12.39
12/12/2020 9:45:00 PM 4.24 39.632 0.081 6.7 3.24 12.39
12/12/2020 10:00:00 PM 4.25 39.65 0.082 6.7 3.25 12.38
12/12/2020 10:15:00 PM 4.28 39.704 0.082 6.71 3.21 12.37
12/12/2020 10:30:00 PM 4.29 39.722 0.08 6.71 3.1 12.35
12/12/2020 10:45:00 PM 4.3 39.74 0.082 6.7 3.15 12.32
12/12/2020 11:00:00 PM 4.3 39.74 0.082 6.69 3.11 12.35
12/12/2020 11:15:00 PM 4.32 39.776 0.082 6.7 3.15 12.35
12/12/2020 11:30:00 PM 4.35 39.83 0.082 6.71 3.14 12.35
12/12/2020 11:45:00 PM 4.37 39.866 0.082 6.7 3.15 12.34
12/13/2020 12:00:00 AM 4.39 39.902 0.082 6.71 3.1 12.34
12/13/2020 12:15:00 AM 4.4 39.92 0.082 6.71 3.09 12.33
12/13/2020 12:30:00 AM 4.41 39.938 0.082 6.7 3.11 12.32
12/13/2020 12:45:00 AM 4.43 39.974 0.082 6.71 3.19 12.32
12/13/2020 1:00:00 AM 4.44 39.992 0.082 6.71 3.1 12.32
12/13/2020 1:15:00 AM 4.46 40.028 0.082 6.71 3.12 12.31
12/13/2020 1:30:00 AM 4.47 40.046 0.082 6.71 3.09 12.3
12/13/2020 1:45:00 AM 4.48 40.064 0.082 6.7 3.13 12.3
12/13/2020 2:00:00 AM 4.5 40.1 0.082 6.7 3.16 12.29
12/13/2020 2:15:00 AM 4.52 40.136 0.082 6.71 3.93 12.28
12/13/2020 2:30:00 AM 4.51 40.118 0.082 6.71 3.46 12.3
12/13/2020 2:45:00 AM 4.48 40.064 0.082 6.7 3.16 12.29
12/13/2020 3:00:00 AM 4.49 40.082 0.082 6.7 3.13 12.29
12/13/2020 3:15:00 AM 4.49 40.082 0.082 6.7 3.14 12.29
12/13/2020 3:30:00 AM 4.48 40.064 0.082 6.7 3.2 12.29
12/13/2020 3:45:00 AM 4.46 40.028 0.082 6.7 3.14 12.29
12/13/2020 4:00:00 AM 4.45 40.01 0.082 6.7 3.12 12.29
12/13/2020 4:30:00 AM 4.45 40.01 0.082 6.7 3.09 12.3
12/13/2020 4:45:00 AM 4.41 39.938 0.082 6.69 3.17 12.31
12/13/2020 5:00:00 AM 4.37 39.866 0.082 6.7 3.08 12.31
12/13/2020 5:15:00 AM 4.35 39.83 0.082 6.69 3.1 12.32
12/13/2020 5:30:00 AM 4.36 39.848 0.082 6.7 3.14 12.32
12/13/2020 5:45:00 AM 4.37 39.866 0.082 6.7 3.16 12.32
12/13/2020 6:00:00 AM 4.39 39.902 0.082 6.7 3.1 12.33
12/13/2020 6:15:00 AM 4.39 39.902 0.082 6.7 3.12 12.33
12/13/2020 6:30:00 AM 4.4 39.92 0.082 6.7 3.08 12.33
12/13/2020 6:45:00 AM 4.4 39.92 0.082 6.7 3.12 12.34
12/13/2020 7:00:00 AM 4.4 39.92 0.082 6.7 3.13 12.34
12/13/2020 7:15:00 AM 4.4 39.92 0.082 6.7 3.12 12.34
12/13/2020 7:30:00 AM 4.41 39.938 0.082 6.7 3.14 12.34
12/13/2020 7:45:00 AM 4.41 39.938 0.082 6.7 3.12 12.34
12/13/2020 8:00:00 AM 4.42 39.956 0.082 6.7 3.12 12.37
12/13/2020 8:15:00 AM 4.43 39.974 0.082 6.71 3.1 12.38
12/13/2020 8:30:00 AM 4.43 39.974 0.082 6.71 3.1 12.38
12/13/2020 8:45:00 AM 4.44 39.992 0.082 6.72 3.14 12.4
12/13/2020 9:00:00 AM 4.45 40.01 0.082 6.72 3.11 12.42
12/13/2020 9:15:00 AM 4.46 40.028 0.082 6.72 3.1 12.43
12/13/2020 9:30:00 AM 4.49 40.082 0.082 6.73 3.12 12.48
12/13/2020 9:45:00 AM 4.51 40.118 0.082 6.74 3.11 12.49
12/13/2020 10:00:00 AM 4.53 40.154 0.082 6.74 3.12 12.5
12/13/2020 10:15:00 AM 4.56 40.208 0.082 6.75 3.1 12.52
12/13/2020 10:30:00 AM 4.59 40.262 0.082 6.76 3.12 12.55
12/13/2020 10:45:00 AM 4.61 40.298 0.082 6.77 3.18 12.57
12/13/2020 11:00:00 AM 4.63 40.334 0.082 6.77 3.13 12.58
12/13/2020 11:15:00 AM 4.67 40.406 0.082 6.78 3.1 12.59
12/13/2020 11:30:00 AM 4.69 40.442 0.082 6.78 3.11 12.59
12/13/2020 11:45:00 AM 4.74 40.532 0.082 6.79 3.11 12.6
12/13/2020 12:00:00 PM 4.77 40.586 0.082 6.79 3.09 12.6
12/13/2020 12:15:00 PM 4.88 40.784 0.082 6.8 3.13 12.59
12/13/2020 12:30:00 PM 5.03 41.054 0.082 6.82 3.11 12.6
12/13/2020 12:45:00 PM 4.99 40.982 0.082 6.79 3.06 12.58
12/13/2020 1:00:00 PM 5.01 41.018 0.082 6.79 3.12 12.58
12/13/2020 1:15:00 PM 5.06 41.108 0.082 6.8 3.09 12.57
12/13/2020 1:30:00 PM 5.07 41.126 0.082 6.79 3.08 12.53
12/13/2020 1:45:00 PM 5.06 41.108 0.082 6.77 3.08 12.53
12/13/2020 2:00:00 PM 5.06 41.108 0.082 6.77 3.08 12.52
12/13/2020 2:15:00 PM 5.09 41.162 0.082 6.78 3.08 12.51
12/13/2020 2:30:00 PM 5.12 41.216 0.082 6.79 3.09 12.51
12/13/2020 2:45:00 PM 5.13 41.234 0.082 6.78 3.06 12.49
12/13/2020 3:00:00 PM 5.12 41.216 0.082 6.77 3.1 12.49
12/13/2020 3:15:00 PM 5.14 41.252 0.082 6.78 3.09 12.48
12/13/2020 3:30:00 PM 5.12 41.216 0.082 6.77 3.06 12.47
12/13/2020 3:45:00 PM 5.08 41.144 0.082 6.76 3.09 12.44
12/13/2020 4:00:00 PM 5.04 41.072 0.082 6.75 3.06 12.42
12/13/2020 4:15:00 PM 5.02 41.036 0.082 6.75 3.1 12.4
12/13/2020 4:30:00 PM 5 41 0.082 6.75 3.1 12.36
12/13/2020 4:45:00 PM 4.97 40.946 0.082 6.73 3.11 12.32
12/13/2020 5:00:00 PM 4.96 40.928 0.082 6.73 3.13 12.29
12/13/2020 5:15:00 PM 4.93 40.874 0.082 6.73 3.12 12.27
12/13/2020 5:30:00 PM 4.91 40.838 0.082 6.71 3.1 12.25
12/13/2020 5:45:00 PM 4.89 40.802 0.082 6.72 3.09 12.25
12/13/2020 6:00:00 PM 4.86 40.748 0.082 6.71 3.09 12.25
12/13/2020 6:15:00 PM 4.84 40.712 0.082 6.71 3.09 12.26
12/13/2020 6:30:00 PM 4.83 40.694 0.082 6.71 3.09 12.25
12/13/2020 6:45:00 PM 4.8 40.64 0.083 6.71 3.08 12.26
12/13/2020 7:00:00 PM 4.78 40.604 0.083 6.7 3.11 12.26
12/13/2020 7:15:00 PM 4.76 40.568 0.083 6.7 3.11 12.26
12/13/2020 7:30:00 PM 4.74 40.532 0.083 6.71 3.06 12.26
12/13/2020 7:45:00 PM 4.71 40.478 0.083 6.7 3.1 12.28
12/13/2020 8:00:00 PM 4.7 40.46 0.083 6.7 3.07 12.29
12/13/2020 8:15:00 PM 4.68 40.424 0.083 6.7 3.08 12.29
12/13/2020 8:30:00 PM 4.66 40.388 0.083 6.7 3.12 12.28
12/13/2020 8:45:00 PM 4.65 40.37 0.083 6.7 3.1 12.29
12/13/2020 9:00:00 PM 4.63 40.334 0.083 6.7 3.09 12.29
12/13/2020 9:15:00 PM 4.61 40.298 0.083 6.7 3.09 12.3
12/13/2020 9:30:00 PM 4.58 40.244 0.083 6.7 3.11 12.29
12/13/2020 9:45:00 PM 4.54 40.172 0.083 6.7 3.09 12.31
12/13/2020 10:00:00 PM 4.52 40.136 0.083 6.69 3.07 12.31
12/13/2020 10:15:00 PM 4.5 40.1 0.083 6.7 3.14 12.33
12/13/2020 10:30:00 PM 4.48 40.064 0.083 6.7 3.11 12.33
12/13/2020 10:45:00 PM 4.45 40.01 0.083 6.69 3.08 12.33
12/13/2020 11:00:00 PM 4.42 39.956 0.083 6.7 3.11 12.34
12/13/2020 11:15:00 PM 4.41 39.938 0.083 6.7 3.13 12.35
12/13/2020 11:30:00 PM 4.39 39.902 0.083 6.7 3.1 12.36
12/13/2020 11:45:00 PM 4.37 39.866 0.083 6.7 3.15 12.36
12/14/2020 12:00:00 AM 4.34 39.812 0.083 6.7 3.09 12.37
12/14/2020 12:15:00 AM 4.31 39.758 0.083 6.7 3.13 12.37
12/14/2020 12:30:00 AM 4.3 39.74 0.083 6.71 3.11 12.37
12/14/2020 12:45:00 AM 4.29 39.722 0.083 6.7 3.16 12.39
12/14/2020 1:00:00 AM 4.28 39.704 0.083 6.7 3.09 12.39
12/14/2020 1:15:00 AM 4.26 39.668 0.083 6.7 3.28 12.39
12/14/2020 1:30:00 AM 4.25 39.65 0.083 6.7 3.11 12.4
12/14/2020 1:45:00 AM 4.24 39.632 0.083 6.7 3.08 12.4
12/14/2020 2:00:00 AM 4.22 39.596 0.083 6.7 3.15 12.41
12/14/2020 2:15:00 AM 4.2 39.56 0.083 6.7 3.1 12.4
12/14/2020 2:30:00 AM 4.18 39.524 0.083 6.7 3.1 12.41
12/14/2020 2:45:00 AM 4.17 39.506 0.083 6.71 3.09 12.41
12/14/2020 3:00:00 AM 4.16 39.488 0.083 6.7 3.13 12.41
12/14/2020 3:15:00 AM 4.15 39.47 0.083 6.7 3.11 12.4
12/14/2020 3:30:00 AM 4.15 39.47 0.083 6.7 3.12 12.41
12/14/2020 3:45:00 AM 4.14 39.452 0.083 6.7 3.14 12.42
12/14/2020 4:00:00 AM 4.13 39.434 0.083 6.7 3.09 12.42
12/14/2020 4:15:00 AM 4.12 39.416 0.083 6.7 3.14 12.43
12/14/2020 4:30:00 AM 4.11 39.398 0.083 6.71 3.09 12.43
12/14/2020 4:45:00 AM 4.1 39.38 0.083 6.7 3.08 12.43
12/14/2020 5:00:00 AM 4.09 39.362 0.083 6.7 3.1 12.43
12/14/2020 5:15:00 AM 4.08 39.344 0.083 6.7 3.08 12.43
12/14/2020 5:30:00 AM 4.06 39.308 0.083 6.7 3.24 12.43
12/14/2020 5:45:00 AM 4.04 39.272 0.083 6.7 3.1 12.44
12/14/2020 6:00:00 AM 4.03 39.254 0.083 6.7 3.1 12.45
12/14/2020 6:15:00 AM 4.01 39.218 0.083 6.7 3.11 12.45
12/14/2020 6:30:00 AM 4 39.2 0.083 6.7 3.15 12.45
12/14/2020 6:45:00 AM 3.96 39.128 0.083 6.7 3.15 12.46
12/14/2020 7:00:00 AM 3.95 39.11 0.083 6.7 3.09 12.46
12/14/2020 7:15:00 AM 3.94 39.092 0.083 6.7 3.16 12.46
12/14/2020 7:30:00 AM 3.92 39.056 0.083 6.7 3.1 12.46
12/14/2020 7:45:00 AM 3.89 39.002 0.083 6.7 3.14 12.48
12/14/2020 8:00:00 AM 3.85 38.93 0.083 6.71 3.12 12.49
12/14/2020 8:15:00 AM 3.83 38.894 0.083 6.71 3.15 12.51
12/14/2020 8:30:00 AM 3.83 38.894 0.083 6.72 3.17 12.55
12/14/2020 8:45:00 AM 3.83 38.894 0.083 6.71 3.12 12.6
12/14/2020 9:00:00 AM 3.83 38.894 0.083 6.73 3.16 12.63
12/14/2020 9:15:00 AM 3.85 38.93 0.083 6.73 3.12 12.68
12/14/2020 9:30:00 AM 3.86 38.948 0.083 6.75 3.09 12.7
12/14/2020 9:45:00 AM 3.87 38.966 0.083 6.75 3.11 12.72
12/14/2020 10:00:00 AM 3.87 38.966 0.083 6.75 3.08 12.73
12/14/2020 10:15:00 AM 3.88 38.984 0.083 6.75 3.08 12.72
12/14/2020 10:30:00 AM 3.9 39.02 0.083 6.76 3.14 12.74
12/14/2020 10:45:00 AM 3.94 39.092 0.083 6.77 3.09 12.77
12/14/2020 11:00:00 AM 3.94 39.092 0.083 6.77 3.06 12.75
12/14/2020 11:15:00 AM 3.94 39.092 0.082 6.77 3.15 12.76
12/14/2020 11:30:00 AM 3.96 39.128 0.082 6.78 3.08 12.77
12/14/2020 11:45:00 AM 3.98 39.164 0.083 6.78 3.1 12.75
12/14/2020 12:00:00 PM 4.05 39.29 0.082 6.8 3.1 12.8
12/14/2020 12:15:00 PM 4.14 39.452 0.082 6.81 3.1 12.79
12/14/2020 12:30:00 PM 4.2 39.56 0.082 6.81 3.12 12.79
12/14/2020 12:45:00 PM 4.18 39.524 0.082 6.79 3.08 12.76
12/14/2020 1:00:00 PM 4.16 39.488 0.082 6.79 3.15 12.75
12/14/2020 1:15:00 PM 4.14 39.452 0.082 6.78 3.22 12.71
12/14/2020 1:30:00 PM 4.17 39.506 0.082 6.78 6.49 12.74
12/14/2020 1:45:00 PM 4.19 39.542 0.082 6.79 3.22 12.74
12/14/2020 2:00:00 PM 4.2 39.56 0.082 6.79 3.14 12.72
12/14/2020 2:15:00 PM 4.21 39.578 0.082 6.79 3.17 12.71
12/14/2020 2:30:00 PM 4.21 39.578 0.082 6.79 3.17 12.7
12/14/2020 2:45:00 PM 4.2 39.56 0.082 6.78 3.17 12.68
12/14/2020 3:00:00 PM 4.18 39.524 0.082 6.77 3.17 12.66
12/14/2020 3:15:00 PM 4.15 39.47 0.082 6.77 3.18 12.66
12/14/2020 3:30:00 PM 4.14 39.452 0.082 6.77 3.2 12.67
12/14/2020 3:45:00 PM 4.1 39.38 0.082 6.76 3.18 12.64
12/14/2020 4:00:00 PM 4.06 39.308 0.082 6.76 3.18 12.6
12/14/2020 4:15:00 PM 4.03 39.254 0.082 6.75 3.17 12.6
12/14/2020 4:30:00 PM 4.01 39.218 0.082 6.74 3.19 12.58
12/14/2020 4:45:00 PM 3.97 39.146 0.082 6.73 3.19 12.56
12/14/2020 5:00:00 PM 3.92 39.056 0.082 6.73 3.2 12.54
12/14/2020 5:15:00 PM 3.89 39.002 0.082 6.73 3.16 12.53
12/14/2020 5:30:00 PM 3.83 38.894 0.082 6.72 3.17 12.55
12/14/2020 5:45:00 PM 3.8 38.84 0.083 6.73 3.21 12.55
12/14/2020 6:00:00 PM 3.75 38.75 0.083 6.71 3.2 12.56
12/14/2020 6:15:00 PM 3.69 38.642 0.083 6.72 3.18 12.57
12/14/2020 6:30:00 PM 3.65 38.57 0.083 6.72 3.2 12.59
12/14/2020 6:45:00 PM 3.62 38.516 0.083 6.72 3.16 12.61
12/14/2020 7:00:00 PM 3.57 38.426 0.083 6.71 3.22 12.61
12/14/2020 7:15:00 PM 3.53 38.354 0.083 6.71 3.24 12.65
12/14/2020 7:30:00 PM 3.46 38.228 0.083 6.71 3.24 12.66
12/14/2020 7:45:00 PM 3.43 38.174 0.083 6.71 3.2 12.67
12/14/2020 8:00:00 PM 3.36 38.048 0.083 6.7 3.19 12.7
12/14/2020 8:15:00 PM 3.31 37.958 0.083 6.71 3.21 12.71
12/14/2020 8:30:00 PM 3.26 37.868 0.083 6.71 3.2 12.73
12/14/2020 8:45:00 PM 3.22 37.796 0.083 6.71 3.21 12.73
12/14/2020 9:00:00 PM 3.2 37.76 0.083 6.71 3.21 12.77
12/14/2020 9:15:00 PM 3.17 37.706 0.083 6.71 3.22 12.79
12/14/2020 9:30:00 PM 3.12 37.616 0.083 6.71 3.19 12.8
12/14/2020 9:45:00 PM 3.05 37.49 0.083 6.71 3.19 12.81
12/14/2020 10:00:00 PM 3.01 37.418 0.083 6.71 3.19 12.83
12/14/2020 10:15:00 PM 2.96 37.328 0.083 6.71 3.26 12.85
12/14/2020 10:30:00 PM 2.89 37.202 0.083 6.7 3.22 12.85
12/14/2020 10:45:00 PM 2.83 37.094 0.083 6.7 3.2 12.87
12/14/2020 11:00:00 PM 2.78 37.004 0.083 6.71 3.24 12.91
12/14/2020 11:15:00 PM 2.75 36.95 0.083 6.71 3.19 12.92
12/14/2020 11:30:00 PM 2.7 36.86 0.083 6.71 3.23 12.95
12/14/2020 11:45:00 PM 2.69 36.842 0.083 6.71 3.19 12.95
12/15/2020 12:00:00 AM 2.69 36.842 0.083 6.7 3.19 12.96
12/15/2020 12:15:00 AM 2.66 36.788 0.083 6.71 3.23 12.98
12/15/2020 12:30:00 AM 2.68 36.824 0.084 6.71 3.2 12.97
12/15/2020 12:45:00 AM 2.66 36.788 0.084 6.72 3.26 12.99
12/15/2020 1:00:00 AM 2.66 36.788 0.084 6.71 3.25 13
12/15/2020 1:15:00 AM 2.64 36.752 0.084 6.72 3.22 13.01
12/15/2020 1:30:00 AM 2.61 36.698 0.084 6.71 3.2 13.01
12/15/2020 1:45:00 AM 2.55 36.59 0.084 6.71 3.17 13.03
12/15/2020 2:00:00 AM 2.51 36.518 0.083 6.72 3.2 13.06
12/15/2020 2:15:00 AM 2.53 36.554 0.084 6.71 3.22 13.03
12/15/2020 2:30:00 AM 2.52 36.536 0.084 6.72 3.21 13.04
12/15/2020 2:45:00 AM 2.5 36.5 0.084 6.71 3.2 13.06
12/15/2020 3:00:00 AM 2.47 36.446 0.084 6.71 3.29 13.07
12/15/2020 3:15:00 AM 2.44 36.392 0.084 6.71 3.19 13.1
12/15/2020 3:30:00 AM 2.43 36.374 0.084 6.71 3.16 13.09
12/15/2020 3:45:00 AM 2.38 36.284 0.084 6.71 3.22 13.12
12/15/2020 4:00:00 AM 2.34 36.212 0.084 6.71 3.17 13.15
12/15/2020 4:15:00 AM 2.33 36.194 0.084 6.72 3.2 13.16
12/15/2020 4:30:00 AM 2.34 36.212 0.084 6.72 3.21 13.14
12/15/2020 4:45:00 AM 2.35 36.23 0.084 6.71 3.19 13.14
12/15/2020 5:00:00 AM 2.34 36.212 0.084 6.72 3.19 13.15
12/15/2020 5:15:00 AM 2.31 36.158 0.084 6.71 3.17 13.14
12/15/2020 5:30:00 AM 2.26 36.068 0.084 6.71 3.18 13.16
12/15/2020 5:45:00 AM 2.23 36.014 0.084 6.71 3.21 13.19
12/15/2020 6:00:00 AM 2.2 35.96 0.084 6.71 3.21 13.2
12/15/2020 6:15:00 AM 2.16 35.888 0.084 6.71 3.17 13.22
12/15/2020 6:30:00 AM 2.15 35.87 0.084 6.71 3.2 13.21
12/15/2020 6:45:00 AM 2.17 35.906 0.084 6.71 3.18 13.23
12/15/2020 7:00:00 AM 2.15 35.87 0.084 6.71 3.19 13.21
12/15/2020 7:15:00 AM 2.08 35.744 0.084 6.7 3.19 13.25
12/15/2020 7:30:00 AM 2.05 35.69 0.084 6.71 3.17 13.26
12/15/2020 7:45:00 AM 2.07 35.726 0.084 6.71 3.73 13.27
12/15/2020 8:00:00 AM 2.06 35.708 0.084 6.72 3.23 13.33
12/15/2020 8:15:00 AM 2.06 35.708 0.084 6.73 3.21 13.37
12/15/2020 8:30:00 AM 2.08 35.744 0.084 6.74 3.17 13.4
12/15/2020 8:45:00 AM 2.09 35.762 0.084 6.74 3.21 13.44
12/15/2020 9:00:00 AM 2.1 35.78 0.084 6.75 3.18 13.46
12/15/2020 9:15:00 AM 2.11 35.798 0.083 6.75 3.2 13.52
12/15/2020 9:30:00 AM 2.13 35.834 0.083 6.77 3.19 13.54
12/15/2020 9:45:00 AM 2.18 35.924 0.083 6.78 3.18 13.55
12/15/2020 10:00:00 AM 2.23 36.014 0.083 6.78 3.19 13.56
12/15/2020 10:15:00 AM 2.28 36.104 0.083 6.79 3.18 13.57
12/15/2020 10:30:00 AM 2.33 36.194 0.083 6.79 3.19 13.55
12/15/2020 10:45:00 AM 2.34 36.212 0.083 6.79 3.19 13.57
12/15/2020 11:00:00 AM 2.39 36.302 0.083 6.8 3.22 13.57
12/15/2020 11:15:00 AM 2.45 36.41 0.083 6.8 3.18 13.54
12/15/2020 11:30:00 AM 2.49 36.482 0.083 6.8 3.17 13.55
12/15/2020 11:45:00 AM 2.52 36.536 0.083 6.8 3.2 13.53
12/15/2020 12:00:00 PM 2.56 36.608 0.083 6.8 3.19 13.51
12/15/2020 12:15:00 PM 2.58 36.644 0.083 6.78 3.19 13.49
12/15/2020 12:30:00 PM 2.64 36.752 0.083 6.8 3.18 13.48
12/15/2020 12:45:00 PM 2.67 36.806 0.083 6.8 3.15 13.47
12/15/2020 1:00:00 PM 2.7 36.86 0.083 6.8 3.19 13.44
12/15/2020 1:15:00 PM 2.72 36.896 0.083 6.79 3.21 13.45
12/15/2020 1:30:00 PM 2.73 36.914 0.083 6.79 3.2 13.44
12/15/2020 1:45:00 PM 2.74 36.932 0.083 6.78 3.18 13.43
12/15/2020 2:00:00 PM 2.76 36.968 0.083 6.79 3.21 13.41
12/15/2020 2:15:00 PM 2.73 36.914 0.083 6.78 3.18 13.41
12/15/2020 2:30:00 PM 2.74 36.932 0.083 6.78 3.18 13.39
12/15/2020 2:45:00 PM 2.74 36.932 0.083 6.78 3.2 13.4
12/15/2020 3:00:00 PM 2.73 36.914 0.083 6.78 3.19 13.39
12/15/2020 3:15:00 PM 2.71 36.878 0.083 6.77 3.19 13.39
12/15/2020 3:30:00 PM 2.68 36.824 0.083 6.77 3.14 13.37
12/15/2020 3:45:00 PM 2.65 36.77 0.083 6.77 3.16 13.37
12/15/2020 4:00:00 PM 2.61 36.698 0.083 6.76 3.18 13.36
12/15/2020 4:15:00 PM 2.56 36.608 0.083 6.76 3.17 13.35
12/15/2020 4:30:00 PM 2.53 36.554 0.083 6.75 3.18 13.32
12/15/2020 4:45:00 PM 2.49 36.482 0.083 6.74 3.19 13.29
12/15/2020 5:00:00 PM 2.45 36.41 0.083 6.73 3.18 13.27
12/15/2020 5:15:00 PM 2.42 36.356 0.083 6.73 3.17 13.26
12/15/2020 5:30:00 PM 2.38 36.284 0.083 6.71 3.2 13.24
12/15/2020 5:45:00 PM 2.34 36.212 0.083 6.71 3.19 13.23
12/15/2020 6:00:00 PM 2.29 36.122 0.083 6.71 3.2 13.26
12/15/2020 6:15:00 PM 2.25 36.05 0.083 6.71 3.19 13.25
12/15/2020 6:30:00 PM 2.21 35.978 0.083 6.71 3.19 13.26
12/15/2020 6:45:00 PM 2.16 35.888 0.083 6.7 3.19 13.27
12/15/2020 7:00:00 PM 2.12 35.816 0.083 6.71 3.18 13.28
12/15/2020 7:15:00 PM 2.09 35.762 0.083 6.7 3.2 13.29
12/15/2020 7:30:00 PM 2.04 35.672 0.083 6.71 3.19 13.31
12/15/2020 7:45:00 PM 2.01 35.618 0.083 6.71 3.21 13.3
12/15/2020 8:00:00 PM 1.97 35.546 0.083 6.71 3.23 13.33
12/15/2020 8:15:00 PM 1.94 35.492 0.083 6.71 3.23 13.34
12/15/2020 8:30:00 PM 1.91 35.438 0.083 6.7 3.23 13.34
12/15/2020 8:45:00 PM 1.87 35.366 0.083 6.71 3.19 13.36
12/15/2020 9:00:00 PM 1.83 35.294 0.083 6.71 3.2 13.37
12/15/2020 9:15:00 PM 1.78 35.204 0.083 6.7 3.19 13.39
12/15/2020 9:30:00 PM 1.75 35.15 0.084 6.71 3.21 13.4
12/15/2020 9:45:00 PM 1.72 35.096 0.084 6.7 3.21 13.41
12/15/2020 10:00:00 PM 1.7 35.06 0.084 6.71 3.18 13.41
12/15/2020 10:15:00 PM 1.67 35.006 0.084 6.71 3.24 13.43
12/15/2020 10:30:00 PM 1.64 34.952 0.084 6.71 3.22 13.45
12/15/2020 10:45:00 PM 1.61 34.898 0.084 6.71 3.23 13.46
12/15/2020 11:00:00 PM 1.6 34.88 0.084 6.71 3.19 13.46
12/15/2020 11:15:00 PM 1.57 34.826 0.084 6.71 3.21 13.46
12/15/2020 11:30:00 PM 1.52 34.736 0.084 6.7 3.22 13.48
12/15/2020 11:45:00 PM 1.49 34.682 0.084 6.7 3.19 13.5
12/16/2020 12:00:00 AM 1.48 34.664 0.084 6.71 3.21 13.51
12/16/2020 12:15:00 AM 1.46 34.628 0.084 6.71 3.22 13.52
12/16/2020 12:30:00 AM 1.45 34.61 0.084 6.7 3.23 13.52
12/16/2020 12:45:00 AM 1.43 34.574 0.084 6.71 3.18 13.53
12/16/2020 1:00:00 AM 1.39 34.502 0.084 6.7 3.16 13.55
12/16/2020 1:15:00 AM 1.38 34.484 0.084 6.7 3.22 13.55
12/16/2020 1:30:00 AM 1.35 34.43 0.084 6.7 3.19 13.56
12/16/2020 1:45:00 AM 1.31 34.358 0.084 6.71 3.2 13.57
12/16/2020 2:00:00 AM 1.29 34.322 0.084 6.71 3.2 13.59
12/16/2020 2:15:00 AM 1.28 34.304 0.084 6.71 3.2 13.6
12/16/2020 2:30:00 AM 1.27 34.286 0.084 6.7 3.2 13.61
12/16/2020 2:45:00 AM 1.24 34.232 0.084 6.7 3.18 13.61
12/16/2020 3:00:00 AM 1.21 34.178 0.084 6.71 3.22 13.62
12/16/2020 3:15:00 AM 1.15 34.07 0.084 6.7 3.23 13.64
12/16/2020 3:30:00 AM 1.11 33.998 0.084 6.71 3.2 13.66
12/16/2020 3:45:00 AM 1.09 33.962 0.084 6.7 3.24 13.66
12/16/2020 4:00:00 AM 1.08 33.944 0.084 6.7 3.23 13.67
12/16/2020 4:15:00 AM 1.07 33.926 0.084 6.71 3.19 13.68
12/16/2020 4:30:00 AM 1.05 33.89 0.084 6.7 3.2 13.69
12/16/2020 4:45:00 AM 1.04 33.872 0.084 6.71 3.19 13.68
12/16/2020 5:00:00 AM 1.03 33.854 0.084 6.71 3.23 13.71
12/16/2020 5:15:00 AM 1.01 33.818 0.084 6.7 3.35 13.7
12/16/2020 5:30:00 AM 0.99 33.782 0.084 6.7 3.26 13.71
12/16/2020 5:45:00 AM 0.97 33.746 0.084 6.7 3.62 13.72
12/16/2020 6:00:00 AM 0.97 33.746 0.084 6.7 3.17 13.71
12/16/2020 6:15:00 AM 0.93 33.674 0.084 6.71 3.18 13.74
12/16/2020 6:30:00 AM 0.93 33.674 0.084 6.7 3.2 13.74
12/16/2020 6:45:00 AM 0.9 33.62 0.084 6.71 3.19 13.75
12/16/2020 7:00:00 AM 0.88 33.584 0.084 6.71 3.2 13.77
12/16/2020 7:15:00 AM 0.87 33.566 0.084 6.71 3.2 13.77
12/16/2020 7:30:00 AM 0.87 33.566 0.084 6.71 3.18 13.75
12/16/2020 7:45:00 AM 0.85 33.53 0.084 6.71 3.19 13.78
12/16/2020 8:00:00 AM 0.83 33.494 0.084 6.71 3.18 13.79
12/16/2020 8:15:00 AM 0.81 33.458 0.084 6.72 3.18 13.82
12/16/2020 8:30:00 AM 0.81 33.458 0.084 6.73 3.18 13.86
12/16/2020 8:45:00 AM 0.84 33.512 0.084 6.73 3.24 13.9
12/16/2020 9:00:00 AM 0.85 33.53 0.084 6.74 3.17 13.93
12/16/2020 9:15:00 AM 0.86 33.548 0.084 6.75 3.2 13.95
12/16/2020 9:30:00 AM 0.86 33.548 0.084 6.75 3.18 13.97
12/16/2020 9:45:00 AM 0.89 33.602 0.084 6.76 3.2 13.99
12/16/2020 10:00:00 AM 0.92 33.656 0.084 6.76 3.19 14
12/16/2020 10:15:00 AM 0.96 33.728 0.084 6.78 3.18 14.02
12/16/2020 10:30:00 AM 0.97 33.746 0.083 6.77 3.2 14.02
12/16/2020 10:45:00 AM 0.95 33.71 0.083 6.77 3.19 14.01
12/16/2020 11:00:00 AM 0.93 33.674 0.083 6.77 3.18 14
12/16/2020 11:15:00 AM 0.92 33.656 0.083 6.76 3.19 13.99
12/16/2020 11:30:00 AM 0.9 33.62 0.083 6.76 3.21 13.97
12/16/2020 11:45:00 AM 0.81 33.458 0.083 6.76 3.2 13.99
12/16/2020 12:00:00 PM 0.66 33.188 0.083 6.75 3.22 13.97
12/16/2020 12:15:00 PM 0.51 32.918 0.083 6.74 3.2 13.98
12/16/2020 12:30:00 PM 0.45 32.81 0.083 6.74 3.19 14.01
12/16/2020 12:45:00 PM 0.5 32.9 0.083 6.75 3.21 14.02
12/16/2020 1:00:00 PM 0.47 32.846 0.083 6.75 3.21 14.04
12/16/2020 1:15:00 PM 0.41 32.738 0.083 6.74 3.17 14.06
12/16/2020 1:30:00 PM 0.33 32.594 0.083 6.74 3.17 14.05
12/16/2020 1:45:00 PM 0.27 32.486 0.082 6.74 3.16 14.06
12/16/2020 2:00:00 PM 0.21 32.378 0.082 6.73 3.2 14.08
12/16/2020 2:15:00 PM 0.08 32.144 0.082 6.73 3.22 14.11
12/16/2020 2:30:00 PM 0.09 32.162 0.082 6.74 3.17 14.09
12/16/2020 2:45:00 PM 0.11 32.198 0.082 6.73 3.24 14.08
12/16/2020 3:00:00 PM 0.11 32.198 0.082 6.73 3.19 14.06
12/16/2020 3:15:00 PM 0.11 32.198 0.083 6.73 3.22 14.05
12/16/2020 3:30:00 PM 0.12 32.216 0.083 6.72 3.18 14.06
12/16/2020 3:45:00 PM 0.12 32.216 0.083 6.73 3.22 14.05
12/16/2020 4:00:00 PM 0.15 32.27 0.083 6.72 3.28 14.01
12/16/2020 4:15:00 PM 0.18 32.324 0.083 6.72 3.25 13.97
12/16/2020 4:30:00 PM 0.25 32.45 0.083 6.72 3.19 13.93
12/16/2020 4:45:00 PM 0.29 32.522 0.083 6.71 3.63 13.87
12/16/2020 5:00:00 PM 0.28 32.504 0.083 6.7 3.35 13.85
12/16/2020 5:15:00 PM 0.25 32.45 0.083 6.7 3.24 13.88
12/16/2020 5:30:00 PM 0.06 32.108 0.082 6.7 3.32 14.03
12/16/2020 5:45:00 PM 0.05 32.09 0.082 6.72 3.26 14.04
12/16/2020 6:00:00 PM 0.05 32.09 0.082 6.71 3.64 14.04
12/16/2020 6:15:00 PM 0.03 32.054 0.082 6.7 3.29 14.02
12/16/2020 6:30:00 PM -0.03 31.946 0.081 6.71 3.5 14.11
12/16/2020 6:45:00 PM -0.03 31.946 0.081 6.73 3.29 14.11
12/16/2020 7:00:00 PM -0.03 31.946 0.081 6.72 3.29 14.11
12/16/2020 7:15:00 PM 0.08 32.144 0.082 6.71 3.27 14
12/16/2020 7:30:00 PM 1.3 34.34 0.093 6.68 3.17 12.35
12/16/2020 7:45:00 PM 1.1 33.98 0.091 6.61 3.18 12.62
12/16/2020 8:00:00 PM 1.24 34.232 0.091 6.64 3.38 12.32
12/16/2020 8:15:00 PM 1.13 34.034 0.089 6.65 3.17 12.48
12/16/2020 8:30:00 PM 1.36 34.448 0.091 6.62 3.16 12.22
12/16/2020 8:45:00 PM 1.3 34.34 0.092 6.59 3.16 12.32
12/16/2020 9:00:00 PM 1.43 34.574 0.094 6.61 3.18 11.92
12/16/2020 9:15:00 PM 1.47 34.646 0.094 6.59 3.18 11.86
12/16/2020 9:30:00 PM 1.6 34.88 0.096 6.58 3.14 11.56
12/16/2020 9:45:00 PM 1.55 34.79 0.097 6.56 3.18 11.55
12/16/2020 10:00:00 PM 0.48 32.864 0.085 6.61 3.35 13.25
12/16/2020 10:15:00 PM 0.66 33.188 0.087 6.58 3.34 13.07
12/16/2020 10:30:00 PM 0.91 33.638 0.091 6.6 3.42 12.72
12/16/2020 10:45:00 PM 1.46 34.628 0.098 6.61 3.18 11.38
12/16/2020 11:00:00 PM 0.96 33.728 0.088 6.61 3.23 12.22
12/16/2020 11:15:00 PM 0.68 33.224 0.087 6.57 3.37 12.99
12/16/2020 11:30:00 PM 1.17 34.106 0.082 6.61 3.22 11.71
12/16/2020 11:45:00 PM 0.28 32.504 0.082 6.58 3.27 13.5
12/17/2020 12:00:00 AM 1.44 34.592 0.095 6.59 3.16 11.57
12/17/2020 12:15:00 AM 0.3 32.54 0.082 6.61 3.27 13.41
12/17/2020 12:30:00 AM 0.56 33.008 0.082 6.61 3.25 12.74
12/17/2020 12:45:00 AM 0.47 32.846 0.085 6.59 3.23 13.2
12/17/2020 1:00:00 AM 0.53 32.954 0.085 6.58 3.19 13.05
12/17/2020 1:15:00 AM 0.72 33.296 0.087 6.6 3.22 12.51
12/17/2020 1:30:00 AM 1.28 34.304 0.092 6.59 3.15 11.87
12/17/2020 1:45:00 AM 1.51 34.718 0.096 6.56 3.15 11.23
12/17/2020 2:00:00 AM 1.51 34.718 0.103 6.53 3.14 10.76
12/17/2020 2:15:00 AM 1.39 34.502 0.099 6.52 3.18 10.95
12/17/2020 2:30:00 AM 1.39 34.502 0.098 6.51 3.19 10.78
12/17/2020 2:45:00 AM 1.42 34.556 0.102 6.51 3.2 10.58
12/17/2020 3:00:00 AM 1.3 34.34 0.099 6.53 3.22 11.1
12/17/2020 3:15:00 AM 1.32 34.376 0.099 6.52 3.15 11.02
12/17/2020 3:30:00 AM 1.37 34.466 0.099 6.52 3.14 10.94
12/17/2020 3:45:00 AM 1.41 34.538 0.098 6.5 3.19 10.75
12/17/2020 4:00:00 AM 1.35 34.43 0.096 6.5 3.2 11.14
12/17/2020 4:15:00 AM 1.25 34.25 0.094 6.51 3.19 11.19
12/17/2020 4:30:00 AM 1.34 34.412 0.095 6.49 3.18 11.19
12/17/2020 4:45:00 AM 1.24 34.232 0.093 6.51 3.21 11.52
12/17/2020 5:00:00 AM 1.25 34.25 0.091 6.53 3.14 11.47
12/17/2020 5:15:00 AM 0.93 33.674 0.087 6.52 3.19 11.88
12/17/2020 5:30:00 AM 0.65 33.17 0.086 6.54 3.17 12.55
12/17/2020 5:45:00 AM 0.43 32.774 0.084 6.52 3.18 12.85
12/17/2020 6:00:00 AM 0.31 32.558 0.083 6.54 3.2 13
12/17/2020 6:15:00 AM 0.25 32.45 0.083 6.56 3.15 13.09
12/17/2020 6:30:00 AM 0.35 32.63 0.084 6.56 3.15 12.89
12/17/2020 6:45:00 AM 0.21 32.378 0.082 6.57 3.2 13.09
12/17/2020 7:00:00 AM 0.19 32.342 0.082 6.57 3.16 13.16
12/17/2020 7:15:00 AM 0.26 32.468 0.082 6.58 3.17 13.04
12/17/2020 7:30:00 AM 0.27 32.486 0.084 6.56 3.18 13.16
12/17/2020 7:45:00 AM 0.17 32.306 0.082 6.59 3.2 13.19
12/17/2020 8:00:00 AM 0.17 32.306 0.083 6.58 3.23 13.22
12/17/2020 8:15:00 AM 0.11 32.198 0.082 6.6 3.18 13.3
12/17/2020 8:30:00 AM 0.08 32.144 0.082 6.62 3.17 13.41
12/17/2020 8:45:00 AM 0.1 32.18 0.082 6.63 3.17 13.44
12/17/2020 9:00:00 AM 0.14 32.252 0.082 6.63 3.19 13.45
12/17/2020 9:15:00 AM 0.14 32.252 0.082 6.65 3.23 13.5
12/17/2020 9:30:00 AM 0.15 32.27 0.082 6.65 3.19 13.48
12/17/2020 9:45:00 AM 0.54 32.972 0.087 6.62 3.16 12.87
12/17/2020 10:00:00 AM 0.66 33.188 0.086 6.61 3.18 13.02
12/17/2020 10:15:00 AM 0.78 33.404 0.088 6.63 3.38 12.84
12/17/2020 10:30:00 AM 1.29 34.322 0.089 6.61 3.16 12.07
12/17/2020 10:45:00 AM 1.14 34.052 0.089 6.58 3.16 12.33
12/17/2020 11:00:00 AM 1.28 34.304 0.088 6.58 3.17 12.26
12/17/2020 11:15:00 AM 1.55 34.79 0.094 6.57 3.13 12.06
12/17/2020 11:30:00 AM 0.84 33.512 0.084 6.61 3.16 13.1
12/17/2020 11:45:00 AM 0.22 32.396 0.082 6.65 3.44 13.7
12/17/2020 12:00:00 PM 0.23 32.414 0.082 6.66 3.24 13.67
12/17/2020 12:15:00 PM 0.26 32.468 0.082 6.66 3.27 13.61
12/17/2020 12:30:00 PM 0.22 32.396 0.081 6.66 3.32 13.68
12/17/2020 12:45:00 PM 0.13 32.234 0.08 6.68 3.34 13.89
12/17/2020 1:00:00 PM 0.09 32.162 0.08 6.7 3.34 13.96
12/17/2020 1:15:00 PM 0.07 32.126 0.079 6.71 3.35 14.01
12/17/2020 1:30:00 PM 0.06 32.108 0.079 6.72 3.49 14.03
12/17/2020 1:45:00 PM 0.04 32.072 0.079 6.74 3.37 14.04
12/17/2020 2:00:00 PM 0.03 32.054 0.079 6.75 3.49 14.06
12/17/2020 2:15:00 PM 0.01 32.018 0.078 6.76 3.57 14.08
12/17/2020 2:30:00 PM 0.01 32.018 0.078 6.77 3.61 14.1
12/17/2020 2:45:00 PM 0.01 32.018 0.078 6.77 3.66 14.11
12/17/2020 3:00:00 PM 0 32 0.078 6.77 3.59 14.13
12/17/2020 3:15:00 PM -0.01 31.982 0.077 6.76 3.69 14.15
12/17/2020 3:30:00 PM -0.02 31.964 0.077 6.75 3.69 14.18
12/17/2020 3:45:00 PM -0.02 31.964 0.077 6.74 3.7 14.17
12/17/2020 4:00:00 PM -0.03 31.946 0.077 6.74 3.77 14.17
12/17/2020 4:15:00 PM -0.01 31.982 0.077 6.74 3.73 14.14
12/17/2020 4:30:00 PM -0.02 31.964 0.077 6.73 3.74 14.14
12/17/2020 4:45:00 PM -0.01 31.982 0.078 6.73 3.74 14.1
12/17/2020 5:00:00 PM -0.01 31.982 0.078 6.73 3.57 14.08
12/17/2020 5:15:00 PM -0.02 31.964 0.078 6.73 3.94 14.06
12/17/2020 5:30:00 PM -0.02 31.964 0.078 6.74 3.95 14.04
12/17/2020 5:45:00 PM -0.02 31.964 0.079 6.74 3.73 14.03
12/17/2020 6:00:00 PM -0.01 31.982 0.079 6.73 3.68 14.03
12/17/2020 6:15:00 PM -0.01 31.982 0.079 6.73 3.7 14.03
12/17/2020 6:30:00 PM -0.01 31.982 0.079 6.72 3.66 14.02
12/17/2020 6:45:00 PM -0.01 31.982 0.079 6.72 3.64 14.03
12/17/2020 7:00:00 PM -0.02 31.964 0.079 6.71 3.65 14.03
12/17/2020 7:15:00 PM -0.02 31.964 0.08 6.71 3.57 14.03
12/17/2020 7:30:00 PM -0.03 31.946 0.08 6.71 3.58 14.04
12/17/2020 7:45:00 PM -0.03 31.946 0.08 6.71 3.62 14.04
12/17/2020 8:00:00 PM -0.02 31.964 0.08 6.7 3.66 14.03
12/17/2020 8:15:00 PM -0.03 31.946 0.081 6.7 3.72 14.04
12/17/2020 8:30:00 PM -0.02 31.964 0.081 6.7 3.62 14.03
12/17/2020 8:45:00 PM -0.02 31.964 0.082 6.71 3.63 14.02
12/17/2020 9:00:00 PM -0.01 31.982 0.082 6.71 3.61 14.01
12/17/2020 9:15:00 PM 0.02 32.036 0.083 6.7 3.62 13.97
12/17/2020 9:30:00 PM 0.05 32.09 0.083 6.7 3.62 13.94
12/17/2020 9:45:00 PM 0.06 32.108 0.083 6.7 3.62 13.91
12/17/2020 10:00:00 PM 0.08 32.144 0.084 6.7 3.83 13.91
12/17/2020 10:15:00 PM 0.13 32.234 0.083 6.69 4.11 13.84
12/17/2020 10:30:00 PM 0.09 32.162 0.084 6.68 3.8 13.85
12/17/2020 10:45:00 PM 0.11 32.198 0.084 6.68 3.77 13.89
12/17/2020 11:00:00 PM 0.02 32.036 0.084 6.68 3.78 13.94
12/17/2020 11:15:00 PM 0.09 32.162 0.084 6.68 3.76 13.88
12/17/2020 11:30:00 PM 0.1 32.18 0.084 6.68 3.79 13.86
12/17/2020 11:45:00 PM 0.07 32.126 0.084 6.67 3.74 13.88
12/18/2020 12:00:00 AM 0.02 32.036 0.084 6.68 3.75 13.93
12/18/2020 12:15:00 AM 0.02 32.036 0.084 6.68 3.75 13.96
12/18/2020 12:30:00 AM 0.08 32.144 0.084 6.68 3.8 13.83
12/18/2020 12:45:00 AM 0.02 32.036 0.084 6.68 3.78 13.96
12/18/2020 1:00:00 AM 0.04 32.072 0.084 6.68 3.74 13.92
12/18/2020 1:15:00 AM -0.01 31.982 0.084 6.69 3.72 13.99
12/18/2020 1:30:00 AM 0.02 32.036 0.084 6.68 3.79 13.94
12/18/2020 1:45:00 AM 0.01 32.018 0.084 6.68 3.84 13.96
12/18/2020 2:00:00 AM 0.05 32.09 0.084 6.67 3.82 13.94
12/18/2020 2:15:00 AM 0 32 0.084 6.68 3.82 13.98
12/18/2020 2:30:00 AM 0 32 0.084 6.68 3.84 14
12/18/2020 2:45:00 AM 0.01 32.018 0.084 6.68 3.88 13.97
12/18/2020 3:00:00 AM 0.01 32.018 0.084 6.69 3.83 13.97
12/18/2020 3:15:00 AM 0 32 0.083 6.69 3.83 14
12/18/2020 3:30:00 AM 0 32 0.083 6.69 3.77 13.99
12/18/2020 3:45:00 AM 0 32 0.084 6.7 3.82 13.98
12/18/2020 4:00:00 AM 0.04 32.072 0.084 6.69 3.79 13.95
12/18/2020 4:15:00 AM 0 32 0.083 6.69 3.78 13.99
12/18/2020 4:30:00 AM 0 32 0.083 6.69 3.82 13.99
12/18/2020 4:45:00 AM 0.01 32.018 0.083 6.7 3.75 13.98
12/18/2020 5:00:00 AM 0.01 32.018 0.083 6.7 3.76 13.96
12/18/2020 5:15:00 AM 0 32 0.083 6.7 3.76 13.98
12/18/2020 5:30:00 AM 0.11 32.198 0.084 6.68 3.75 13.83
12/18/2020 5:45:00 AM 0.07 32.126 0.083 6.68 3.77 13.85
12/18/2020 6:00:00 AM 0.12 32.216 0.084 6.69 3.76 13.85
12/18/2020 6:15:00 AM 0.13 32.234 0.084 6.67 3.75 13.84
12/18/2020 6:30:00 AM 0.15 32.27 0.083 6.67 3.76 13.75
12/18/2020 6:45:00 AM 0.11 32.198 0.084 6.67 3.71 13.8
12/18/2020 7:00:00 AM 0.09 32.162 0.084 6.67 3.76 13.84
12/18/2020 7:15:00 AM 0.11 32.198 0.084 6.67 3.76 13.81
12/18/2020 7:30:00 AM 0.07 32.126 0.084 6.68 3.72 13.89
12/18/2020 7:45:00 AM 0.07 32.126 0.084 6.68 3.76 13.89
12/18/2020 8:00:00 AM 0.07 32.126 0.084 6.68 3.74 13.9
12/18/2020 8:15:00 AM 0.04 32.072 0.083 6.69 3.76 13.96
12/18/2020 8:30:00 AM 0.02 32.036 0.083 6.7 3.77 14.02
12/18/2020 8:45:00 AM 0.03 32.054 0.083 6.71 3.73 14.02
12/18/2020 9:00:00 AM 0.03 32.054 0.083 6.71 3.78 14.07
12/18/2020 9:15:00 AM 0.04 32.072 0.084 6.71 3.82 14.09
12/18/2020 9:30:00 AM 0.04 32.072 0.083 6.72 3.79 14.11
12/18/2020 9:45:00 AM 0.04 32.072 0.083 6.72 3.72 14.14
12/18/2020 10:00:00 AM 0.05 32.09 0.083 6.73 3.74 14.13
12/18/2020 10:15:00 AM 0.04 32.072 0.083 6.73 3.73 14.18
12/18/2020 10:30:00 AM 0.04 32.072 0.083 6.74 3.71 14.19
12/18/2020 10:45:00 AM 0.06 32.108 0.083 6.74 3.75 14.18
12/18/2020 11:00:00 AM 0.07 32.126 0.083 6.74 3.7 14.21
12/18/2020 11:15:00 AM 0.06 32.108 0.083 6.74 3.71 14.21
12/18/2020 11:30:00 AM 0.05 32.09 0.083 6.74 3.69 14.26
12/18/2020 11:45:00 AM 0.04 32.072 0.083 6.75 3.69 14.27
12/18/2020 12:00:00 PM 0.1 32.18 0.083 6.76 3.69 14.24
12/18/2020 12:15:00 PM 0.06 32.108 0.083 6.75 3.68 14.26
12/18/2020 12:30:00 PM 0.07 32.126 0.083 6.75 3.69 14.23
12/18/2020 12:45:00 PM 0.07 32.126 0.083 6.75 3.74 14.23
12/18/2020 1:00:00 PM 0.07 32.126 0.083 6.75 3.69 14.22
12/18/2020 1:15:00 PM 0.08 32.144 0.083 6.75 3.74 14.22
12/18/2020 1:30:00 PM 0.07 32.126 0.083 6.75 3.72 14.23
12/18/2020 1:45:00 PM 0.08 32.144 0.083 6.76 3.68 14.19
12/18/2020 2:00:00 PM 0.05 32.09 0.083 6.76 3.71 14.23
12/18/2020 2:15:00 PM 0.06 32.108 0.083 6.77 3.66 14.24
12/18/2020 2:30:00 PM 0.06 32.108 0.083 6.76 3.71 14.23
12/18/2020 2:45:00 PM 0.1 32.18 0.083 6.77 3.61 14.2
12/18/2020 3:00:00 PM 0.07 32.126 0.083 6.77 3.65 14.23
12/18/2020 3:15:00 PM 0.06 32.108 0.083 6.77 3.61 14.24
12/18/2020 3:30:00 PM 0.05 32.09 0.083 6.77 3.59 14.24
12/18/2020 3:45:00 PM 0.07 32.126 0.083 6.77 3.59 14.2
12/18/2020 4:00:00 PM 0.06 32.108 0.083 6.76 3.58 14.21
12/18/2020 4:15:00 PM 0.06 32.108 0.083 6.76 3.61 14.18
12/18/2020 4:30:00 PM 0.09 32.162 0.083 6.75 3.55 14.14
12/18/2020 4:45:00 PM 0.08 32.144 0.083 6.74 3.63 14.12
12/18/2020 5:00:00 PM 0.12 32.216 0.084 6.74 3.58 14.06
12/18/2020 5:15:00 PM 0.09 32.162 0.083 6.73 3.53 14.04
12/18/2020 5:30:00 PM 0.07 32.126 0.083 6.73 3.53 14.05
12/18/2020 5:45:00 PM 0.09 32.162 0.083 6.73 3.5 14.02
12/18/2020 6:00:00 PM 0.1 32.18 0.084 6.72 3.48 13.99
12/18/2020 6:15:00 PM 0.08 32.144 0.083 6.72 3.47 13.99
12/18/2020 6:30:00 PM 0.06 32.108 0.083 6.71 3.44 14.02
12/18/2020 6:45:00 PM 0.06 32.108 0.083 6.72 3.44 14.02
12/18/2020 7:00:00 PM 0.05 32.09 0.083 6.72 3.5 14.04
12/18/2020 7:15:00 PM 0.05 32.09 0.083 6.71 3.46 14.04
12/18/2020 7:30:00 PM 0.06 32.108 0.083 6.71 3.45 14.02
12/18/2020 7:45:00 PM 0.06 32.108 0.084 6.71 3.46 14.01
12/18/2020 8:00:00 PM 0.11 32.198 0.084 6.71 3.47 13.94
12/18/2020 8:15:00 PM 0.07 32.126 0.084 6.7 3.44 14
12/18/2020 8:30:00 PM 0.06 32.108 0.084 6.7 3.42 13.98
12/18/2020 8:45:00 PM 0.07 32.126 0.084 6.7 3.46 14.01
12/18/2020 9:00:00 PM 0.09 32.162 0.084 6.71 3.41 13.97
12/18/2020 9:15:00 PM 0.08 32.144 0.084 6.7 3.41 13.97
12/18/2020 9:30:00 PM 0.08 32.144 0.085 6.7 3.46 13.99
12/18/2020 9:45:00 PM 0.07 32.126 0.084 6.7 3.41 14
12/18/2020 10:00:00 PM 0.07 32.126 0.085 6.7 3.41 14
12/18/2020 10:15:00 PM 0.07 32.126 0.085 6.7 3.44 14.01
12/18/2020 10:30:00 PM 0.06 32.108 0.085 6.7 3.43 14
12/18/2020 10:45:00 PM 0.06 32.108 0.085 6.7 3.43 14.01
12/18/2020 11:00:00 PM 0.05 32.09 0.085 6.7 3.42 14.04
12/18/2020 11:15:00 PM 0.06 32.108 0.085 6.7 3.43 14.03
12/18/2020 11:30:00 PM 0.05 32.09 0.085 6.7 3.38 14.03
12/18/2020 11:45:00 PM 0.05 32.09 0.085 6.7 3.42 14.04
12/19/2020 12:00:00 AM 0.04 32.072 0.085 6.7 3.43 14.04
12/19/2020 12:15:00 AM 0.05 32.09 0.085 6.7 3.42 14.05
12/19/2020 12:30:00 AM 0.06 32.108 0.085 6.7 3.41 14.01
12/19/2020 12:45:00 AM 0.04 32.072 0.085 6.7 3.42 14.04
12/19/2020 1:00:00 AM 0.05 32.09 0.086 6.7 3.38 14.02
12/19/2020 1:15:00 AM 0.04 32.072 0.086 6.69 3.38 14.04
12/19/2020 1:30:00 AM 0.05 32.09 0.086 6.7 3.42 14.03
12/19/2020 1:45:00 AM 0.05 32.09 0.086 6.69 3.38 14.01
12/19/2020 2:00:00 AM 0.08 32.144 0.086 6.68 3.41 13.93
12/19/2020 2:15:00 AM 0.07 32.126 0.086 6.68 3.45 13.97
12/19/2020 2:30:00 AM 0.05 32.09 0.086 6.69 3.39 13.99
12/19/2020 2:45:00 AM 0.05 32.09 0.085 6.68 3.4 13.95
12/19/2020 3:00:00 AM 0.06 32.108 0.086 6.69 3.4 13.94
12/19/2020 3:15:00 AM 0.06 32.108 0.086 6.69 3.41 13.98
12/19/2020 3:30:00 AM 0.07 32.126 0.086 6.69 3.42 13.97
12/19/2020 3:45:00 AM 0.08 32.144 0.086 6.68 3.44 13.95
12/19/2020 4:00:00 AM 0.05 32.09 0.086 6.69 3.44 14.01
12/19/2020 4:15:00 AM 0.07 32.126 0.086 6.68 3.37 13.98
12/19/2020 4:30:00 AM 0.05 32.09 0.086 6.69 3.42 14.02
12/19/2020 4:45:00 AM 0.04 32.072 0.085 6.69 3.4 14.03
12/19/2020 5:00:00 AM 0.04 32.072 0.085 6.69 3.38 14.03
12/19/2020 5:15:00 AM 0.03 32.054 0.085 6.69 3.42 14.05
12/19/2020 5:30:00 AM 0.05 32.09 0.085 6.69 3.4 13.99
12/19/2020 5:45:00 AM 0.04 32.072 0.085 6.69 3.42 14.03
12/19/2020 6:00:00 AM 0.04 32.072 0.085 6.69 3.41 14.03
12/19/2020 6:15:00 AM 0.03 32.054 0.085 6.69 3.37 14.04
12/19/2020 6:30:00 AM 0.03 32.054 0.085 6.69 3.4 14.04
12/19/2020 6:45:00 AM 0.03 32.054 0.085 6.69 3.4 14.04
12/19/2020 7:00:00 AM 0.03 32.054 0.085 6.69 3.44 14.04
12/19/2020 7:15:00 AM 0.03 32.054 0.085 6.69 3.39 14.05
12/19/2020 7:30:00 AM 0.02 32.036 0.085 6.69 3.4 14.06
12/19/2020 7:45:00 AM 0.03 32.054 0.085 6.69 3.42 14.05
12/19/2020 8:00:00 AM 0.03 32.054 0.085 6.69 3.39 14.05
12/19/2020 8:15:00 AM 0.02 32.036 0.085 6.7 3.4 14.1
12/19/2020 8:30:00 AM 0.02 32.036 0.085 6.71 3.4 14.12
12/19/2020 8:45:00 AM 0.03 32.054 0.085 6.71 3.45 14.15
12/19/2020 9:00:00 AM 0.03 32.054 0.085 6.71 3.44 14.17
12/19/2020 9:15:00 AM 0.03 32.054 0.085 6.72 3.39 14.21
12/19/2020 9:30:00 AM 0.04 32.072 0.085 6.73 3.36 14.23
12/19/2020 9:45:00 AM 0.03 32.054 0.085 6.73 3.44 14.26
12/19/2020 10:00:00 AM 0.04 32.072 0.085 6.74 3.4 14.27
12/19/2020 10:15:00 AM 0.04 32.072 0.085 6.74 3.39 14.3
12/19/2020 10:30:00 AM 0.05 32.09 0.085 6.74 3.41 14.3
12/19/2020 10:45:00 AM 0.05 32.09 0.085 6.75 3.41 14.33
12/19/2020 11:00:00 AM 0.06 32.108 0.085 6.75 3.39 14.34
12/19/2020 11:15:00 AM 0.07 32.126 0.085 6.76 3.38 14.34
12/19/2020 11:30:00 AM 0.07 32.126 0.085 6.76 3.36 14.34
12/19/2020 11:45:00 AM 0.08 32.144 0.085 6.75 3.36 14.34
12/19/2020 12:00:00 PM 0.08 32.144 0.085 6.76 3.37 14.32
12/19/2020 12:15:00 PM 0.08 32.144 0.085 6.75 3.35 14.33
12/19/2020 12:30:00 PM 0.08 32.144 0.084 6.75 3.35 14.33
12/19/2020 12:45:00 PM 0.08 32.144 0.084 6.76 3.37 14.33
12/19/2020 1:00:00 PM 0.09 32.162 0.084 6.75 3.38 14.32
12/19/2020 1:15:00 PM 0.09 32.162 0.084 6.75 3.34 14.32
12/19/2020 1:30:00 PM 0.11 32.198 0.084 6.76 3.34 14.31
12/19/2020 1:45:00 PM 0.11 32.198 0.084 6.75 3.39 14.3
12/19/2020 2:00:00 PM 0.1 32.18 0.084 6.75 3.38 14.29
12/19/2020 2:15:00 PM 0.1 32.18 0.084 6.75 3.37 14.29
12/19/2020 2:30:00 PM 0.09 32.162 0.084 6.75 3.35 14.28
12/19/2020 2:45:00 PM 0.1 32.18 0.084 6.75 3.37 14.26
12/19/2020 3:00:00 PM 0.08 32.144 0.084 6.74 3.44 14.27
12/19/2020 3:15:00 PM 0.08 32.144 0.084 6.74 3.24 14.25
12/19/2020 3:30:00 PM 0.08 32.144 0.084 6.73 3.28 14.23
12/19/2020 3:45:00 PM 0.06 32.108 0.084 6.74 3.28 14.24
12/19/2020 4:00:00 PM -99999.99 -179968 -99999.99 -99999.99 -99999.99 -99999.99
12/19/2020 4:15:00 PM -99999.99 -179968 -99999.99 -99999.99 -99999.99 -99999.99
12/19/2020 4:30:00 PM -99999.99 -179968 -99999.99 -99999.99 -99999.99 -99999.99
12/19/2020 4:45:00 PM -99999.99 -179968 -99999.99 -99999.99 -99999.99 -99999.99
12/19/2020 5:00:00 PM -99999.99 -179968 -99999.99 -99999.99 -99999.99 -99999.99
12/19/2020 5:15:00 PM -99999.99 -179968 -99999.99 -99999.99 -99999.99 -99999.99
12/19/2020 5:30:00 PM -99999.99 -179968 -99999.99 -99999.99 -99999.99 -99999.99
12/19/2020 5:45:00 PM -99999.99 -179968 -99999.99 -99999.99 -99999.99 -99999.99
12/19/2020 6:00:00 PM -99999.99 -179968 -99999.99 -99999.99 -99999.99 -99999.99
12/19/2020 6:15:00 PM -99999.99 -179968 -99999.99 -99999.99 -99999.99 -99999.99
12/19/2020 6:30:00 PM -99999.99 -179968 -99999.99 -99999.99 -99999.99 -99999.99
12/19/2020 6:45:00 PM -99999.99 -179968 -99999.99 -99999.99 -99999.99 -99999.99
12/19/2020 7:00:00 PM -99999.99 -179968 -99999.99 -99999.99 -99999.99 -99999.99
12/19/2020 7:15:00 PM -99999.99 -179968 -99999.99 -99999.99 -99999.99 -99999.99
12/19/2020 7:30:00 PM -99999.99 -179968 -99999.99 -99999.99 -99999.99 -99999.99
12/19/2020 7:45:00 PM -99999.99 -179968 -99999.99 -99999.99 -99999.99 -99999.99
12/19/2020 8:00:00 PM -99999.99 -179968 -99999.99 -99999.99 -99999.99 -99999.99
12/19/2020 8:15:00 PM -99999.99 -179968 -99999.99 -99999.99 -99999.99 -99999.99
12/19/2020 8:30:00 PM -99999.99 -179968 -99999.99 -99999.99 -99999.99 -99999.99
12/19/2020 8:45:00 PM -99999.99 -179968 -99999.99 -99999.99 -99999.99 -99999.99
12/19/2020 9:00:00 PM -99999.99 -179968 -99999.99 -99999.99 -99999.99 -99999.99
12/19/2020 9:15:00 PM -99999.99 -179968 -99999.99 -99999.99 -99999.99 -99999.99
12/19/2020 9:30:00 PM -99999.99 -179968 -99999.99 -99999.99 -99999.99 -99999.99
12/19/2020 9:45:00 PM -99999.99 -179968 -99999.99 -99999.99 -99999.99 -99999.99
12/19/2020 10:00:00 PM -99999.99 -179968 -99999.99 -99999.99 -99999.99 -99999.99
12/19/2020 10:15:00 PM -99999.99 -179968 -99999.99 -99999.99 -99999.99 -99999.99
12/19/2020 10:30:00 PM -99999.99 -179968 -99999.99 -99999.99 -99999.99 -99999.99
12/19/2020 10:45:00 PM -99999.99 -179968 -99999.99 -99999.99 -99999.99 -99999.99
12/19/2020 11:00:00 PM -99999.99 -179968 -99999.99 -99999.99 -99999.99 -99999.99
12/19/2020 11:15:00 PM -99999.99 -179968 -99999.99 -99999.99 -99999.99 -99999.99
12/19/2020 11:30:00 PM -99999.99 -179968 -99999.99 -99999.99 -99999.99 -99999.99
12/19/2020 11:45:00 PM -99999.99 -179968 -99999.99 -99999.99 -99999.99 -99999.99
12/20/2020 12:00:00 AM -99999.99 -179968 -99999.99 -99999.99 -99999.99 -99999.99
12/20/2020 12:15:00 AM -99999.99 -179968 -99999.99 -99999.99 -99999.99 -99999.99
12/20/2020 12:30:00 AM -99999.99 -179968 -99999.99 -99999.99 -99999.99 -99999.99
12/20/2020 12:45:00 AM -99999.99 -179968 -99999.99 -99999.99 -99999.99 -99999.99
12/20/2020 1:00:00 AM -99999.99 -179968 -99999.99 -99999.99 -99999.99 -99999.99
12/20/2020 1:15:00 AM -99999.99 -179968 -99999.99 -99999.99 -99999.99 -99999.99
12/20/2020 1:30:00 AM -99999.99 -179968 -99999.99 -99999.99 -99999.99 -99999.99
12/20/2020 1:45:00 AM -99999.99 -179968 -99999.99 -99999.99 -99999.99 -99999.99
12/20/2020 2:00:00 AM -99999.99 -179968 -99999.99 -99999.99 -99999.99 -99999.99
12/20/2020 2:15:00 AM -99999.99 -179968 -99999.99 -99999.99 -99999.99 -99999.99
12/20/2020 2:30:00 AM -99999.99 -179968 -99999.99 -99999.99 -99999.99 -99999.99
12/20/2020 2:45:00 AM -99999.99 -179968 -99999.99 -99999.99 -99999.99 -99999.99
12/20/2020 3:00:00 AM -99999.99 -179968 -99999.99 -99999.99 -99999.99 -99999.99
12/20/2020 3:15:00 AM -99999.99 -179968 -99999.99 -99999.99 -99999.99 -99999.99
12/20/2020 3:30:00 AM -99999.99 -179968 -99999.99 -99999.99 -99999.99 -99999.99
12/20/2020 3:45:00 AM -99999.99 -179968 -99999.99 -99999.99 -99999.99 -99999.99
12/20/2020 4:00:00 AM -99999.99 -179968 -99999.99 -99999.99 -99999.99 -99999.99
12/20/2020 4:15:00 AM -99999.99 -179968 -99999.99 -99999.99 -99999.99 -99999.99
12/20/2020 4:30:00 AM -99999.99 -179968 -99999.99 -99999.99 -99999.99 -99999.99
12/20/2020 4:45:00 AM -99999.99 -179968 -99999.99 -99999.99 -99999.99 -99999.99
12/20/2020 5:00:00 AM -99999.99 -179968 -99999.99 -99999.99 -99999.99 -99999.99
12/20/2020 5:15:00 AM -99999.99 -179968 -99999.99 -99999.99 -99999.99 -99999.99
12/20/2020 5:30:00 AM -99999.99 -179968 -99999.99 -99999.99 -99999.99 -99999.99
12/20/2020 5:45:00 AM -99999.99 -179968 -99999.99 -99999.99 -99999.99 -99999.99
12/20/2020 6:00:00 AM -99999.99 -179968 -99999.99 -99999.99 -99999.99 -99999.99
12/20/2020 6:15:00 AM -99999.99 -179968 -99999.99 -99999.99 -99999.99 -99999.99
12/20/2020 6:30:00 AM -99999.99 -179968 -99999.99 -99999.99 -99999.99 -99999.99
12/20/2020 6:45:00 AM -99999.99 -179968 -99999.99 -99999.99 -99999.99 -99999.99
12/20/2020 7:00:00 AM -99999.99 -179968 -99999.99 -99999.99 -99999.99 -99999.99
12/20/2020 7:15:00 AM -99999.99 -179968 -99999.99 -99999.99 -99999.99 -99999.99
12/20/2020 7:30:00 AM -99999.99 -179968 -99999.99 -99999.99 -99999.99 -99999.99
12/20/2020 7:45:00 AM -99999.99 -179968 -99999.99 -99999.99 -99999.99 -99999.99
12/20/2020 8:00:00 AM -99999.99 -179968 -99999.99 -99999.99 -99999.99 -99999.99
12/20/2020 8:15:00 AM -99999.99 -179968 -99999.99 -99999.99 -99999.99 -99999.99
12/20/2020 8:30:00 AM -99999.99 -179968 -99999.99 -99999.99 -99999.99 -99999.99
12/20/2020 8:45:00 AM -99999.99 -179968 -99999.99 -99999.99 -99999.99 -99999.99
12/20/2020 9:00:00 AM -99999.99 -179968 -99999.99 -99999.99 -99999.99 -99999.99
12/20/2020 9:15:00 AM -99999.99 -179968 -99999.99 -99999.99 -99999.99 -99999.99
12/20/2020 9:30:00 AM -99999.99 -179968 -99999.99 -99999.99 -99999.99 -99999.99
12/20/2020 9:45:00 AM -99999.99 -179968 -99999.99 -99999.99 -99999.99 -99999.99
12/20/2020 10:00:00 AM -99999.99 -179968 -99999.99 -99999.99 -99999.99 -99999.99
12/20/2020 10:15:00 AM -99999.99 -179968 -99999.99 -99999.99 -99999.99 -99999.99
12/20/2020 10:30:00 AM -99999.99 -179968 -99999.99 -99999.99 -99999.99 -99999.99
12/20/2020 10:45:00 AM -99999.99 -179968 -99999.99 -99999.99 -99999.99 -99999.99
12/20/2020 11:00:00 AM -99999.99 -179968 -99999.99 -99999.99 -99999.99 -99999.99
12/20/2020 11:15:00 AM -99999.99 -179968 -99999.99 -99999.99 -99999.99 -99999.99
12/20/2020 11:30:00 AM -99999.99 -179968 -99999.99 -99999.99 -99999.99 -99999.99
12/20/2020 11:45:00 AM -99999.99 -179968 -99999.99 -99999.99 -99999.99 -99999.99
12/20/2020 12:00:00 PM -99999.99 -179968 -99999.99 -99999.99 -99999.99 -99999.99
12/20/2020 12:15:00 PM -99999.99 -179968 -99999.99 -99999.99 -99999.99 -99999.99
12/20/2020 12:30:00 PM -99999.99 -179968 -99999.99 -99999.99 -99999.99 -99999.99
12/20/2020 12:45:00 PM -99999.99 -179968 -99999.99 -99999.99 -99999.99 -99999.99
12/20/2020 1:00:00 PM -99999.99 -179968 -99999.99 -99999.99 -99999.99 -99999.99
12/20/2020 1:15:00 PM -99999.99 -179968 -99999.99 -99999.99 -99999.99 -99999.99
12/20/2020 1:30:00 PM -99999.99 -179968 -99999.99 -99999.99 -99999.99 -99999.99
12/20/2020 1:45:00 PM -99999.99 -179968 -99999.99 -99999.99 -99999.99 -99999.99
12/20/2020 2:00:00 PM -99999.99 -179968 -99999.99 -99999.99 -99999.99 -99999.99
12/20/2020 2:15:00 PM -99999.99 -179968 -99999.99 -99999.99 -99999.99 -99999.99
12/20/2020 2:30:00 PM -99999.99 -179968 -99999.99 -99999.99 -99999.99 -99999.99
12/20/2020 2:45:00 PM -99999.99 -179968 -99999.99 -99999.99 -99999.99 -99999.99
12/20/2020 3:00:00 PM -99999.99 -179968 -99999.99 -99999.99 -99999.99 -99999.99
12/20/2020 3:15:00 PM -99999.99 -179968 -99999.99 -99999.99 -99999.99 -99999.99
12/20/2020 3:30:00 PM -99999.99 -179968 -99999.99 -99999.99 -99999.99 -99999.99
12/20/2020 3:45:00 PM -99999.99 -179968 -99999.99 -99999.99 -99999.99 -99999.99
12/20/2020 4:00:00 PM -99999.99 -179968 -99999.99 -99999.99 -99999.99 -99999.99
12/20/2020 4:15:00 PM -99999.99 -179968 -99999.99 -99999.99 -99999.99 -99999.99
12/20/2020 4:30:00 PM -99999.99 -179968 -99999.99 -99999.99 -99999.99 -99999.99
12/20/2020 4:45:00 PM -99999.99 -179968 -99999.99 -99999.99 -99999.99 -99999.99
12/20/2020 5:00:00 PM -99999.99 -179968 -99999.99 -99999.99 -99999.99 -99999.99
12/20/2020 5:15:00 PM -99999.99 -179968 -99999.99 -99999.99 -99999.99 -99999.99
12/20/2020 5:30:00 PM -99999.99 -179968 -99999.99 -99999.99 -99999.99 -99999.99
12/20/2020 5:45:00 PM -99999.99 -179968 -99999.99 -99999.99 -99999.99 -99999.99
12/20/2020 6:00:00 PM -99999.99 -179968 -99999.99 -99999.99 -99999.99 -99999.99
12/20/2020 6:15:00 PM -99999.99 -179968 -99999.99 -99999.99 -99999.99 -99999.99
12/20/2020 6:30:00 PM -99999.99 -179968 -99999.99 -99999.99 -99999.99 -99999.99
12/20/2020 6:45:00 PM -99999.99 -179968 -99999.99 -99999.99 -99999.99 -99999.99
12/20/2020 7:00:00 PM -99999.99 -179968 -99999.99 -99999.99 -99999.99 -99999.99
12/20/2020 7:15:00 PM -99999.99 -179968 -99999.99 -99999.99 -99999.99 -99999.99
12/20/2020 7:30:00 PM -99999.99 -179968 -99999.99 -99999.99 -99999.99 -99999.99
12/20/2020 7:45:00 PM -99999.99 -179968 -99999.99 -99999.99 -99999.99 -99999.99
12/20/2020 8:00:00 PM -99999.99 -179968 -99999.99 -99999.99 -99999.99 -99999.99
12/20/2020 8:15:00 PM -99999.99 -179968 -99999.99 -99999.99 -99999.99 -99999.99
12/20/2020 8:30:00 PM -99999.99 -179968 -99999.99 -99999.99 -99999.99 -99999.99
12/20/2020 8:45:00 PM -99999.99 -179968 -99999.99 -99999.99 -99999.99 -99999.99
12/20/2020 9:00:00 PM -99999.99 -179968 -99999.99 -99999.99 -99999.99 -99999.99
12/20/2020 9:15:00 PM -99999.99 -179968 -99999.99 -99999.99 -99999.99 -99999.99
12/20/2020 9:30:00 PM -99999.99 -179968 -99999.99 -99999.99 -99999.99 -99999.99
12/20/2020 9:45:00 PM -99999.99 -179968 -99999.99 -99999.99 -99999.99 -99999.99
12/20/2020 10:00:00 PM -99999.99 -179968 -99999.99 -99999.99 -99999.99 -99999.99
12/20/2020 10:15:00 PM -99999.99 -179968 -99999.99 -99999.99 -99999.99 -99999.99
12/20/2020 10:30:00 PM -99999.99 -179968 -99999.99 -99999.99 -99999.99 -99999.99
12/20/2020 10:45:00 PM -99999.99 -179968 -99999.99 -99999.99 -99999.99 -99999.99
12/20/2020 11:00:00 PM -99999.99 -179968 -99999.99 -99999.99 -99999.99 -99999.99
12/20/2020 11:15:00 PM -99999.99 -179968 -99999.99 -99999.99 -99999.99 -99999.99
12/20/2020 11:30:00 PM -99999.99 -179968 -99999.99 -99999.99 -99999.99 -99999.99
12/20/2020 11:45:00 PM -99999.99 -179968 -99999.99 -99999.99 -99999.99 -99999.99
12/21/2020 12:00:00 AM -99999.99 -179968 -99999.99 -99999.99 -99999.99 -99999.99
12/21/2020 12:15:00 AM -99999.99 -179968 -99999.99 -99999.99 -99999.99 -99999.99
12/21/2020 12:30:00 AM -99999.99 -179968 -99999.99 -99999.99 -99999.99 -99999.99
12/21/2020 12:45:00 AM -99999.99 -179968 -99999.99 -99999.99 -99999.99 -99999.99
12/21/2020 1:00:00 AM -99999.99 -179968 -99999.99 -99999.99 -99999.99 -99999.99
12/21/2020 1:15:00 AM -99999.99 -179968 -99999.99 -99999.99 -99999.99 -99999.99
12/21/2020 1:30:00 AM -99999.99 -179968 -99999.99 -99999.99 -99999.99 -99999.99
12/21/2020 1:45:00 AM -99999.99 -179968 -99999.99 -99999.99 -99999.99 -99999.99
12/21/2020 2:00:00 AM -99999.99 -179968 -99999.99 -99999.99 -99999.99 -99999.99
12/21/2020 2:15:00 AM -99999.99 -179968 -99999.99 -99999.99 -99999.99 -99999.99
12/21/2020 2:30:00 AM -99999.99 -179968 -99999.99 -99999.99 -99999.99 -99999.99
12/21/2020 2:45:00 AM -99999.99 -179968 -99999.99 -99999.99 -99999.99 -99999.99
12/21/2020 3:00:00 AM -99999.99 -179968 -99999.99 -99999.99 -99999.99 -99999.99
12/21/2020 3:15:00 AM -99999.99 -179968 -99999.99 -99999.99 -99999.99 -99999.99
12/21/2020 3:30:00 AM -99999.99 -179968 -99999.99 -99999.99 -99999.99 -99999.99
12/21/2020 3:45:00 AM -99999.99 -179968 -99999.99 -99999.99 -99999.99 -99999.99
12/21/2020 4:00:00 AM -99999.99 -179968 -99999.99 -99999.99 -99999.99 -99999.99
12/21/2020 4:15:00 AM -99999.99 -179968 -99999.99 -99999.99 -99999.99 -99999.99
12/21/2020 4:30:00 AM -99999.99 -179968 -99999.99 -99999.99 -99999.99 -99999.99
12/21/2020 4:45:00 AM -99999.99 -179968 -99999.99 -99999.99 -99999.99 -99999.99
12/21/2020 5:00:00 AM -99999.99 -179968 -99999.99 -99999.99 -99999.99 -99999.99
12/21/2020 5:15:00 AM -99999.99 -179968 -99999.99 -99999.99 -99999.99 -99999.99
12/21/2020 5:30:00 AM -99999.99 -179968 -99999.99 -99999.99 -99999.99 -99999.99
12/21/2020 5:45:00 AM -99999.99 -179968 -99999.99 -99999.99 -99999.99 -99999.99
12/21/2020 6:00:00 AM -99999.99 -179968 -99999.99 -99999.99 -99999.99 -99999.99
12/21/2020 6:15:00 AM -99999.99 -179968 -99999.99 -99999.99 -99999.99 -99999.99
12/21/2020 6:30:00 AM -99999.99 -179968 -99999.99 -99999.99 -99999.99 -99999.99
12/21/2020 6:45:00 AM -99999.99 -179968 -99999.99 -99999.99 -99999.99 -99999.99
12/21/2020 7:00:00 AM -99999.99 -179968 -99999.99 -99999.99 -99999.99 -99999.99
12/21/2020 7:15:00 AM -99999.99 -179968 -99999.99 -99999.99 -99999.99 -99999.99
12/21/2020 7:30:00 AM -99999.99 -179968 -99999.99 -99999.99 -99999.99 -99999.99
12/21/2020 7:45:00 AM -99999.99 -179968 -99999.99 -99999.99 -99999.99 -99999.99
12/21/2020 8:00:00 AM -99999.99 -179968 -99999.99 -99999.99 -99999.99 -99999.99
12/21/2020 8:15:00 AM -99999.99 -179968 -99999.99 -99999.99 -99999.99 -99999.99
12/21/2020 8:30:00 AM -99999.99 -179968 -99999.99 -99999.99 -99999.99 -99999.99
12/21/2020 8:45:00 AM -99999.99 -179968 -99999.99 -99999.99 -99999.99 -99999.99
12/21/2020 9:00:00 AM -99999.99 -179968 -99999.99 -99999.99 -99999.99 -99999.99
12/21/2020 9:15:00 AM -99999.99 -179968 -99999.99 -99999.99 -99999.99 -99999.99
12/21/2020 9:30:00 AM -99999.99 -179968 -99999.99 -99999.99 -99999.99 -99999.99
12/21/2020 9:45:00 AM -99999.99 -179968 -99999.99 -99999.99 -99999.99 -99999.99
12/21/2020 10:00:00 AM -99999.99 -179968 -99999.99 -99999.99 -99999.99 -99999.99
12/21/2020 10:15:00 AM -99999.99 -179968 -99999.99 -99999.99 -99999.99 -99999.99
12/21/2020 10:30:00 AM -99999.99 -179968 -99999.99 -99999.99 -99999.99 -99999.99
12/21/2020 10:45:00 AM -99999.99 -179968 -99999.99 -99999.99 -99999.99 -99999.99
12/21/2020 11:00:00 AM -99999.99 -179968 -99999.99 -99999.99 -99999.99 -99999.99
12/21/2020 11:15:00 AM -99999.99 -179968 -99999.99 -99999.99 -99999.99 -99999.99
12/21/2020 11:30:00 AM -99999.99 -179968 -99999.99 -99999.99 -99999.99 -99999.99
12/21/2020 11:45:00 AM -99999.99 -179968 -99999.99 -99999.99 -99999.99 -99999.99
12/21/2020 12:00:00 PM -99999.99 -179968 -99999.99 -99999.99 -99999.99 -99999.99
12/21/2020 12:15:00 PM -99999.99 -179968 -99999.99 -99999.99 -99999.99 -99999.99
12/21/2020 12:30:00 PM -99999.99 -179968 -99999.99 -99999.99 -99999.99 -99999.99
12/21/2020 12:45:00 PM -99999.99 -179968 -99999.99 -99999.99 -99999.99 -99999.99
12/21/2020 1:00:00 PM -99999.99 -179968 -99999.99 -99999.99 -99999.99 -99999.99
12/21/2020 1:15:00 PM -99999.99 -179968 -99999.99 -99999.99 -99999.99 -99999.99
12/21/2020 1:30:00 PM -99999.99 -179968 -99999.99 -99999.99 -99999.99 -99999.99
12/21/2020 1:45:00 PM -99999.99 -179968 -99999.99 -99999.99 -99999.99 -99999.99
12/21/2020 2:00:00 PM -99999.99 -179968 -99999.99 -99999.99 -99999.99 -99999.99
12/21/2020 2:15:00 PM -99999.99 -179968 -99999.99 -99999.99 -99999.99 -99999.99
12/21/2020 2:30:00 PM -99999.99 -179968 -99999.99 -99999.99 -99999.99 -99999.99
12/21/2020 2:45:00 PM -99999.99 -179968 -99999.99 -99999.99 -99999.99 -99999.99
12/21/2020 3:00:00 PM -99999.99 -179968 -99999.99 -99999.99 -99999.99 -99999.99
12/21/2020 3:15:00 PM -99999.99 -179968 -99999.99 -99999.99 -99999.99 -99999.99
12/21/2020 3:30:00 PM -99999.99 -179968 -99999.99 -99999.99 -99999.99 -99999.99
12/21/2020 3:45:00 PM -99999.99 -179968 -99999.99 -99999.99 -99999.99 -99999.99
12/21/2020 4:00:00 PM -99999.99 -179968 -99999.99 -99999.99 -99999.99 -99999.99
12/21/2020 4:15:00 PM -99999.99 -179968 -99999.99 -99999.99 -99999.99 -99999.99
12/21/2020 4:30:00 PM -99999.99 -179968 -99999.99 -99999.99 -99999.99 -99999.99
12/21/2020 4:45:00 PM -99999.99 -179968 -99999.99 -99999.99 -99999.99 -99999.99
12/21/2020 5:00:00 PM -99999.99 -179968 -99999.99 -99999.99 -99999.99 -99999.99
12/21/2020 5:15:00 PM -99999.99 -179968 -99999.99 -99999.99 -99999.99 -99999.99
12/21/2020 5:30:00 PM -99999.99 -179968 -99999.99 -99999.99 -99999.99 -99999.99
12/21/2020 5:45:00 PM -99999.99 -179968 -99999.99 -99999.99 -99999.99 -99999.99
12/21/2020 6:00:00 PM -99999.99 -179968 -99999.99 -99999.99 -99999.99 -99999.99
12/21/2020 6:15:00 PM -99999.99 -179968 -99999.99 -99999.99 -99999.99 -99999.99
12/21/2020 6:30:00 PM -99999.99 -179968 -99999.99 -99999.99 -99999.99 -99999.99
12/21/2020 6:45:00 PM -99999.99 -179968 -99999.99 -99999.99 -99999.99 -99999.99
12/21/2020 7:00:00 PM -99999.99 -179968 -99999.99 -99999.99 -99999.99 -99999.99
12/21/2020 7:15:00 PM -99999.99 -179968 -99999.99 -99999.99 -99999.99 -99999.99
12/21/2020 7:30:00 PM -99999.99 -179968 -99999.99 -99999.99 -99999.99 -99999.99
12/21/2020 7:45:00 PM -99999.99 -179968 -99999.99 -99999.99 -99999.99 -99999.99
12/21/2020 8:00:00 PM -99999.99 -179968 -99999.99 -99999.99 -99999.99 -99999.99
12/21/2020 8:15:00 PM -99999.99 -179968 -99999.99 -99999.99 -99999.99 -99999.99
12/21/2020 8:30:00 PM -99999.99 -179968 -99999.99 -99999.99 -99999.99 -99999.99
12/21/2020 8:45:00 PM -99999.99 -179968 -99999.99 -99999.99 -99999.99 -99999.99
12/21/2020 9:00:00 PM -99999.99 -179968 -99999.99 -99999.99 -99999.99 -99999.99
12/21/2020 9:15:00 PM -99999.99 -179968 -99999.99 -99999.99 -99999.99 -99999.99
12/21/2020 9:30:00 PM -99999.99 -179968 -99999.99 -99999.99 -99999.99 -99999.99
12/21/2020 9:45:00 PM -99999.99 -179968 -99999.99 -99999.99 -99999.99 -99999.99
12/21/2020 10:00:00 PM -99999.99 -179968 -99999.99 -99999.99 -99999.99 -99999.99
12/21/2020 10:15:00 PM -99999.99 -179968 -99999.99 -99999.99 -99999.99 -99999.99
12/21/2020 10:30:00 PM -99999.99 -179968 -99999.99 -99999.99 -99999.99 -99999.99
12/21/2020 10:45:00 PM -99999.99 -179968 -99999.99 -99999.99 -99999.99 -99999.99
12/21/2020 11:00:00 PM -99999.99 -179968 -99999.99 -99999.99 -99999.99 -99999.99
12/21/2020 11:15:00 PM -99999.99 -179968 -99999.99 -99999.99 -99999.99 -99999.99
12/21/2020 11:30:00 PM -99999.99 -179968 -99999.99 -99999.99 -99999.99 -99999.99
12/21/2020 11:45:00 PM -99999.99 -179968 -99999.99 -99999.99 -99999.99 -99999.99
12/22/2020 12:00:00 AM -99999.99 -179968 -99999.99 -99999.99 -99999.99 -99999.99
12/22/2020 12:15:00 AM -99999.99 -179968 -99999.99 -99999.99 -99999.99 -99999.99
12/22/2020 12:30:00 AM -99999.99 -179968 -99999.99 -99999.99 -99999.99 -99999.99
12/22/2020 12:45:00 AM -99999.99 -179968 -99999.99 -99999.99 -99999.99 -99999.99
12/22/2020 1:00:00 AM -99999.99 -179968 -99999.99 -99999.99 -99999.99 -99999.99
12/22/2020 1:15:00 AM -99999.99 -179968 -99999.99 -99999.99 -99999.99 -99999.99
12/22/2020 1:30:00 AM -99999.99 -179968 -99999.99 -99999.99 -99999.99 -99999.99
12/22/2020 1:45:00 AM -99999.99 -179968 -99999.99 -99999.99 -99999.99 -99999.99
12/22/2020 2:00:00 AM -99999.99 -179968 -99999.99 -99999.99 -99999.99 -99999.99
12/22/2020 2:15:00 AM -99999.99 -179968 -99999.99 -99999.99 -99999.99 -99999.99
12/22/2020 2:30:00 AM -99999.99 -179968 -99999.99 -99999.99 -99999.99 -99999.99
12/22/2020 2:45:00 AM -99999.99 -179968 -99999.99 -99999.99 -99999.99 -99999.99
12/22/2020 3:00:00 AM -99999.99 -179968 -99999.99 -99999.99 -99999.99 -99999.99
12/22/2020 3:15:00 AM -99999.99 -179968 -99999.99 -99999.99 -99999.99 -99999.99
12/22/2020 3:30:00 AM -99999.99 -179968 -99999.99 -99999.99 -99999.99 -99999.99
12/22/2020 3:45:00 AM -99999.99 -179968 -99999.99 -99999.99 -99999.99 -99999.99
12/22/2020 4:00:00 AM -99999.99 -179968 -99999.99 -99999.99 -99999.99 -99999.99
12/22/2020 4:15:00 AM -99999.99 -179968 -99999.99 -99999.99 -99999.99 -99999.99
12/22/2020 4:30:00 AM -99999.99 -179968 -99999.99 -99999.99 -99999.99 -99999.99
12/22/2020 4:45:00 AM -99999.99 -179968 -99999.99 -99999.99 -99999.99 -99999.99
12/22/2020 5:00:00 AM -99999.99 -179968 -99999.99 -99999.99 -99999.99 -99999.99
12/22/2020 5:15:00 AM -99999.99 -179968 -99999.99 -99999.99 -99999.99 -99999.99
12/22/2020 5:30:00 AM -99999.99 -179968 -99999.99 -99999.99 -99999.99 -99999.99
12/22/2020 5:45:00 AM -99999.99 -179968 -99999.99 -99999.99 -99999.99 -99999.99
12/22/2020 6:00:00 AM -99999.99 -179968 -99999.99 -99999.99 -99999.99 -99999.99
12/22/2020 6:15:00 AM -99999.99 -179968 -99999.99 -99999.99 -99999.99 -99999.99
12/22/2020 6:30:00 AM -99999.99 -179968 -99999.99 -99999.99 -99999.99 -99999.99
12/22/2020 6:45:00 AM -99999.99 -179968 -99999.99 -99999.99 -99999.99 -99999.99
12/22/2020 7:00:00 AM -99999.99 -179968 -99999.99 -99999.99 -99999.99 -99999.99
12/22/2020 7:15:00 AM -99999.99 -179968 -99999.99 -99999.99 -99999.99 -99999.99
12/22/2020 7:30:00 AM -99999.99 -179968 -99999.99 -99999.99 -99999.99 -99999.99
12/22/2020 7:45:00 AM -99999.99 -179968 -99999.99 -99999.99 -99999.99 -99999.99
12/22/2020 8:00:00 AM -99999.99 -179968 -99999.99 -99999.99 -99999.99 -99999.99
12/22/2020 8:15:00 AM -99999.99 -179968 -99999.99 -99999.99 -99999.99 -99999.99
12/22/2020 8:30:00 AM -99999.99 -179968 -99999.99 -99999.99 -99999.99 -99999.99
12/22/2020 8:45:00 AM -99999.99 -179968 -99999.99 -99999.99 -99999.99 -99999.99
12/22/2020 9:00:00 AM -99999.99 -179968 -99999.99 -99999.99 -99999.99 -99999.99
12/22/2020 9:15:00 AM -99999.99 -179968 -99999.99 -99999.99 -99999.99 -99999.99
12/22/2020 9:30:00 AM -99999.99 -179968 -99999.99 -99999.99 -99999.99 -99999.99
12/22/2020 9:45:00 AM -99999.99 -179968 -99999.99 -99999.99 -99999.99 -99999.99
12/22/2020 10:00:00 AM -99999.99 -179968 -99999.99 -99999.99 -99999.99 -99999.99
12/22/2020 10:15:00 AM -99999.99 -179968 -99999.99 -99999.99 -99999.99 -99999.99
12/22/2020 10:30:00 AM -99999.99 -179968 -99999.99 -99999.99 -99999.99 -99999.99
12/22/2020 10:45:00 AM -99999.99 -179968 -99999.99 -99999.99 -99999.99 -99999.99
12/22/2020 11:00:00 AM -99999.99 -179968 -99999.99 -99999.99 -99999.99 -99999.99
12/22/2020 11:15:00 AM -99999.99 -179968 -99999.99 -99999.99 -99999.99 -99999.99
12/22/2020 11:30:00 AM -99999.99 -179968 -99999.99 -99999.99 -99999.99 -99999.99
12/22/2020 11:45:00 AM -99999.99 -179968 -99999.99 -99999.99 -99999.99 -99999.99
12/22/2020 12:00:00 PM -99999.99 -179968 -99999.99 -99999.99 -99999.99 -99999.99
12/22/2020 12:15:00 PM -99999.99 -179968 -99999.99 -99999.99 -99999.99 -99999.99
12/22/2020 12:30:00 PM -99999.99 -179968 -99999.99 -99999.99 -99999.99 -99999.99
12/22/2020 12:45:00 PM -99999.99 -179968 -99999.99 -99999.99 -99999.99 -99999.99
12/22/2020 1:00:00 PM -99999.99 -179968 -99999.99 -99999.99 -99999.99 -99999.99
12/22/2020 1:15:00 PM -99999.99 -179968 -99999.99 -99999.99 -99999.99 -99999.99
12/22/2020 1:30:00 PM -99999.99 -179968 -99999.99 -99999.99 -99999.99 -99999.99
12/22/2020 1:45:00 PM -99999.99 -179968 -99999.99 -99999.99 -99999.99 -99999.99
12/22/2020 2:00:00 PM -99999.99 -179968 -99999.99 -99999.99 -99999.99 -99999.99
12/22/2020 2:15:00 PM -99999.99 -179968 -99999.99 -99999.99 -99999.99 -99999.99
12/22/2020 2:30:00 PM -99999.99 -179968 -99999.99 -99999.99 -99999.99 -99999.99
12/22/2020 2:45:00 PM -99999.99 -179968 -99999.99 -99999.99 -99999.99 -99999.99
12/22/2020 3:00:00 PM -99999.99 -179968 -99999.99 -99999.99 -99999.99 -99999.99
12/22/2020 3:15:00 PM -99999.99 -179968 -99999.99 -99999.99 -99999.99 -99999.99
12/22/2020 3:30:00 PM -99999.99 -179968 -99999.99 -99999.99 -99999.99 -99999.99
12/22/2020 3:45:00 PM -99999.99 -179968 -99999.99 -99999.99 -99999.99 -99999.99
12/22/2020 4:00:00 PM -99999.99 -179968 -99999.99 -99999.99 -99999.99 -99999.99
12/22/2020 4:15:00 PM -99999.99 -179968 -99999.99 -99999.99 -99999.99 -99999.99
12/22/2020 4:30:00 PM -99999.99 -179968 -99999.99 -99999.99 -99999.99 -99999.99
12/22/2020 4:45:00 PM -99999.99 -179968 -99999.99 -99999.99 -99999.99 -99999.99
12/22/2020 5:00:00 PM -99999.99 -179968 -99999.99 -99999.99 -99999.99 -99999.99
12/22/2020 5:15:00 PM -99999.99 -179968 -99999.99 -99999.99 -99999.99 -99999.99
12/22/2020 5:30:00 PM -99999.99 -179968 -99999.99 -99999.99 -99999.99 -99999.99
12/22/2020 5:45:00 PM -99999.99 -179968 -99999.99 -99999.99 -99999.99 -99999.99
12/22/2020 6:00:00 PM -99999.99 -179968 -99999.99 -99999.99 -99999.99 -99999.99
12/22/2020 6:15:00 PM -99999.99 -179968 -99999.99 -99999.99 -99999.99 -99999.99
12/22/2020 6:30:00 PM -99999.99 -179968 -99999.99 -99999.99 -99999.99 -99999.99
12/22/2020 6:45:00 PM -99999.99 -179968 -99999.99 -99999.99 -99999.99 -99999.99
12/22/2020 7:00:00 PM -99999.99 -179968 -99999.99 -99999.99 -99999.99 -99999.99
12/22/2020 7:15:00 PM -99999.99 -179968 -99999.99 -99999.99 -99999.99 -99999.99
12/22/2020 7:30:00 PM -99999.99 -179968 -99999.99 -99999.99 -99999.99 -99999.99
12/22/2020 7:45:00 PM -99999.99 -179968 -99999.99 -99999.99 -99999.99 -99999.99
12/22/2020 8:00:00 PM -99999.99 -179968 -99999.99 -99999.99 -99999.99 -99999.99
12/22/2020 8:15:00 PM -99999.99 -179968 -99999.99 -99999.99 -99999.99 -99999.99
12/22/2020 8:30:00 PM -99999.99 -179968 -99999.99 -99999.99 -99999.99 -99999.99
12/22/2020 8:45:00 PM -99999.99 -179968 -99999.99 -99999.99 -99999.99 -99999.99
12/22/2020 9:00:00 PM -99999.99 -179968 -99999.99 -99999.99 -99999.99 -99999.99
12/22/2020 9:15:00 PM -99999.99 -179968 -99999.99 -99999.99 -99999.99 -99999.99
12/22/2020 9:30:00 PM -99999.99 -179968 -99999.99 -99999.99 -99999.99 -99999.99
12/22/2020 9:45:00 PM -99999.99 -179968 -99999.99 -99999.99 -99999.99 -99999.99
12/22/2020 10:00:00 PM -99999.99 -179968 -99999.99 -99999.99 -99999.99 -99999.99
12/22/2020 10:15:00 PM -99999.99 -179968 -99999.99 -99999.99 -99999.99 -99999.99
12/22/2020 10:30:00 PM -99999.99 -179968 -99999.99 -99999.99 -99999.99 -99999.99
12/22/2020 10:45:00 PM -99999.99 -179968 -99999.99 -99999.99 -99999.99 -99999.99
12/22/2020 11:00:00 PM -99999.99 -179968 -99999.99 -99999.99 -99999.99 -99999.99
12/22/2020 11:15:00 PM -99999.99 -179968 -99999.99 -99999.99 -99999.99 -99999.99
12/22/2020 11:30:00 PM -99999.99 -179968 -99999.99 -99999.99 -99999.99 -99999.99
12/22/2020 11:45:00 PM -99999.99 -179968 -99999.99 -99999.99 -99999.99 -99999.99
12/23/2020 12:00:00 AM -99999.99 -179968 -99999.99 -99999.99 -99999.99 -99999.99
12/23/2020 12:15:00 AM -99999.99 -179968 -99999.99 -99999.99 -99999.99 -99999.99
12/23/2020 12:30:00 AM -99999.99 -179968 -99999.99 -99999.99 -99999.99 -99999.99
12/23/2020 12:45:00 AM -99999.99 -179968 -99999.99 -99999.99 -99999.99 -99999.99
12/23/2020 1:00:00 AM -99999.99 -179968 -99999.99 -99999.99 -99999.99 -99999.99
12/23/2020 1:15:00 AM -99999.99 -179968 -99999.99 -99999.99 -99999.99 -99999.99
12/23/2020 1:30:00 AM -99999.99 -179968 -99999.99 -99999.99 -99999.99 -99999.99
12/23/2020 1:45:00 AM -99999.99 -179968 -99999.99 -99999.99 -99999.99 -99999.99
12/23/2020 2:00:00 AM -99999.99 -179968 -99999.99 -99999.99 -99999.99 -99999.99
12/23/2020 2:15:00 AM -99999.99 -179968 -99999.99 -99999.99 -99999.99 -99999.99
12/23/2020 2:30:00 AM -99999.99 -179968 -99999.99 -99999.99 -99999.99 -99999.99
12/23/2020 2:45:00 AM -99999.99 -179968 -99999.99 -99999.99 -99999.99 -99999.99
12/23/2020 3:00:00 AM -99999.99 -179968 -99999.99 -99999.99 -99999.99 -99999.99
12/23/2020 3:15:00 AM -99999.99 -179968 -99999.99 -99999.99 -99999.99 -99999.99
12/23/2020 3:30:00 AM -99999.99 -179968 -99999.99 -99999.99 -99999.99 -99999.99
12/23/2020 3:45:00 AM -99999.99 -179968 -99999.99 -99999.99 -99999.99 -99999.99
12/23/2020 4:00:00 AM -99999.99 -179968 -99999.99 -99999.99 -99999.99 -99999.99
12/23/2020 4:15:00 AM -99999.99 -179968 -99999.99 -99999.99 -99999.99 -99999.99
12/23/2020 4:30:00 AM -99999.99 -179968 -99999.99 -99999.99 -99999.99 -99999.99
12/23/2020 4:45:00 AM -99999.99 -179968 -99999.99 -99999.99 -99999.99 -99999.99
12/23/2020 5:00:00 AM -99999.99 -179968 -99999.99 -99999.99 -99999.99 -99999.99
12/23/2020 5:15:00 AM -99999.99 -179968 -99999.99 -99999.99 -99999.99 -99999.99
12/23/2020 5:30:00 AM -99999.99 -179968 -99999.99 -99999.99 -99999.99 -99999.99
12/23/2020 5:45:00 AM -99999.99 -179968 -99999.99 -99999.99 -99999.99 -99999.99
12/23/2020 6:00:00 AM -99999.99 -179968 -99999.99 -99999.99 -99999.99 -99999.99
12/23/2020 6:15:00 AM -99999.99 -179968 -99999.99 -99999.99 -99999.99 -99999.99
12/23/2020 6:30:00 AM -99999.99 -179968 -99999.99 -99999.99 -99999.99 -99999.99
12/23/2020 6:45:00 AM -99999.99 -179968 -99999.99 -99999.99 -99999.99 -99999.99
12/23/2020 7:00:00 AM -99999.99 -179968 -99999.99 -99999.99 -99999.99 -99999.99
12/23/2020 7:15:00 AM -99999.99 -179968 -99999.99 -99999.99 -99999.99 -99999.99
12/23/2020 7:30:00 AM -99999.99 -179968 -99999.99 -99999.99 -99999.99 -99999.99
12/23/2020 7:45:00 AM -99999.99 -179968 -99999.99 -99999.99 -99999.99 -99999.99
12/23/2020 8:00:00 AM -99999.99 -179968 -99999.99 -99999.99 -99999.99 -99999.99
12/23/2020 8:15:00 AM -99999.99 -179968 -99999.99 -99999.99 -99999.99 -99999.99
12/23/2020 8:30:00 AM -99999.99 -179968 -99999.99 -99999.99 -99999.99 -99999.99
12/23/2020 8:45:00 AM -99999.99 -179968 -99999.99 -99999.99 -99999.99 -99999.99
12/23/2020 9:00:00 AM -99999.99 -179968 -99999.99 -99999.99 -99999.99 -99999.99
12/23/2020 9:15:00 AM -99999.99 -179968 -99999.99 -99999.99 -99999.99 -99999.99
12/23/2020 9:30:00 AM -99999.99 -179968 -99999.99 -99999.99 -99999.99 -99999.99
12/23/2020 9:45:00 AM -99999.99 -179968 -99999.99 -99999.99 -99999.99 -99999.99
12/23/2020 10:00:00 AM -99999.99 -179968 -99999.99 -99999.99 -99999.99 -99999.99
12/23/2020 10:15:00 AM -99999.99 -179968 -99999.99 -99999.99 -99999.99 -99999.99
12/23/2020 10:30:00 AM -99999.99 -179968 -99999.99 -99999.99 -99999.99 -99999.99
12/23/2020 10:45:00 AM -99999.99 -179968 -99999.99 -99999.99 -99999.99 -99999.99
12/23/2020 11:00:00 AM -99999.99 -179968 -99999.99 -99999.99 -99999.99 -99999.99
12/23/2020 11:15:00 AM -99999.99 -179968 -99999.99 -99999.99 -99999.99 -99999.99
12/23/2020 11:30:00 AM -99999.99 -179968 -99999.99 -99999.99 -99999.99 -99999.99
12/23/2020 11:45:00 AM -99999.99 -179968 -99999.99 -99999.99 -99999.99 -99999.99
12/23/2020 12:00:00 PM -99999.99 -179968 -99999.99 -99999.99 -99999.99 -99999.99
12/23/2020 12:15:00 PM -99999.99 -179968 -99999.99 -99999.99 -99999.99 -99999.99
12/23/2020 12:30:00 PM -99999.99 -179968 -99999.99 -99999.99 -99999.99 -99999.99
12/23/2020 12:45:00 PM -99999.99 -179968 -99999.99 -99999.99 -99999.99 -99999.99
12/23/2020 1:00:00 PM -99999.99 -179968 -99999.99 -99999.99 -99999.99 -99999.99
12/23/2020 1:15:00 PM -99999.99 -179968 -99999.99 -99999.99 -99999.99 -99999.99
12/23/2020 1:30:00 PM -99999.99 -179968 -99999.99 -99999.99 -99999.99 -99999.99
12/23/2020 1:45:00 PM -99999.99 -179968 -99999.99 -99999.99 -99999.99 -99999.99
12/23/2020 2:00:00 PM -99999.99 -179968 -99999.99 -99999.99 -99999.99 -99999.99
12/23/2020 2:15:00 PM -99999.99 -179968 -99999.99 -99999.99 -99999.99 -99999.99
12/23/2020 2:30:00 PM -99999.99 -179968 -99999.99 -99999.99 -99999.99 -99999.99
12/23/2020 2:45:00 PM -99999.99 -179968 -99999.99 -99999.99 -99999.99 -99999.99
12/23/2020 3:00:00 PM -99999.99 -179968 -99999.99 -99999.99 -99999.99 -99999.99
12/23/2020 3:15:00 PM -99999.99 -179968 -99999.99 -99999.99 -99999.99 -99999.99
12/23/2020 3:30:00 PM -99999.99 -179968 -99999.99 -99999.99 -99999.99 -99999.99
12/23/2020 3:45:00 PM -99999.99 -179968 -99999.99 -99999.99 -99999.99 -99999.99
12/23/2020 4:00:00 PM -99999.99 -179968 -99999.99 -99999.99 -99999.99 -99999.99
12/23/2020 4:15:00 PM -99999.99 -179968 -99999.99 -99999.99 -99999.99 -99999.99
12/23/2020 4:30:00 PM -99999.99 -179968 -99999.99 -99999.99 -99999.99 -99999.99
12/23/2020 4:45:00 PM -99999.99 -179968 -99999.99 -99999.99 -99999.99 -99999.99
12/23/2020 5:00:00 PM -99999.99 -179968 -99999.99 -99999.99 -99999.99 -99999.99
12/23/2020 5:15:00 PM -99999.99 -179968 -99999.99 -99999.99 -99999.99 -99999.99
12/23/2020 5:30:00 PM -99999.99 -179968 -99999.99 -99999.99 -99999.99 -99999.99
12/23/2020 5:45:00 PM -99999.99 -179968 -99999.99 -99999.99 -99999.99 -99999.99
12/23/2020 6:00:00 PM -99999.99 -179968 -99999.99 -99999.99 -99999.99 -99999.99
12/23/2020 6:15:00 PM -99999.99 -179968 -99999.99 -99999.99 -99999.99 -99999.99
12/23/2020 6:30:00 PM -99999.99 -179968 -99999.99 -99999.99 -99999.99 -99999.99
12/23/2020 6:45:00 PM -99999.99 -179968 -99999.99 -99999.99 -99999.99 -99999.99
12/23/2020 7:00:00 PM -99999.99 -179968 -99999.99 -99999.99 -99999.99 -99999.99
12/23/2020 7:15:00 PM -99999.99 -179968 -99999.99 -99999.99 -99999.99 -99999.99
12/23/2020 7:30:00 PM -99999.99 -179968 -99999.99 -99999.99 -99999.99 -99999.99
12/23/2020 7:45:00 PM -99999.99 -179968 -99999.99 -99999.99 -99999.99 -99999.99
12/23/2020 8:00:00 PM -99999.99 -179968 -99999.99 -99999.99 -99999.99 -99999.99
12/23/2020 8:15:00 PM -99999.99 -179968 -99999.99 -99999.99 -99999.99 -99999.99
12/23/2020 8:30:00 PM -99999.99 -179968 -99999.99 -99999.99 -99999.99 -99999.99
12/23/2020 8:45:00 PM -99999.99 -179968 -99999.99 -99999.99 -99999.99 -99999.99
12/23/2020 9:00:00 PM -99999.99 -179968 -99999.99 -99999.99 -99999.99 -99999.99
12/23/2020 9:15:00 PM -99999.99 -179968 -99999.99 -99999.99 -99999.99 -99999.99
12/23/2020 9:30:00 PM -99999.99 -179968 -99999.99 -99999.99 -99999.99 -99999.99
12/23/2020 9:45:00 PM -99999.99 -179968 -99999.99 -99999.99 -99999.99 -99999.99
12/23/2020 10:00:00 PM -99999.99 -179968 -99999.99 -99999.99 -99999.99 -99999.99
12/23/2020 10:15:00 PM -99999.99 -179968 -99999.99 -99999.99 -99999.99 -99999.99
12/23/2020 10:30:00 PM -99999.99 -179968 -99999.99 -99999.99 -99999.99 -99999.99
12/23/2020 10:45:00 PM -99999.99 -179968 -99999.99 -99999.99 -99999.99 -99999.99
12/23/2020 11:00:00 PM -99999.99 -179968 -99999.99 -99999.99 -99999.99 -99999.99
12/23/2020 11:15:00 PM -99999.99 -179968 -99999.99 -99999.99 -99999.99 -99999.99
12/23/2020 11:30:00 PM -99999.99 -179968 -99999.99 -99999.99 -99999.99 -99999.99
12/23/2020 11:45:00 PM -99999.99 -179968 -99999.99 -99999.99 -99999.99 -99999.99
12/24/2020 12:00:00 AM -99999.99 -179968 -99999.99 -99999.99 -99999.99 -99999.99
12/24/2020 12:15:00 AM -99999.99 -179968 -99999.99 -99999.99 -99999.99 -99999.99
12/24/2020 12:30:00 AM -99999.99 -179968 -99999.99 -99999.99 -99999.99 -99999.99
12/24/2020 12:45:00 AM -99999.99 -179968 -99999.99 -99999.99 -99999.99 -99999.99
12/24/2020 1:00:00 AM -99999.99 -179968 -99999.99 -99999.99 -99999.99 -99999.99
12/24/2020 1:15:00 AM -99999.99 -179968 -99999.99 -99999.99 -99999.99 -99999.99
12/24/2020 1:30:00 AM -99999.99 -179968 -99999.99 -99999.99 -99999.99 -99999.99
12/24/2020 1:45:00 AM -99999.99 -179968 -99999.99 -99999.99 -99999.99 -99999.99
12/24/2020 2:00:00 AM -99999.99 -179968 -99999.99 -99999.99 -99999.99 -99999.99
12/24/2020 2:15:00 AM -99999.99 -179968 -99999.99 -99999.99 -99999.99 -99999.99
12/24/2020 2:30:00 AM -99999.99 -179968 -99999.99 -99999.99 -99999.99 -99999.99
12/24/2020 2:45:00 AM -99999.99 -179968 -99999.99 -99999.99 -99999.99 -99999.99
12/24/2020 3:00:00 AM -99999.99 -179968 -99999.99 -99999.99 -99999.99 -99999.99
12/24/2020 3:15:00 AM -99999.99 -179968 -99999.99 -99999.99 -99999.99 -99999.99
12/24/2020 3:30:00 AM -99999.99 -179968 -99999.99 -99999.99 -99999.99 -99999.99
12/24/2020 3:45:00 AM -99999.99 -179968 -99999.99 -99999.99 -99999.99 -99999.99
12/24/2020 4:00:00 AM -99999.99 -179968 -99999.99 -99999.99 -99999.99 -99999.99
12/24/2020 4:15:00 AM -99999.99 -179968 -99999.99 -99999.99 -99999.99 -99999.99
12/24/2020 4:30:00 AM -99999.99 -179968 -99999.99 -99999.99 -99999.99 -99999.99
12/24/2020 4:45:00 AM -99999.99 -179968 -99999.99 -99999.99 -99999.99 -99999.99
12/24/2020 5:00:00 AM -99999.99 -179968 -99999.99 -99999.99 -99999.99 -99999.99
12/24/2020 5:15:00 AM -99999.99 -179968 -99999.99 -99999.99 -99999.99 -99999.99
12/24/2020 5:30:00 AM -99999.99 -179968 -99999.99 -99999.99 -99999.99 -99999.99
12/24/2020 5:45:00 AM -99999.99 -179968 -99999.99 -99999.99 -99999.99 -99999.99
12/24/2020 6:00:00 AM -99999.99 -179968 -99999.99 -99999.99 -99999.99 -99999.99
12/24/2020 6:15:00 AM -99999.99 -179968 -99999.99 -99999.99 -99999.99 -99999.99
12/24/2020 6:30:00 AM -99999.99 -179968 -99999.99 -99999.99 -99999.99 -99999.99
12/24/2020 6:45:00 AM -99999.99 -179968 -99999.99 -99999.99 -99999.99 -99999.99
12/24/2020 7:00:00 AM -99999.99 -179968 -99999.99 -99999.99 -99999.99 -99999.99
12/24/2020 7:15:00 AM -99999.99 -179968 -99999.99 -99999.99 -99999.99 -99999.99
12/24/2020 7:30:00 AM -99999.99 -179968 -99999.99 -99999.99 -99999.99 -99999.99
12/24/2020 7:45:00 AM -99999.99 -179968 -99999.99 -99999.99 -99999.99 -99999.99
12/24/2020 8:00:00 AM -99999.99 -179968 -99999.99 -99999.99 -99999.99 -99999.99
12/24/2020 8:15:00 AM -99999.99 -179968 -99999.99 -99999.99 -99999.99 -99999.99
12/24/2020 8:30:00 AM -99999.99 -179968 -99999.99 -99999.99 -99999.99 -99999.99
12/24/2020 8:45:00 AM -99999.99 -179968 -99999.99 -99999.99 -99999.99 -99999.99
12/24/2020 9:00:00 AM -99999.99 -179968 -99999.99 -99999.99 -99999.99 -99999.99
12/24/2020 9:15:00 AM -99999.99 -179968 -99999.99 -99999.99 -99999.99 -99999.99
12/24/2020 9:30:00 AM -99999.99 -179968 -99999.99 -99999.99 -99999.99 -99999.99
12/24/2020 9:45:00 AM -99999.99 -179968 -99999.99 -99999.99 -99999.99 -99999.99
12/24/2020 10:00:00 AM -99999.99 -179968 -99999.99 -99999.99 -99999.99 -99999.99
12/24/2020 10:15:00 AM -99999.99 -179968 -99999.99 -99999.99 -99999.99 -99999.99
12/24/2020 10:30:00 AM -99999.99 -179968 -99999.99 -99999.99 -99999.99 -99999.99
12/24/2020 10:45:00 AM -99999.99 -179968 -99999.99 -99999.99 -99999.99 -99999.99
12/24/2020 11:00:00 AM -99999.99 -179968 -99999.99 -99999.99 -99999.99 -99999.99
12/24/2020 11:15:00 AM -99999.99 -179968 -99999.99 -99999.99 -99999.99 -99999.99
12/24/2020 11:30:00 AM -99999.99 -179968 -99999.99 -99999.99 -99999.99 -99999.99
12/24/2020 11:45:00 AM -99999.99 -179968 -99999.99 -99999.99 -99999.99 -99999.99
12/24/2020 12:00:00 PM -99999.99 -179968 -99999.99 -99999.99 -99999.99 -99999.99
12/24/2020 12:15:00 PM -99999.99 -179968 -99999.99 -99999.99 -99999.99 -99999.99
12/24/2020 12:30:00 PM -99999.99 -179968 -99999.99 -99999.99 -99999.99 -99999.99
12/24/2020 12:45:00 PM -99999.99 -179968 -99999.99 -99999.99 -99999.99 -99999.99
12/24/2020 1:00:00 PM -99999.99 -179968 -99999.99 -99999.99 -99999.99 -99999.99
12/24/2020 1:15:00 PM -99999.99 -179968 -99999.99 -99999.99 -99999.99 -99999.99
12/24/2020 1:30:00 PM -99999.99 -179968 -99999.99 -99999.99 -99999.99 -99999.99
12/24/2020 1:45:00 PM -99999.99 -179968 -99999.99 -99999.99 -99999.99 -99999.99
12/24/2020 2:00:00 PM -99999.99 -179968 -99999.99 -99999.99 -99999.99 -99999.99
12/24/2020 2:15:00 PM -99999.99 -179968 -99999.99 -99999.99 -99999.99 -99999.99
12/24/2020 2:30:00 PM -99999.99 -179968 -99999.99 -99999.99 -99999.99 -99999.99
12/24/2020 2:45:00 PM -99999.99 -179968 -99999.99 -99999.99 -99999.99 -99999.99
12/24/2020 3:00:00 PM -99999.99 -179968 -99999.99 -99999.99 -99999.99 -99999.99
12/24/2020 3:15:00 PM -99999.99 -179968 -99999.99 -99999.99 -99999.99 -99999.99
12/24/2020 3:30:00 PM -99999.99 -179968 -99999.99 -99999.99 -99999.99 -99999.99
12/24/2020 3:45:00 PM -99999.99 -179968 -99999.99 -99999.99 -99999.99 -99999.99
12/24/2020 4:00:00 PM -99999.99 -179968 -99999.99 -99999.99 -99999.99 -99999.99
12/24/2020 4:15:00 PM -99999.99 -179968 -99999.99 -99999.99 -99999.99 -99999.99
12/24/2020 4:30:00 PM -99999.99 -179968 -99999.99 -99999.99 -99999.99 -99999.99
12/24/2020 4:45:00 PM -99999.99 -179968 -99999.99 -99999.99 -99999.99 -99999.99
12/24/2020 5:00:00 PM -99999.99 -179968 -99999.99 -99999.99 -99999.99 -99999.99
12/24/2020 5:15:00 PM -99999.99 -179968 -99999.99 -99999.99 -99999.99 -99999.99
12/24/2020 5:30:00 PM -99999.99 -179968 -99999.99 -99999.99 -99999.99 -99999.99
12/24/2020 5:45:00 PM -99999.99 -179968 -99999.99 -99999.99 -99999.99 -99999.99
12/24/2020 6:00:00 PM -99999.99 -179968 -99999.99 -99999.99 -99999.99 -99999.99
12/24/2020 6:15:00 PM -99999.99 -179968 -99999.99 -99999.99 -99999.99 -99999.99
12/24/2020 6:30:00 PM -99999.99 -179968 -99999.99 -99999.99 -99999.99 -99999.99
12/24/2020 6:45:00 PM -99999.99 -179968 -99999.99 -99999.99 -99999.99 -99999.99
12/24/2020 7:00:00 PM -99999.99 -179968 -99999.99 -99999.99 -99999.99 -99999.99
12/24/2020 7:15:00 PM -99999.99 -179968 -99999.99 -99999.99 -99999.99 -99999.99
12/24/2020 7:30:00 PM -99999.99 -179968 -99999.99 -99999.99 -99999.99 -99999.99
12/24/2020 7:45:00 PM -99999.99 -179968 -99999.99 -99999.99 -99999.99 -99999.99
12/24/2020 8:00:00 PM -99999.99 -179968 -99999.99 -99999.99 -99999.99 -99999.99
12/24/2020 8:15:00 PM -99999.99 -179968 -99999.99 -99999.99 -99999.99 -99999.99
12/24/2020 8:30:00 PM -99999.99 -179968 -99999.99 -99999.99 -99999.99 -99999.99
12/24/2020 8:45:00 PM -99999.99 -179968 -99999.99 -99999.99 -99999.99 -99999.99
12/24/2020 9:00:00 PM -99999.99 -179968 -99999.99 -99999.99 -99999.99 -99999.99
12/24/2020 9:15:00 PM -99999.99 -179968 -99999.99 -99999.99 -99999.99 -99999.99
12/24/2020 9:30:00 PM -99999.99 -179968 -99999.99 -99999.99 -99999.99 -99999.99
12/24/2020 9:45:00 PM -99999.99 -179968 -99999.99 -99999.99 -99999.99 -99999.99
12/24/2020 10:00:00 PM -99999.99 -179968 -99999.99 -99999.99 -99999.99 -99999.99
12/24/2020 10:15:00 PM -99999.99 -179968 -99999.99 -99999.99 -99999.99 -99999.99
12/24/2020 10:30:00 PM -99999.99 -179968 -99999.99 -99999.99 -99999.99 -99999.99
12/24/2020 10:45:00 PM -99999.99 -179968 -99999.99 -99999.99 -99999.99 -99999.99
12/24/2020 11:00:00 PM -99999.99 -179968 -99999.99 -99999.99 -99999.99 -99999.99
12/24/2020 11:15:00 PM -99999.99 -179968 -99999.99 -99999.99 -99999.99 -99999.99
12/24/2020 11:30:00 PM -99999.99 -179968 -99999.99 -99999.99 -99999.99 -99999.99
12/24/2020 11:45:00 PM -99999.99 -179968 -99999.99 -99999.99 -99999.99 -99999.99
12/25/2020 12:00:00 AM -99999.99 -179968 -99999.99 -99999.99 -99999.99 -99999.99
12/25/2020 12:15:00 AM -99999.99 -179968 -99999.99 -99999.99 -99999.99 -99999.99
12/25/2020 12:30:00 AM -99999.99 -179968 -99999.99 -99999.99 -99999.99 -99999.99
12/25/2020 12:45:00 AM -99999.99 -179968 -99999.99 -99999.99 -99999.99 -99999.99
12/25/2020 1:00:00 AM -99999.99 -179968 -99999.99 -99999.99 -99999.99 -99999.99
12/25/2020 1:15:00 AM -99999.99 -179968 -99999.99 -99999.99 -99999.99 -99999.99
12/25/2020 1:30:00 AM -99999.99 -179968 -99999.99 -99999.99 -99999.99 -99999.99
12/25/2020 1:45:00 AM -99999.99 -179968 -99999.99 -99999.99 -99999.99 -99999.99
12/25/2020 2:00:00 AM -99999.99 -179968 -99999.99 -99999.99 -99999.99 -99999.99
12/25/2020 2:15:00 AM -99999.99 -179968 -99999.99 -99999.99 -99999.99 -99999.99
12/25/2020 2:30:00 AM -99999.99 -179968 -99999.99 -99999.99 -99999.99 -99999.99
12/25/2020 2:45:00 AM -99999.99 -179968 -99999.99 -99999.99 -99999.99 -99999.99
12/25/2020 3:00:00 AM -99999.99 -179968 -99999.99 -99999.99 -99999.99 -99999.99
12/25/2020 3:15:00 AM -99999.99 -179968 -99999.99 -99999.99 -99999.99 -99999.99
12/25/2020 3:30:00 AM -99999.99 -179968 -99999.99 -99999.99 -99999.99 -99999.99
12/25/2020 3:45:00 AM -99999.99 -179968 -99999.99 -99999.99 -99999.99 -99999.99
12/25/2020 4:00:00 AM -99999.99 -179968 -99999.99 -99999.99 -99999.99 -99999.99
12/25/2020 4:15:00 AM -99999.99 -179968 -99999.99 -99999.99 -99999.99 -99999.99
12/25/2020 4:30:00 AM -99999.99 -179968 -99999.99 -99999.99 -99999.99 -99999.99
12/25/2020 4:45:00 AM -99999.99 -179968 -99999.99 -99999.99 -99999.99 -99999.99
12/25/2020 5:00:00 AM -99999.99 -179968 -99999.99 -99999.99 -99999.99 -99999.99
12/25/2020 5:15:00 AM -99999.99 -179968 -99999.99 -99999.99 -99999.99 -99999.99
12/25/2020 5:30:00 AM -99999.99 -179968 -99999.99 -99999.99 -99999.99 -99999.99
12/25/2020 5:45:00 AM -99999.99 -179968 -99999.99 -99999.99 -99999.99 -99999.99
12/25/2020 6:00:00 AM -99999.99 -179968 -99999.99 -99999.99 -99999.99 -99999.99
12/25/2020 6:15:00 AM -99999.99 -179968 -99999.99 -99999.99 -99999.99 -99999.99
12/25/2020 6:30:00 AM -99999.99 -179968 -99999.99 -99999.99 -99999.99 -99999.99
12/25/2020 6:45:00 AM -99999.99 -179968 -99999.99 -99999.99 -99999.99 -99999.99
12/25/2020 7:00:00 AM -99999.99 -179968 -99999.99 -99999.99 -99999.99 -99999.99
12/25/2020 7:15:00 AM -99999.99 -179968 -99999.99 -99999.99 -99999.99 -99999.99
12/25/2020 7:30:00 AM -99999.99 -179968 -99999.99 -99999.99 -99999.99 -99999.99
12/25/2020 7:45:00 AM -99999.99 -179968 -99999.99 -99999.99 -99999.99 -99999.99
12/25/2020 8:00:00 AM -99999.99 -179968 -99999.99 -99999.99 -99999.99 -99999.99
12/25/2020 8:15:00 AM -99999.99 -179968 -99999.99 -99999.99 -99999.99 -99999.99
12/25/2020 8:30:00 AM -99999.99 -179968 -99999.99 -99999.99 -99999.99 -99999.99
12/25/2020 8:45:00 AM -99999.99 -179968 -99999.99 -99999.99 -99999.99 -99999.99
12/25/2020 9:00:00 AM -99999.99 -179968 -99999.99 -99999.99 -99999.99 -99999.99
12/25/2020 9:15:00 AM -99999.99 -179968 -99999.99 -99999.99 -99999.99 -99999.99
12/25/2020 9:30:00 AM -99999.99 -179968 -99999.99 -99999.99 -99999.99 -99999.99
12/25/2020 9:45:00 AM -99999.99 -179968 -99999.99 -99999.99 -99999.99 -99999.99
12/25/2020 10:00:00 AM -99999.99 -179968 -99999.99 -99999.99 -99999.99 -99999.99
12/25/2020 10:15:00 AM -99999.99 -179968 -99999.99 -99999.99 -99999.99 -99999.99
12/25/2020 10:30:00 AM -99999.99 -179968 -99999.99 -99999.99 -99999.99 -99999.99
12/25/2020 10:45:00 AM -99999.99 -179968 -99999.99 -99999.99 -99999.99 -99999.99
12/25/2020 11:00:00 AM -99999.99 -179968 -99999.99 -99999.99 -99999.99 -99999.99
12/25/2020 11:15:00 AM -99999.99 -179968 -99999.99 -99999.99 -99999.99 -99999.99
12/25/2020 11:30:00 AM -99999.99 -179968 -99999.99 -99999.99 -99999.99 -99999.99
12/25/2020 11:45:00 AM -99999.99 -179968 -99999.99 -99999.99 -99999.99 -99999.99
12/25/2020 12:00:00 PM -99999.99 -179968 -99999.99 -99999.99 -99999.99 -99999.99
12/25/2020 12:15:00 PM -99999.99 -179968 -99999.99 -99999.99 -99999.99 -99999.99
12/25/2020 12:30:00 PM -99999.99 -179968 -99999.99 -99999.99 -99999.99 -99999.99
12/25/2020 12:45:00 PM -99999.99 -179968 -99999.99 -99999.99 -99999.99 -99999.99
12/25/2020 1:00:00 PM -99999.99 -179968 -99999.99 -99999.99 -99999.99 -99999.99
12/25/2020 1:15:00 PM -99999.99 -179968 -99999.99 -99999.99 -99999.99 -99999.99
12/25/2020 1:30:00 PM -99999.99 -179968 -99999.99 -99999.99 -99999.99 -99999.99
12/25/2020 1:45:00 PM -99999.99 -179968 -99999.99 -99999.99 -99999.99 -99999.99
12/25/2020 2:00:00 PM -99999.99 -179968 -99999.99 -99999.99 -99999.99 -99999.99
12/25/2020 2:15:00 PM -99999.99 -179968 -99999.99 -99999.99 -99999.99 -99999.99
12/25/2020 2:30:00 PM -99999.99 -179968 -99999.99 -99999.99 -99999.99 -99999.99
12/25/2020 2:45:00 PM -99999.99 -179968 -99999.99 -99999.99 -99999.99 -99999.99
12/25/2020 3:00:00 PM -99999.99 -179968 -99999.99 -99999.99 -99999.99 -99999.99
12/25/2020 3:15:00 PM -99999.99 -179968 -99999.99 -99999.99 -99999.99 -99999.99
12/25/2020 3:30:00 PM -99999.99 -179968 -99999.99 -99999.99 -99999.99 -99999.99
12/25/2020 3:45:00 PM -99999.99 -179968 -99999.99 -99999.99 -99999.99 -99999.99
12/25/2020 4:00:00 PM -99999.99 -179968 -99999.99 -99999.99 -99999.99 -99999.99
12/25/2020 4:15:00 PM -99999.99 -179968 -99999.99 -99999.99 -99999.99 -99999.99
12/25/2020 4:30:00 PM -99999.99 -179968 -99999.99 -99999.99 -99999.99 -99999.99
12/25/2020 4:45:00 PM -99999.99 -179968 -99999.99 -99999.99 -99999.99 -99999.99
12/25/2020 5:00:00 PM -99999.99 -179968 -99999.99 -99999.99 -99999.99 -99999.99
12/25/2020 5:15:00 PM -99999.99 -179968 -99999.99 -99999.99 -99999.99 -99999.99
12/25/2020 5:30:00 PM -99999.99 -179968 -99999.99 -99999.99 -99999.99 -99999.99
12/25/2020 5:45:00 PM -99999.99 -179968 -99999.99 -99999.99 -99999.99 -99999.99
12/25/2020 6:00:00 PM -99999.99 -179968 -99999.99 -99999.99 -99999.99 -99999.99
12/25/2020 6:15:00 PM -99999.99 -179968 -99999.99 -99999.99 -99999.99 -99999.99
12/25/2020 6:30:00 PM -99999.99 -179968 -99999.99 -99999.99 -99999.99 -99999.99
12/25/2020 6:45:00 PM -99999.99 -179968 -99999.99 -99999.99 -99999.99 -99999.99
12/25/2020 7:00:00 PM -99999.99 -179968 -99999.99 -99999.99 -99999.99 -99999.99
12/25/2020 7:15:00 PM -99999.99 -179968 -99999.99 -99999.99 -99999.99 -99999.99
12/25/2020 7:30:00 PM -99999.99 -179968 -99999.99 -99999.99 -99999.99 -99999.99
12/25/2020 7:45:00 PM -99999.99 -179968 -99999.99 -99999.99 -99999.99 -99999.99
12/25/2020 8:00:00 PM -99999.99 -179968 -99999.99 -99999.99 -99999.99 -99999.99
12/25/2020 8:15:00 PM -99999.99 -179968 -99999.99 -99999.99 -99999.99 -99999.99
12/25/2020 8:30:00 PM -99999.99 -179968 -99999.99 -99999.99 -99999.99 -99999.99
12/25/2020 8:45:00 PM -99999.99 -179968 -99999.99 -99999.99 -99999.99 -99999.99
12/25/2020 9:00:00 PM -99999.99 -179968 -99999.99 -99999.99 -99999.99 -99999.99
12/25/2020 9:15:00 PM -99999.99 -179968 -99999.99 -99999.99 -99999.99 -99999.99
12/25/2020 9:30:00 PM -99999.99 -179968 -99999.99 -99999.99 -99999.99 -99999.99
12/25/2020 9:45:00 PM -99999.99 -179968 -99999.99 -99999.99 -99999.99 -99999.99
12/25/2020 10:00:00 PM -99999.99 -179968 -99999.99 -99999.99 -99999.99 -99999.99
12/25/2020 10:15:00 PM -99999.99 -179968 -99999.99 -99999.99 -99999.99 -99999.99
12/25/2020 10:30:00 PM -99999.99 -179968 -99999.99 -99999.99 -99999.99 -99999.99
12/25/2020 10:45:00 PM -99999.99 -179968 -99999.99 -99999.99 -99999.99 -99999.99
12/25/2020 11:00:00 PM -99999.99 -179968 -99999.99 -99999.99 -99999.99 -99999.99
12/25/2020 11:15:00 PM -99999.99 -179968 -99999.99 -99999.99 -99999.99 -99999.99
12/25/2020 11:30:00 PM -99999.99 -179968 -99999.99 -99999.99 -99999.99 -99999.99
12/25/2020 11:45:00 PM -99999.99 -179968 -99999.99 -99999.99 -99999.99 -99999.99
12/26/2020 12:00:00 AM -99999.99 -179968 -99999.99 -99999.99 -99999.99 -99999.99
12/26/2020 12:15:00 AM -99999.99 -179968 -99999.99 -99999.99 -99999.99 -99999.99
12/26/2020 12:30:00 AM -99999.99 -179968 -99999.99 -99999.99 -99999.99 -99999.99
12/26/2020 12:45:00 AM -99999.99 -179968 -99999.99 -99999.99 -99999.99 -99999.99
12/26/2020 1:00:00 AM -99999.99 -179968 -99999.99 -99999.99 -99999.99 -99999.99
12/26/2020 1:15:00 AM -99999.99 -179968 -99999.99 -99999.99 -99999.99 -99999.99
12/26/2020 1:30:00 AM -99999.99 -179968 -99999.99 -99999.99 -99999.99 -99999.99
12/26/2020 1:45:00 AM -99999.99 -179968 -99999.99 -99999.99 -99999.99 -99999.99
12/26/2020 2:00:00 AM -99999.99 -179968 -99999.99 -99999.99 -99999.99 -99999.99
12/26/2020 2:15:00 AM -99999.99 -179968 -99999.99 -99999.99 -99999.99 -99999.99
12/26/2020 2:30:00 AM -99999.99 -179968 -99999.99 -99999.99 -99999.99 -99999.99
12/26/2020 2:45:00 AM -99999.99 -179968 -99999.99 -99999.99 -99999.99 -99999.99
12/26/2020 3:00:00 AM -99999.99 -179968 -99999.99 -99999.99 -99999.99 -99999.99
12/26/2020 3:15:00 AM -99999.99 -179968 -99999.99 -99999.99 -99999.99 -99999.99
12/26/2020 3:30:00 AM -99999.99 -179968 -99999.99 -99999.99 -99999.99 -99999.99
12/26/2020 3:45:00 AM -99999.99 -179968 -99999.99 -99999.99 -99999.99 -99999.99
12/26/2020 4:00:00 AM -99999.99 -179968 -99999.99 -99999.99 -99999.99 -99999.99
12/26/2020 4:15:00 AM -99999.99 -179968 -99999.99 -99999.99 -99999.99 -99999.99
12/26/2020 4:30:00 AM -99999.99 -179968 -99999.99 -99999.99 -99999.99 -99999.99
12/26/2020 4:45:00 AM -99999.99 -179968 -99999.99 -99999.99 -99999.99 -99999.99
12/26/2020 5:00:00 AM -99999.99 -179968 -99999.99 -99999.99 -99999.99 -99999.99
12/26/2020 5:15:00 AM -99999.99 -179968 -99999.99 -99999.99 -99999.99 -99999.99
12/26/2020 5:30:00 AM -99999.99 -179968 -99999.99 -99999.99 -99999.99 -99999.99
12/26/2020 5:45:00 AM -99999.99 -179968 -99999.99 -99999.99 -99999.99 -99999.99
12/26/2020 6:00:00 AM -99999.99 -179968 -99999.99 -99999.99 -99999.99 -99999.99
12/26/2020 6:15:00 AM -99999.99 -179968 -99999.99 -99999.99 -99999.99 -99999.99
12/26/2020 6:30:00 AM -99999.99 -179968 -99999.99 -99999.99 -99999.99 -99999.99
12/26/2020 6:45:00 AM -99999.99 -179968 -99999.99 -99999.99 -99999.99 -99999.99
12/26/2020 7:00:00 AM -99999.99 -179968 -99999.99 -99999.99 -99999.99 -99999.99
12/26/2020 7:15:00 AM -99999.99 -179968 -99999.99 -99999.99 -99999.99 -99999.99
12/26/2020 7:30:00 AM -99999.99 -179968 -99999.99 -99999.99 -99999.99 -99999.99
12/26/2020 7:45:00 AM -99999.99 -179968 -99999.99 -99999.99 -99999.99 -99999.99
12/26/2020 8:00:00 AM -99999.99 -179968 -99999.99 -99999.99 -99999.99 -99999.99
12/26/2020 8:15:00 AM -99999.99 -179968 -99999.99 -99999.99 -99999.99 -99999.99
12/26/2020 8:30:00 AM -99999.99 -179968 -99999.99 -99999.99 -99999.99 -99999.99
12/26/2020 8:45:00 AM -99999.99 -179968 -99999.99 -99999.99 -99999.99 -99999.99
12/26/2020 9:00:00 AM -99999.99 -179968 -99999.99 -99999.99 -99999.99 -99999.99
12/26/2020 9:15:00 AM -99999.99 -179968 -99999.99 -99999.99 -99999.99 -99999.99
12/26/2020 9:30:00 AM -99999.99 -179968 -99999.99 -99999.99 -99999.99 -99999.99
12/26/2020 9:45:00 AM -99999.99 -179968 -99999.99 -99999.99 -99999.99 -99999.99
12/26/2020 10:00:00 AM -99999.99 -179968 -99999.99 -99999.99 -99999.99 -99999.99
12/26/2020 10:15:00 AM -99999.99 -179968 -99999.99 -99999.99 -99999.99 -99999.99
12/26/2020 10:30:00 AM -99999.99 -179968 -99999.99 -99999.99 -99999.99 -99999.99
12/26/2020 10:45:00 AM -99999.99 -179968 -99999.99 -99999.99 -99999.99 -99999.99
12/26/2020 11:00:00 AM -99999.99 -179968 -99999.99 -99999.99 -99999.99 -99999.99
12/26/2020 11:15:00 AM -99999.99 -179968 -99999.99 -99999.99 -99999.99 -99999.99
12/26/2020 11:30:00 AM -99999.99 -179968 -99999.99 -99999.99 -99999.99 -99999.99
12/26/2020 11:45:00 AM -99999.99 -179968 -99999.99 -99999.99 -99999.99 -99999.99
12/26/2020 12:00:00 PM -99999.99 -179968 -99999.99 -99999.99 -99999.99 -99999.99
12/26/2020 12:15:00 PM -99999.99 -179968 -99999.99 -99999.99 -99999.99 -99999.99
12/26/2020 12:30:00 PM -99999.99 -179968 -99999.99 -99999.99 -99999.99 -99999.99
12/26/2020 12:45:00 PM -99999.99 -179968 -99999.99 -99999.99 -99999.99 -99999.99
12/26/2020 1:00:00 PM -99999.99 -179968 -99999.99 -99999.99 -99999.99 -99999.99
12/26/2020 1:15:00 PM -99999.99 -179968 -99999.99 -99999.99 -99999.99 -99999.99
12/26/2020 1:30:00 PM -99999.99 -179968 -99999.99 -99999.99 -99999.99 -99999.99
12/26/2020 1:45:00 PM -99999.99 -179968 -99999.99 -99999.99 -99999.99 -99999.99
12/26/2020 2:00:00 PM -99999.99 -179968 -99999.99 -99999.99 -99999.99 -99999.99
12/26/2020 2:15:00 PM -99999.99 -179968 -99999.99 -99999.99 -99999.99 -99999.99
12/26/2020 2:30:00 PM -99999.99 -179968 -99999.99 -99999.99 -99999.99 -99999.99
12/26/2020 2:45:00 PM -99999.99 -179968 -99999.99 -99999.99 -99999.99 -99999.99
12/26/2020 3:00:00 PM -99999.99 -179968 -99999.99 -99999.99 -99999.99 -99999.99
12/26/2020 3:15:00 PM -99999.99 -179968 -99999.99 -99999.99 -99999.99 -99999.99
12/26/2020 3:30:00 PM -99999.99 -179968 -99999.99 -99999.99 -99999.99 -99999.99
12/26/2020 3:45:00 PM -99999.99 -179968 -99999.99 -99999.99 -99999.99 -99999.99
12/26/2020 4:00:00 PM -99999.99 -179968 -99999.99 -99999.99 -99999.99 -99999.99
12/26/2020 4:15:00 PM -99999.99 -179968 -99999.99 -99999.99 -99999.99 -99999.99
12/26/2020 4:30:00 PM -99999.99 -179968 -99999.99 -99999.99 -99999.99 -99999.99
12/26/2020 4:45:00 PM -99999.99 -179968 -99999.99 -99999.99 -99999.99 -99999.99
12/26/2020 5:00:00 PM -99999.99 -179968 -99999.99 -99999.99 -99999.99 -99999.99
12/26/2020 5:15:00 PM -99999.99 -179968 -99999.99 -99999.99 -99999.99 -99999.99
12/26/2020 5:30:00 PM -99999.99 -179968 -99999.99 -99999.99 -99999.99 -99999.99
12/26/2020 5:45:00 PM -99999.99 -179968 -99999.99 -99999.99 -99999.99 -99999.99
12/26/2020 6:00:00 PM -99999.99 -179968 -99999.99 -99999.99 -99999.99 -99999.99
12/26/2020 6:15:00 PM -99999.99 -179968 -99999.99 -99999.99 -99999.99 -99999.99
12/26/2020 6:30:00 PM -99999.99 -179968 -99999.99 -99999.99 -99999.99 -99999.99
12/26/2020 6:45:00 PM -99999.99 -179968 -99999.99 -99999.99 -99999.99 -99999.99
12/26/2020 7:00:00 PM -99999.99 -179968 -99999.99 -99999.99 -99999.99 -99999.99
12/26/2020 7:15:00 PM -99999.99 -179968 -99999.99 -99999.99 -99999.99 -99999.99
12/26/2020 7:30:00 PM -99999.99 -179968 -99999.99 -99999.99 -99999.99 -99999.99
12/26/2020 7:45:00 PM -99999.99 -179968 -99999.99 -99999.99 -99999.99 -99999.99
12/26/2020 8:00:00 PM -99999.99 -179968 -99999.99 -99999.99 -99999.99 -99999.99
12/26/2020 8:15:00 PM -99999.99 -179968 -99999.99 -99999.99 -99999.99 -99999.99
12/26/2020 8:30:00 PM -99999.99 -179968 -99999.99 -99999.99 -99999.99 -99999.99
12/26/2020 8:45:00 PM -99999.99 -179968 -99999.99 -99999.99 -99999.99 -99999.99
12/26/2020 9:00:00 PM -99999.99 -179968 -99999.99 -99999.99 -99999.99 -99999.99
12/26/2020 9:15:00 PM -99999.99 -179968 -99999.99 -99999.99 -99999.99 -99999.99
12/26/2020 9:30:00 PM -99999.99 -179968 -99999.99 -99999.99 -99999.99 -99999.99
12/26/2020 9:45:00 PM -99999.99 -179968 -99999.99 -99999.99 -99999.99 -99999.99
12/26/2020 10:00:00 PM -99999.99 -179968 -99999.99 -99999.99 -99999.99 -99999.99
12/26/2020 10:15:00 PM -99999.99 -179968 -99999.99 -99999.99 -99999.99 -99999.99
12/26/2020 10:30:00 PM -99999.99 -179968 -99999.99 -99999.99 -99999.99 -99999.99
12/26/2020 10:45:00 PM -99999.99 -179968 -99999.99 -99999.99 -99999.99 -99999.99
12/26/2020 11:00:00 PM -99999.99 -179968 -99999.99 -99999.99 -99999.99 -99999.99
12/26/2020 11:15:00 PM -99999.99 -179968 -99999.99 -99999.99 -99999.99 -99999.99
12/26/2020 11:30:00 PM -99999.99 -179968 -99999.99 -99999.99 -99999.99 -99999.99
12/26/2020 11:45:00 PM -99999.99 -179968 -99999.99 -99999.99 -99999.99 -99999.99
12/27/2020 12:00:00 AM -99999.99 -179968 -99999.99 -99999.99 -99999.99 -99999.99
12/27/2020 12:15:00 AM -99999.99 -179968 -99999.99 -99999.99 -99999.99 -99999.99
12/27/2020 12:30:00 AM -99999.99 -179968 -99999.99 -99999.99 -99999.99 -99999.99
12/27/2020 12:45:00 AM -99999.99 -179968 -99999.99 -99999.99 -99999.99 -99999.99
12/27/2020 1:00:00 AM -99999.99 -179968 -99999.99 -99999.99 -99999.99 -99999.99
12/27/2020 1:15:00 AM -99999.99 -179968 -99999.99 -99999.99 -99999.99 -99999.99
12/27/2020 1:30:00 AM -99999.99 -179968 -99999.99 -99999.99 -99999.99 -99999.99
12/27/2020 1:45:00 AM -99999.99 -179968 -99999.99 -99999.99 -99999.99 -99999.99
12/27/2020 2:00:00 AM -99999.99 -179968 -99999.99 -99999.99 -99999.99 -99999.99
12/27/2020 2:15:00 AM -99999.99 -179968 -99999.99 -99999.99 -99999.99 -99999.99
12/27/2020 2:30:00 AM -99999.99 -179968 -99999.99 -99999.99 -99999.99 -99999.99
12/27/2020 2:45:00 AM -99999.99 -179968 -99999.99 -99999.99 -99999.99 -99999.99
12/27/2020 3:00:00 AM -99999.99 -179968 -99999.99 -99999.99 -99999.99 -99999.99
12/27/2020 3:15:00 AM -99999.99 -179968 -99999.99 -99999.99 -99999.99 -99999.99
12/27/2020 3:30:00 AM -99999.99 -179968 -99999.99 -99999.99 -99999.99 -99999.99
12/27/2020 3:45:00 AM -99999.99 -179968 -99999.99 -99999.99 -99999.99 -99999.99
12/27/2020 4:00:00 AM -99999.99 -179968 -99999.99 -99999.99 -99999.99 -99999.99
12/27/2020 4:15:00 AM -99999.99 -179968 -99999.99 -99999.99 -99999.99 -99999.99
12/27/2020 4:30:00 AM -99999.99 -179968 -99999.99 -99999.99 -99999.99 -99999.99
12/27/2020 4:45:00 AM -99999.99 -179968 -99999.99 -99999.99 -99999.99 -99999.99
12/27/2020 5:00:00 AM -99999.99 -179968 -99999.99 -99999.99 -99999.99 -99999.99
12/27/2020 5:15:00 AM -99999.99 -179968 -99999.99 -99999.99 -99999.99 -99999.99
12/27/2020 5:30:00 AM -99999.99 -179968 -99999.99 -99999.99 -99999.99 -99999.99
12/27/2020 5:45:00 AM -99999.99 -179968 -99999.99 -99999.99 -99999.99 -99999.99
12/27/2020 6:00:00 AM -99999.99 -179968 -99999.99 -99999.99 -99999.99 -99999.99
12/27/2020 6:15:00 AM -99999.99 -179968 -99999.99 -99999.99 -99999.99 -99999.99
12/27/2020 6:30:00 AM -99999.99 -179968 -99999.99 -99999.99 -99999.99 -99999.99
12/27/2020 6:45:00 AM -99999.99 -179968 -99999.99 -99999.99 -99999.99 -99999.99
12/27/2020 7:00:00 AM -99999.99 -179968 -99999.99 -99999.99 -99999.99 -99999.99
12/27/2020 7:15:00 AM -99999.99 -179968 -99999.99 -99999.99 -99999.99 -99999.99
12/27/2020 7:30:00 AM -99999.99 -179968 -99999.99 -99999.99 -99999.99 -99999.99
12/27/2020 7:45:00 AM -99999.99 -179968 -99999.99 -99999.99 -99999.99 -99999.99
12/27/2020 8:00:00 AM -99999.99 -179968 -99999.99 -99999.99 -99999.99 -99999.99
12/27/2020 8:15:00 AM -99999.99 -179968 -99999.99 -99999.99 -99999.99 -99999.99
12/27/2020 8:30:00 AM -99999.99 -179968 -99999.99 -99999.99 -99999.99 -99999.99
12/27/2020 8:45:00 AM -99999.99 -179968 -99999.99 -99999.99 -99999.99 -99999.99
12/27/2020 9:00:00 AM -99999.99 -179968 -99999.99 -99999.99 -99999.99 -99999.99
12/27/2020 9:15:00 AM -99999.99 -179968 -99999.99 -99999.99 -99999.99 -99999.99
12/27/2020 9:30:00 AM -99999.99 -179968 -99999.99 -99999.99 -99999.99 -99999.99
12/27/2020 9:45:00 AM -99999.99 -179968 -99999.99 -99999.99 -99999.99 -99999.99
12/27/2020 10:00:00 AM -99999.99 -179968 -99999.99 -99999.99 -99999.99 -99999.99
12/27/2020 10:15:00 AM -99999.99 -179968 -99999.99 -99999.99 -99999.99 -99999.99
12/27/2020 10:30:00 AM -99999.99 -179968 -99999.99 -99999.99 -99999.99 -99999.99
12/27/2020 10:45:00 AM -99999.99 -179968 -99999.99 -99999.99 -99999.99 -99999.99
12/27/2020 11:00:00 AM -99999.99 -179968 -99999.99 -99999.99 -99999.99 -99999.99
12/27/2020 11:15:00 AM -99999.99 -179968 -99999.99 -99999.99 -99999.99 -99999.99
12/27/2020 11:30:00 AM -99999.99 -179968 -99999.99 -99999.99 -99999.99 -99999.99
12/27/2020 11:45:00 AM -99999.99 -179968 -99999.99 -99999.99 -99999.99 -99999.99
12/27/2020 12:00:00 PM -99999.99 -179968 -99999.99 -99999.99 -99999.99 -99999.99
12/27/2020 12:15:00 PM -99999.99 -179968 -99999.99 -99999.99 -99999.99 -99999.99
12/27/2020 12:30:00 PM -99999.99 -179968 -99999.99 -99999.99 -99999.99 -99999.99
12/27/2020 12:45:00 PM -99999.99 -179968 -99999.99 -99999.99 -99999.99 -99999.99
12/27/2020 1:00:00 PM -99999.99 -179968 -99999.99 -99999.99 -99999.99 -99999.99
12/27/2020 1:15:00 PM -99999.99 -179968 -99999.99 -99999.99 -99999.99 -99999.99
12/27/2020 1:30:00 PM -99999.99 -179968 -99999.99 -99999.99 -99999.99 -99999.99
12/27/2020 1:45:00 PM -99999.99 -179968 -99999.99 -99999.99 -99999.99 -99999.99
12/27/2020 2:00:00 PM -99999.99 -179968 -99999.99 -99999.99 -99999.99 -99999.99
12/27/2020 2:15:00 PM -99999.99 -179968 -99999.99 -99999.99 -99999.99 -99999.99
12/27/2020 2:30:00 PM -99999.99 -179968 -99999.99 -99999.99 -99999.99 -99999.99
12/27/2020 2:45:00 PM -99999.99 -179968 -99999.99 -99999.99 -99999.99 -99999.99
12/27/2020 3:00:00 PM -99999.99 -179968 -99999.99 -99999.99 -99999.99 -99999.99
12/27/2020 3:15:00 PM -99999.99 -179968 -99999.99 -99999.99 -99999.99 -99999.99
12/27/2020 3:30:00 PM -99999.99 -179968 -99999.99 -99999.99 -99999.99 -99999.99
12/27/2020 3:45:00 PM -99999.99 -179968 -99999.99 -99999.99 -99999.99 -99999.99
12/27/2020 4:00:00 PM -99999.99 -179968 -99999.99 -99999.99 -99999.99 -99999.99
12/27/2020 4:15:00 PM -99999.99 -179968 -99999.99 -99999.99 -99999.99 -99999.99
12/27/2020 4:30:00 PM -99999.99 -179968 -99999.99 -99999.99 -99999.99 -99999.99
12/27/2020 4:45:00 PM -99999.99 -179968 -99999.99 -99999.99 -99999.99 -99999.99
12/27/2020 5:00:00 PM -99999.99 -179968 -99999.99 -99999.99 -99999.99 -99999.99
12/27/2020 5:15:00 PM -99999.99 -179968 -99999.99 -99999.99 -99999.99 -99999.99
12/27/2020 5:30:00 PM -99999.99 -179968 -99999.99 -99999.99 -99999.99 -99999.99
12/27/2020 5:45:00 PM -99999.99 -179968 -99999.99 -99999.99 -99999.99 -99999.99
12/27/2020 6:00:00 PM -99999.99 -179968 -99999.99 -99999.99 -99999.99 -99999.99
12/27/2020 6:15:00 PM -99999.99 -179968 -99999.99 -99999.99 -99999.99 -99999.99
12/27/2020 6:30:00 PM -99999.99 -179968 -99999.99 -99999.99 -99999.99 -99999.99
12/27/2020 6:45:00 PM -99999.99 -179968 -99999.99 -99999.99 -99999.99 -99999.99
12/27/2020 7:00:00 PM -99999.99 -179968 -99999.99 -99999.99 -99999.99 -99999.99
12/27/2020 7:15:00 PM -99999.99 -179968 -99999.99 -99999.99 -99999.99 -99999.99
12/27/2020 7:30:00 PM -99999.99 -179968 -99999.99 -99999.99 -99999.99 -99999.99
12/27/2020 7:45:00 PM -99999.99 -179968 -99999.99 -99999.99 -99999.99 -99999.99
12/27/2020 8:00:00 PM -99999.99 -179968 -99999.99 -99999.99 -99999.99 -99999.99
12/27/2020 8:15:00 PM -99999.99 -179968 -99999.99 -99999.99 -99999.99 -99999.99
12/27/2020 8:30:00 PM -99999.99 -179968 -99999.99 -99999.99 -99999.99 -99999.99
12/27/2020 8:45:00 PM -99999.99 -179968 -99999.99 -99999.99 -99999.99 -99999.99
12/27/2020 9:00:00 PM -99999.99 -179968 -99999.99 -99999.99 -99999.99 -99999.99
12/27/2020 9:15:00 PM -99999.99 -179968 -99999.99 -99999.99 -99999.99 -99999.99
12/27/2020 9:30:00 PM -99999.99 -179968 -99999.99 -99999.99 -99999.99 -99999.99
12/27/2020 9:45:00 PM -99999.99 -179968 -99999.99 -99999.99 -99999.99 -99999.99
12/27/2020 10:00:00 PM -99999.99 -179968 -99999.99 -99999.99 -99999.99 -99999.99
12/27/2020 10:15:00 PM -99999.99 -179968 -99999.99 -99999.99 -99999.99 -99999.99
12/27/2020 10:30:00 PM -99999.99 -179968 -99999.99 -99999.99 -99999.99 -99999.99
12/27/2020 10:45:00 PM